<?xml version='1.0' encoding='UTF-8'?><gpx version="1.1" creator="JPX - https://github.com/jenetics/jpx" xmlns="http://www.topografix.com/GPX/1/1"><trk><trkseg><trkpt lat="41.659392406983244" lon="13.129444410204362"><ele>797.0</ele><time>2026-04-12T17:10:49.999Z</time></trkpt><trkpt lat="41.65939393997288" lon="13.129309810157595"><ele>797.0</ele><time>2026-04-12T17:10:52.999Z</time></trkpt><trkpt lat="41.65939969919647" lon="13.129186398402023"><ele>797.0</ele><time>2026-04-12T17:10:54.999Z</time></trkpt><trkpt lat="41.65941158330416" lon="13.129047396308302"><ele>797.0</ele><time>2026-04-12T17:10:56.999Z</time></trkpt><trkpt lat="41.659424808447255" lon="13.128938716576052"><ele>797.0</ele><time>2026-04-12T17:10:57.999Z</time></trkpt><trkpt lat="41.659429835427396" lon="13.128840113452538"><ele>795.8</ele><time>2026-04-12T17:10:58.999Z</time></trkpt><trkpt lat="41.65945838672677" lon="13.128763748567255"><ele>794.6</ele><time>2026-04-12T17:10:59.999Z</time></trkpt><trkpt lat="41.65945518470088" lon="13.1286064874516"><ele>793.4</ele><time>2026-04-12T17:11:01.999Z</time></trkpt><trkpt lat="41.659434175672835" lon="13.128467135741786"><ele>792.1999999999999</ele><time>2026-04-12T17:11:03.999Z</time></trkpt><trkpt lat="41.65942817890633" lon="13.128314603034463"><ele>791.0</ele><time>2026-04-12T17:11:05.999Z</time></trkpt><trkpt lat="41.659423764215504" lon="13.128161578750404"><ele>790.1999999999999</ele><time>2026-04-12T17:11:07.999Z</time></trkpt><trkpt lat="41.659435194822635" lon="13.128075318880192"><ele>789.4</ele><time>2026-04-12T17:11:08.999Z</time></trkpt><trkpt lat="41.659429911248246" lon="13.127943646509618"><ele>788.6</ele><time>2026-04-12T17:11:10.999Z</time></trkpt><trkpt lat="41.65942688457865" lon="13.127789648691367"><ele>787.8</ele><time>2026-04-12T17:11:12.999Z</time></trkpt><trkpt lat="41.65942695462206" lon="13.127704702103694"><ele>787.0</ele><time>2026-04-12T17:11:13.999Z</time></trkpt><trkpt lat="41.659434211208485" lon="13.127537177310872"><ele>787.0</ele><time>2026-04-12T17:11:15.999Z</time></trkpt><trkpt lat="41.659440479791826" lon="13.127450758546653"><ele>787.0</ele><time>2026-04-12T17:11:16.999Z</time></trkpt><trkpt lat="41.65944524279811" lon="13.12729006566023"><ele>787.0</ele><time>2026-04-12T17:11:18.999Z</time></trkpt><trkpt lat="41.65946639488591" lon="13.127149447074101"><ele>787.0</ele><time>2026-04-12T17:11:20.999Z</time></trkpt><trkpt lat="41.65948828126791" lon="13.127023229903667"><ele>787.0</ele><time>2026-04-12T17:11:22.999Z</time></trkpt><trkpt lat="41.65949203354316" lon="13.126920917877252"><ele>788.3333333333333</ele><time>2026-04-12T17:11:24.998Z</time></trkpt><trkpt lat="41.659502923515035" lon="13.126828257769256"><ele>789.6666666666666</ele><time>2026-04-12T17:11:26.998Z</time></trkpt><trkpt lat="41.65952795846992" lon="13.126745047301153"><ele>791.0</ele><time>2026-04-12T17:11:28.998Z</time></trkpt><trkpt lat="41.6595621298319" lon="13.12661934756544"><ele>792.3333333333333</ele><time>2026-04-12T17:11:30.998Z</time></trkpt><trkpt lat="41.659586587546386" lon="13.12653188967"><ele>793.6666666666666</ele><time>2026-04-12T17:11:31.998Z</time></trkpt><trkpt lat="41.659623738235325" lon="13.126403295106147"><ele>795.0</ele><time>2026-04-12T17:11:32.998Z</time></trkpt><trkpt lat="41.65964145639904" lon="13.126272870921305"><ele>795.0</ele><time>2026-04-12T17:11:33.998Z</time></trkpt><trkpt lat="41.65962327403135" lon="13.126129451044681"><ele>795.0</ele><time>2026-04-12T17:11:34.998Z</time></trkpt><trkpt lat="41.65962063785791" lon="13.126034706856645"><ele>795.0</ele><time>2026-04-12T17:11:35.998Z</time></trkpt><trkpt lat="41.65961703211593" lon="13.12593846931417"><ele>795.0</ele><time>2026-04-12T17:11:36.998Z</time></trkpt><trkpt lat="41.65961177225504" lon="13.125840568044516"><ele>795.0</ele><time>2026-04-12T17:11:37.998Z</time></trkpt><trkpt lat="41.65959654284357" lon="13.125742239429245"><ele>795.0</ele><time>2026-04-12T17:11:38.998Z</time></trkpt><trkpt lat="41.659595868028994" lon="13.125649306881531"><ele>793.5</ele><time>2026-04-12T17:11:39.998Z</time></trkpt><trkpt lat="41.659591548701314" lon="13.12555020518743"><ele>792.0</ele><time>2026-04-12T17:11:40.998Z</time></trkpt><trkpt lat="41.65959108277091" lon="13.125455247617765"><ele>790.5</ele><time>2026-04-12T17:11:41.998Z</time></trkpt><trkpt lat="41.65959492584725" lon="13.125339091053124"><ele>789.0</ele><time>2026-04-12T17:11:42.998Z</time></trkpt><trkpt lat="41.659604322156035" lon="13.125223171696998"><ele>787.5</ele><time>2026-04-12T17:11:43.998Z</time></trkpt><trkpt lat="41.65962030386217" lon="13.125116849978106"><ele>786.0</ele><time>2026-04-12T17:11:44.998Z</time></trkpt><trkpt lat="41.65963626563013" lon="13.125017188613288"><ele>786.0</ele><time>2026-04-12T17:11:45.998Z</time></trkpt><trkpt lat="41.65965223058884" lon="13.12492305500945"><ele>786.0</ele><time>2026-04-12T17:11:46.998Z</time></trkpt><trkpt lat="41.65967151591913" lon="13.124810140633375"><ele>786.0</ele><time>2026-04-12T17:11:47.998Z</time></trkpt><trkpt lat="41.65967664837659" lon="13.124680086825826"><ele>786.0</ele><time>2026-04-12T17:11:48.998Z</time></trkpt><trkpt lat="41.6597007873381" lon="13.124574168667584"><ele>786.0</ele><time>2026-04-12T17:11:49.998Z</time></trkpt><trkpt lat="41.659716350981725" lon="13.124465689222726"><ele>786.0</ele><time>2026-04-12T17:11:50.998Z</time></trkpt><trkpt lat="41.65975253513901" lon="13.124352553109725"><ele>783.8333333333334</ele><time>2026-04-12T17:11:51.998Z</time></trkpt><trkpt lat="41.65977609001459" lon="13.12422934954877"><ele>781.6666666666667</ele><time>2026-04-12T17:11:52.998Z</time></trkpt><trkpt lat="41.659798955728164" lon="13.12412147579883"><ele>779.5</ele><time>2026-04-12T17:11:53.998Z</time></trkpt><trkpt lat="41.659819934481646" lon="13.124023742619265"><ele>777.3333333333334</ele><time>2026-04-12T17:11:54.998Z</time></trkpt><trkpt lat="41.65984740757601" lon="13.123923999316457"><ele>775.1666666666667</ele><time>2026-04-12T17:11:55.998Z</time></trkpt><trkpt lat="41.659880505189264" lon="13.123798630677383"><ele>773.0</ele><time>2026-04-12T17:11:56.998Z</time></trkpt><trkpt lat="41.65989000504309" lon="13.123688266304741"><ele>770.8</ele><time>2026-04-12T17:11:57.998Z</time></trkpt><trkpt lat="41.65993164371104" lon="13.123581895407828"><ele>768.5999999999999</ele><time>2026-04-12T17:11:58.998Z</time></trkpt><trkpt lat="41.659957424088155" lon="13.123472964737095"><ele>766.4000000000001</ele><time>2026-04-12T17:11:59.998Z</time></trkpt><trkpt lat="41.659969018441636" lon="13.123362207025144"><ele>764.2</ele><time>2026-04-12T17:12:00.998Z</time></trkpt><trkpt lat="41.65999626688977" lon="13.123272210965684"><ele>762.0</ele><time>2026-04-12T17:12:01.997Z</time></trkpt><trkpt lat="41.660038376970704" lon="13.123112106509705"><ele>761.6666666666666</ele><time>2026-04-12T17:12:03.997Z</time></trkpt><trkpt lat="41.66006659133228" lon="13.123002068858451"><ele>761.3333333333334</ele><time>2026-04-12T17:12:04.997Z</time></trkpt><trkpt lat="41.66007874497459" lon="13.122902292906236"><ele>761.0</ele><time>2026-04-12T17:12:05.997Z</time></trkpt><trkpt lat="41.660100649936034" lon="13.122745276193351"><ele>760.6666666666667</ele><time>2026-04-12T17:12:07.997Z</time></trkpt><trkpt lat="41.66011593806583" lon="13.12263577659391"><ele>760.3333333333334</ele><time>2026-04-12T17:12:09.997Z</time></trkpt><trkpt lat="41.660126175785464" lon="13.122551810829169"><ele>760.0</ele><time>2026-04-12T17:12:11.997Z</time></trkpt><trkpt lat="41.66012430510671" lon="13.122682546448505"><ele>760.0</ele><time>2026-04-12T17:12:35Z</time></trkpt><trkpt lat="41.660109639838794" lon="13.12278090495564"><ele>760.0</ele><time>2026-04-12T17:12:37Z</time></trkpt><trkpt lat="41.66008286779439" lon="13.122873205535752"><ele>760.0</ele><time>2026-04-12T17:12:39Z</time></trkpt><trkpt lat="41.660068754365305" lon="13.122956642447011"><ele>760.0</ele><time>2026-04-12T17:12:40Z</time></trkpt><trkpt lat="41.66006245756068" lon="13.123077453550916"><ele>760.0</ele><time>2026-04-12T17:12:42Z</time></trkpt><trkpt lat="41.66004641441576" lon="13.123159741066043"><ele>760.0</ele><time>2026-04-12T17:12:45Z</time></trkpt><trkpt lat="41.66005985215894" lon="13.123047730913237"><ele>760.0</ele><time>2026-04-12T17:12:53.999Z</time></trkpt><trkpt lat="41.660073383459725" lon="13.122911141012102"><ele>760.0</ele><time>2026-04-12T17:12:55.999Z</time></trkpt><trkpt lat="41.66010996650403" lon="13.122778714053014"><ele>760.0</ele><time>2026-04-12T17:12:57.999Z</time></trkpt><trkpt lat="41.660124886151586" lon="13.122678649295063"><ele>760.0</ele><time>2026-04-12T17:12:59.999Z</time></trkpt><trkpt lat="41.660137798513524" lon="13.122550296598163"><ele>760.0</ele><time>2026-04-12T17:13:01.999Z</time></trkpt><trkpt lat="41.66014779214137" lon="13.122449602451251"><ele>759.4</ele><time>2026-04-12T17:13:03.999Z</time></trkpt><trkpt lat="41.66016601543714" lon="13.122311992830195"><ele>758.8</ele><time>2026-04-12T17:13:05.999Z</time></trkpt><trkpt lat="41.660192986404375" lon="13.122169302166466"><ele>758.2</ele><time>2026-04-12T17:13:07.999Z</time></trkpt><trkpt lat="41.660203616638285" lon="13.122010180252055"><ele>757.6</ele><time>2026-04-12T17:13:09.999Z</time></trkpt><trkpt lat="41.660221460456135" lon="13.12186008818372"><ele>757.0</ele><time>2026-04-12T17:13:11.999Z</time></trkpt><trkpt lat="41.66020431450433" lon="13.121777488698122"><ele>757.0</ele><time>2026-04-12T17:13:12.999Z</time></trkpt><trkpt lat="41.66022638147291" lon="13.121644494427809"><ele>757.0</ele><time>2026-04-12T17:13:14.999Z</time></trkpt><trkpt lat="41.66025193519091" lon="13.12148402007997"><ele>757.0</ele><time>2026-04-12T17:13:16.999Z</time></trkpt><trkpt lat="41.66031037437567" lon="13.121369442137622"><ele>757.0</ele><time>2026-04-12T17:13:18.999Z</time></trkpt><trkpt lat="41.6603262585436" lon="13.121284221900812"><ele>757.0</ele><time>2026-04-12T17:13:20.999Z</time></trkpt><trkpt lat="41.66027177157168" lon="13.121197097615893"><ele>757.3333333333334</ele><time>2026-04-12T17:13:22.999Z</time></trkpt><trkpt lat="41.66022637681949" lon="13.12113757090381"><ele>757.6666666666667</ele><time>2026-04-12T17:13:23.999Z</time></trkpt><trkpt lat="41.66017834910484" lon="13.121045212589175"><ele>758.0</ele><time>2026-04-12T17:13:25.999Z</time></trkpt><trkpt lat="41.66020756974135" lon="13.120923823818481"><ele>758.3333333333334</ele><time>2026-04-12T17:13:27.999Z</time></trkpt><trkpt lat="41.66023687362753" lon="13.120837368968116"><ele>758.6666666666666</ele><time>2026-04-12T17:13:28.998Z</time></trkpt><trkpt lat="41.6602504895408" lon="13.120744544657882"><ele>759.0</ele><time>2026-04-12T17:13:29.998Z</time></trkpt><trkpt lat="41.66029539312851" lon="13.120652018133832"><ele>757.4000000000001</ele><time>2026-04-12T17:13:30.998Z</time></trkpt><trkpt lat="41.660324756405494" lon="13.120558963382072"><ele>755.8</ele><time>2026-04-12T17:13:31.998Z</time></trkpt><trkpt lat="41.66035127304129" lon="13.120439047814727"><ele>754.2</ele><time>2026-04-12T17:13:33.998Z</time></trkpt><trkpt lat="41.660373806336004" lon="13.12029809335413"><ele>752.5999999999999</ele><time>2026-04-12T17:13:35.998Z</time></trkpt><trkpt lat="41.66036875113748" lon="13.120164774908964"><ele>751.0</ele><time>2026-04-12T17:13:37.998Z</time></trkpt><trkpt lat="41.66036594232434" lon="13.120019587535804"><ele>751.1999999999999</ele><time>2026-04-12T17:13:39.998Z</time></trkpt><trkpt lat="41.66035460290184" lon="13.119852568547115"><ele>751.4</ele><time>2026-04-12T17:13:41.998Z</time></trkpt><trkpt lat="41.660327784505846" lon="13.119702540486786"><ele>751.6</ele><time>2026-04-12T17:13:43.998Z</time></trkpt><trkpt lat="41.660310193422795" lon="13.119552559051646"><ele>751.8</ele><time>2026-04-12T17:13:45.998Z</time></trkpt><trkpt lat="41.66029715495049" lon="13.119447628056996"><ele>752.0</ele><time>2026-04-12T17:13:47.998Z</time></trkpt><trkpt lat="41.66046679227612" lon="13.119406360352393"><ele>752.0</ele><time>2026-04-12T17:14:46Z</time></trkpt><trkpt lat="41.660532623087875" lon="13.119364371851807"><ele>752.0</ele><time>2026-04-12T17:14:48Z</time></trkpt><trkpt lat="41.660584610682946" lon="13.119296326127882"><ele>752.0</ele><time>2026-04-12T17:14:50Z</time></trkpt><trkpt lat="41.660624560131055" lon="13.119202266488893"><ele>752.0</ele><time>2026-04-12T17:14:52Z</time></trkpt><trkpt lat="41.660687792877596" lon="13.119101062255524"><ele>752.0</ele><time>2026-04-12T17:14:54Z</time></trkpt><trkpt lat="41.66078441896732" lon="13.118978378175225"><ele>754.0</ele><time>2026-04-12T17:14:56Z</time></trkpt><trkpt lat="41.66083467424019" lon="13.118916129164097"><ele>756.0</ele><time>2026-04-12T17:14:57Z</time></trkpt><trkpt lat="41.66088166364394" lon="13.11885792544231"><ele>758.0</ele><time>2026-04-12T17:14:58Z</time></trkpt><trkpt lat="41.66096391742461" lon="13.118748316844322"><ele>760.0</ele><time>2026-04-12T17:14:59.999Z</time></trkpt><trkpt lat="41.66100320820192" lon="13.118681169576517"><ele>762.0</ele><time>2026-04-12T17:15:00.999Z</time></trkpt><trkpt lat="41.66103402664979" lon="13.118601632704253"><ele>764.0</ele><time>2026-04-12T17:15:01.999Z</time></trkpt><trkpt lat="41.66106670367084" lon="13.118494883075208"><ele>764.0</ele><time>2026-04-12T17:15:02.999Z</time></trkpt><trkpt lat="41.66106794678907" lon="13.118384584463447"><ele>764.0</ele><time>2026-04-12T17:15:03.999Z</time></trkpt><trkpt lat="41.66109357636694" lon="13.118294539098539"><ele>764.0</ele><time>2026-04-12T17:15:04.999Z</time></trkpt><trkpt lat="41.66110701305091" lon="13.118210635487314"><ele>764.0</ele><time>2026-04-12T17:15:05.999Z</time></trkpt><trkpt lat="41.66113019912212" lon="13.118113694808594"><ele>764.0</ele><time>2026-04-12T17:15:07.999Z</time></trkpt><trkpt lat="41.66120838857769" lon="13.118061525276065"><ele>764.0</ele><time>2026-04-12T17:15:11.999Z</time></trkpt><trkpt lat="41.66127022675321" lon="13.118165512787487"><ele>764.6</ele><time>2026-04-12T17:15:13.999Z</time></trkpt><trkpt lat="41.661366484903525" lon="13.118217881194557"><ele>765.2</ele><time>2026-04-12T17:15:15.999Z</time></trkpt><trkpt lat="41.66144627542896" lon="13.118296448059757"><ele>765.8000000000001</ele><time>2026-04-12T17:15:17.999Z</time></trkpt><trkpt lat="41.66154375853977" lon="13.118365098006604"><ele>766.4000000000001</ele><time>2026-04-12T17:15:19.999Z</time></trkpt><trkpt lat="41.661621561575124" lon="13.118356761280163"><ele>767.0</ele><time>2026-04-12T17:15:21.999Z</time></trkpt><trkpt lat="41.66171323729493" lon="13.118340716015103"><ele>767.5</ele><time>2026-04-12T17:15:23.999Z</time></trkpt><trkpt lat="41.66180822991687" lon="13.118271923610184"><ele>768.0</ele><time>2026-04-12T17:15:25.999Z</time></trkpt><trkpt lat="41.662004497643004" lon="13.118183703597172"><ele>768.5</ele><time>2026-04-12T17:15:27.999Z</time></trkpt><trkpt lat="41.6620549101646" lon="13.118108856201829"><ele>769.0</ele><time>2026-04-12T17:15:28.999Z</time></trkpt><trkpt lat="41.66211078338759" lon="13.118019557256364"><ele>771.5</ele><time>2026-04-12T17:15:30.999Z</time></trkpt><trkpt lat="41.66218293277022" lon="13.117903642517726"><ele>774.0</ele><time>2026-04-12T17:15:32.999Z</time></trkpt><trkpt lat="41.66224872660046" lon="13.117786701983341"><ele>776.5</ele><time>2026-04-12T17:15:33.999Z</time></trkpt><trkpt lat="41.662296445145444" lon="13.117604872962199"><ele>779.0</ele><time>2026-04-12T17:15:34.999Z</time></trkpt><trkpt lat="41.66229391583521" lon="13.117433965115469"><ele>777.4000000000001</ele><time>2026-04-12T17:15:35.998Z</time></trkpt><trkpt lat="41.662273522834205" lon="13.117321313947851"><ele>775.8</ele><time>2026-04-12T17:15:36.998Z</time></trkpt><trkpt lat="41.66226887458001" lon="13.117224857430314"><ele>774.2</ele><time>2026-04-12T17:15:38.998Z</time></trkpt><trkpt lat="41.66225824798182" lon="13.117087069106237"><ele>772.5999999999999</ele><time>2026-04-12T17:15:40.998Z</time></trkpt><trkpt lat="41.66212872571127" lon="13.11703460106811"><ele>771.0</ele><time>2026-04-12T17:15:41.998Z</time></trkpt><trkpt lat="41.662189184583156" lon="13.116912767689342"><ele>771.0</ele><time>2026-04-12T17:15:43.998Z</time></trkpt><trkpt lat="41.662224171016184" lon="13.116837468223284"><ele>771.0</ele><time>2026-04-12T17:15:44.998Z</time></trkpt><trkpt lat="41.66227528611014" lon="13.11669364766834"><ele>771.0</ele><time>2026-04-12T17:15:46.998Z</time></trkpt><trkpt lat="41.66232032203164" lon="13.116586746539669"><ele>771.0</ele><time>2026-04-12T17:15:48.998Z</time></trkpt><trkpt lat="41.662364983951605" lon="13.116474369096974"><ele>771.0</ele><time>2026-04-12T17:15:50.998Z</time></trkpt><trkpt lat="41.662432202754616" lon="13.116374062726882"><ele>769.1999999999999</ele><time>2026-04-12T17:15:52.998Z</time></trkpt><trkpt lat="41.66248381466349" lon="13.116265743733223"><ele>767.4</ele><time>2026-04-12T17:15:54.998Z</time></trkpt><trkpt lat="41.662522386457944" lon="13.116154844487525"><ele>765.6</ele><time>2026-04-12T17:15:56.998Z</time></trkpt><trkpt lat="41.66256094673816" lon="13.116052450926569"><ele>763.8</ele><time>2026-04-12T17:15:58.998Z</time></trkpt><trkpt lat="41.66259768745913" lon="13.115931184776684"><ele>762.0</ele><time>2026-04-12T17:16:00.998Z</time></trkpt><trkpt lat="41.66263157089006" lon="13.115824285127283"><ele>762.4000000000001</ele><time>2026-04-12T17:16:02.998Z</time></trkpt><trkpt lat="41.66268327056026" lon="13.115722130740354"><ele>762.8000000000001</ele><time>2026-04-12T17:16:04.998Z</time></trkpt><trkpt lat="41.66273725202437" lon="13.11557091832254"><ele>763.2</ele><time>2026-04-12T17:16:06.998Z</time></trkpt><trkpt lat="41.662794369986955" lon="13.115445658880423"><ele>763.6</ele><time>2026-04-12T17:16:08.998Z</time></trkpt><trkpt lat="41.662819787479776" lon="13.11535935105926"><ele>764.0</ele><time>2026-04-12T17:16:10.998Z</time></trkpt><trkpt lat="41.66285847586686" lon="13.115253823846206"><ele>764.0</ele><time>2026-04-12T17:16:12.997Z</time></trkpt><trkpt lat="41.662903810363254" lon="13.11515138905471"><ele>764.0</ele><time>2026-04-12T17:16:14.997Z</time></trkpt><trkpt lat="41.66293493766019" lon="13.115066317061542"><ele>764.0</ele><time>2026-04-12T17:16:16.997Z</time></trkpt><trkpt lat="41.66296781638033" lon="13.114940445339988"><ele>764.0</ele><time>2026-04-12T17:16:31Z</time></trkpt><trkpt lat="41.662983728375856" lon="13.11482075195384"><ele>764.0</ele><time>2026-04-12T17:16:33Z</time></trkpt><trkpt lat="41.66302010739422" lon="13.114728925938236"><ele>764.0</ele><time>2026-04-12T17:16:35Z</time></trkpt><trkpt lat="41.663075358225" lon="13.11466355117096"><ele>761.8333333333333</ele><time>2026-04-12T17:16:37Z</time></trkpt><trkpt lat="41.66299508349673" lon="13.114664449895448"><ele>759.6666666666666</ele><time>2026-04-12T17:16:44Z</time></trkpt><trkpt lat="41.662928549581" lon="13.114726965218717"><ele>757.5</ele><time>2026-04-12T17:16:46Z</time></trkpt><trkpt lat="41.66286195456527" lon="13.114655116294141"><ele>755.3333333333334</ele><time>2026-04-12T17:16:48Z</time></trkpt><trkpt lat="41.66283899362197" lon="13.114533486155802"><ele>753.1666666666667</ele><time>2026-04-12T17:16:50Z</time></trkpt><trkpt lat="41.66281560766888" lon="13.114450839121504"><ele>751.0</ele><time>2026-04-12T17:16:52Z</time></trkpt><trkpt lat="41.66279640835323" lon="13.11436840404578"><ele>751.0</ele><time>2026-04-12T17:16:54Z</time></trkpt><trkpt lat="41.66278010147449" lon="13.114281587555777"><ele>751.0</ele><time>2026-04-12T17:16:56Z</time></trkpt><trkpt lat="41.662806741009334" lon="13.114177875584897"><ele>751.0</ele><time>2026-04-12T17:16:59Z</time></trkpt><trkpt lat="41.66288704742375" lon="13.114152161027475"><ele>751.0</ele><time>2026-04-12T17:17:01.999Z</time></trkpt><trkpt lat="41.662975038017976" lon="13.11415087675058"><ele>751.0</ele><time>2026-04-12T17:17:03.999Z</time></trkpt><trkpt lat="41.66307244525898" lon="13.114159919823086"><ele>751.0</ele><time>2026-04-12T17:17:05.999Z</time></trkpt><trkpt lat="41.66315398250418" lon="13.11415457687091"><ele>751.0</ele><time>2026-04-12T17:17:07.999Z</time></trkpt><trkpt lat="41.663229665362486" lon="13.114127714876096"><ele>751.0</ele><time>2026-04-12T17:17:09.999Z</time></trkpt><trkpt lat="41.66313786164557" lon="13.114165060599579"><ele>751.0</ele><time>2026-04-12T17:18:03.998Z</time></trkpt><trkpt lat="41.66306503419412" lon="13.114147037087077"><ele>751.0</ele><time>2026-04-12T17:18:05.998Z</time></trkpt><trkpt lat="41.66298971294105" lon="13.114123123479036"><ele>751.0</ele><time>2026-04-12T17:18:07.998Z</time></trkpt><trkpt lat="41.66290062096857" lon="13.114151238957184"><ele>751.0</ele><time>2026-04-12T17:18:09.998Z</time></trkpt><trkpt lat="41.66282056636004" lon="13.114189700110204"><ele>751.0</ele><time>2026-04-12T17:18:11.998Z</time></trkpt><trkpt lat="41.66278808657382" lon="13.114264435026609"><ele>751.0</ele><time>2026-04-12T17:18:13.998Z</time></trkpt><trkpt lat="41.66281830513507" lon="13.114427110322463"><ele>751.0</ele><time>2026-04-12T17:18:15.997Z</time></trkpt><trkpt lat="41.66283825557591" lon="13.114524001497466"><ele>751.0</ele><time>2026-04-12T17:18:16.997Z</time></trkpt><trkpt lat="41.66286356167345" lon="13.114610763633365"><ele>751.0</ele><time>2026-04-12T17:18:17.997Z</time></trkpt><trkpt lat="41.662915302562894" lon="13.114749059659257"><ele>751.0</ele><time>2026-04-12T17:18:19.997Z</time></trkpt><trkpt lat="41.66296081766189" lon="13.114845904220573"><ele>751.0</ele><time>2026-04-12T17:18:21.997Z</time></trkpt><trkpt lat="41.662967259132266" lon="13.114950100953903"><ele>751.0</ele><time>2026-04-12T17:18:23.997Z</time></trkpt><trkpt lat="41.66294152715922" lon="13.115057851810832"><ele>751.0</ele><time>2026-04-12T17:18:25.997Z</time></trkpt><trkpt lat="41.66290583949805" lon="13.115190228818852"><ele>751.0</ele><time>2026-04-12T17:18:51Z</time></trkpt><trkpt lat="41.66284113891475" lon="13.11532058965928"><ele>752.3333333333334</ele><time>2026-04-12T17:18:53Z</time></trkpt><trkpt lat="41.6628069422064" lon="13.115431364922964"><ele>753.6666666666667</ele><time>2026-04-12T17:18:55Z</time></trkpt><trkpt lat="41.662764769543166" lon="13.115525600757373"><ele>755.0</ele><time>2026-04-12T17:18:57Z</time></trkpt><trkpt lat="41.66271840587228" lon="13.11563332636152"><ele>756.3333333333334</ele><time>2026-04-12T17:18:59Z</time></trkpt><trkpt lat="41.662678189059285" lon="13.115739795095807"><ele>757.6666666666666</ele><time>2026-04-12T17:19:01Z</time></trkpt><trkpt lat="41.6626290805295" lon="13.115842831369507"><ele>759.0</ele><time>2026-04-12T17:19:03Z</time></trkpt><trkpt lat="41.66259093746127" lon="13.115970780253221"><ele>759.6</ele><time>2026-04-12T17:19:05Z</time></trkpt><trkpt lat="41.66256246281744" lon="13.11604876422863"><ele>760.2</ele><time>2026-04-12T17:19:05.999Z</time></trkpt><trkpt lat="41.662509393577146" lon="13.116189662289406"><ele>760.8000000000001</ele><time>2026-04-12T17:19:07.999Z</time></trkpt><trkpt lat="41.66246656390393" lon="13.11630200656155"><ele>761.4000000000001</ele><time>2026-04-12T17:19:09.999Z</time></trkpt><trkpt lat="41.66240481562602" lon="13.11642009202299"><ele>762.0</ele><time>2026-04-12T17:19:11.999Z</time></trkpt><trkpt lat="41.66236335915602" lon="13.11649919491703"><ele>763.8</ele><time>2026-04-12T17:19:12.999Z</time></trkpt><trkpt lat="41.66233277673244" lon="13.116578582183418"><ele>765.6</ele><time>2026-04-12T17:19:13.999Z</time></trkpt><trkpt lat="41.66230234753641" lon="13.116660675750909"><ele>767.4</ele><time>2026-04-12T17:19:14.999Z</time></trkpt><trkpt lat="41.66224353323114" lon="13.116813752750032"><ele>769.1999999999999</ele><time>2026-04-12T17:19:16.999Z</time></trkpt><trkpt lat="41.662188512568335" lon="13.116933801062924"><ele>771.0</ele><time>2026-04-12T17:19:18.999Z</time></trkpt><trkpt lat="41.66211564653154" lon="13.117062832487075"><ele>771.0</ele><time>2026-04-12T17:19:20.999Z</time></trkpt><trkpt lat="41.662076732968934" lon="13.117175790316786"><ele>771.0</ele><time>2026-04-12T17:19:22.999Z</time></trkpt><trkpt lat="41.66203688464106" lon="13.117289938637681"><ele>771.0</ele><time>2026-04-12T17:19:24.999Z</time></trkpt><trkpt lat="41.66198545583863" lon="13.11740265083224"><ele>771.0</ele><time>2026-04-12T17:19:26.999Z</time></trkpt><trkpt lat="41.66193612543916" lon="13.11754704619113"><ele>771.0</ele><time>2026-04-12T17:19:28.999Z</time></trkpt><trkpt lat="41.6618783065171" lon="13.117664606604874"><ele>770.5999999999999</ele><time>2026-04-12T17:19:30.999Z</time></trkpt><trkpt lat="41.66183240938662" lon="13.117807281191839"><ele>770.2</ele><time>2026-04-12T17:19:32.999Z</time></trkpt><trkpt lat="41.66177865453496" lon="13.117945116647718"><ele>769.8</ele><time>2026-04-12T17:19:34.999Z</time></trkpt><trkpt lat="41.66172753428372" lon="13.118069017728933"><ele>769.4000000000001</ele><time>2026-04-12T17:19:36.999Z</time></trkpt><trkpt lat="41.661683313281436" lon="13.118198854193034"><ele>769.0</ele><time>2026-04-12T17:19:38.999Z</time></trkpt><trkpt lat="41.66163878286152" lon="13.118304277516165"><ele>768.9999999999999</ele><time>2026-04-12T17:19:40.999Z</time></trkpt><trkpt lat="41.66157151212766" lon="13.118351899355403"><ele>769.0</ele><time>2026-04-12T17:19:42.999Z</time></trkpt><trkpt lat="41.661469741351944" lon="13.118264431958256"><ele>769.0</ele><time>2026-04-12T17:19:44.998Z</time></trkpt><trkpt lat="41.66140692625863" lon="13.118215622811617"><ele>769.0</ele><time>2026-04-12T17:19:45.998Z</time></trkpt><trkpt lat="41.6613246151128" lon="13.118177006900671"><ele>768.9999999999999</ele><time>2026-04-12T17:19:46.998Z</time></trkpt><trkpt lat="41.66125983848306" lon="13.118128220923454"><ele>769.0</ele><time>2026-04-12T17:19:47.998Z</time></trkpt><trkpt lat="41.66116329473765" lon="13.118039347889637"><ele>769.4000000000001</ele><time>2026-04-12T17:19:49.998Z</time></trkpt><trkpt lat="41.661080860419915" lon="13.118078044713299"><ele>769.8</ele><time>2026-04-12T17:19:51.998Z</time></trkpt><trkpt lat="41.66108403948288" lon="13.118195591060982"><ele>770.2</ele><time>2026-04-12T17:19:52.998Z</time></trkpt><trkpt lat="41.66105631970321" lon="13.118344294299996"><ele>770.5999999999999</ele><time>2026-04-12T17:19:54.998Z</time></trkpt><trkpt lat="41.661036647832695" lon="13.118472498342568"><ele>771.0</ele><time>2026-04-12T17:19:56.998Z</time></trkpt><trkpt lat="41.66100634889275" lon="13.118576034784587"><ele>769.8333333333334</ele><time>2026-04-12T17:19:58.998Z</time></trkpt><trkpt lat="41.660956782687016" lon="13.118686595444917"><ele>768.6666666666666</ele><time>2026-04-12T17:20:01.998Z</time></trkpt><trkpt lat="41.66090823935793" lon="13.11876508553764"><ele>767.5</ele><time>2026-04-12T17:20:03.998Z</time></trkpt><trkpt lat="41.66085670008016" lon="13.118828222607391"><ele>766.3333333333333</ele><time>2026-04-12T17:20:05.998Z</time></trkpt><trkpt lat="41.660798718373066" lon="13.118900041934028"><ele>765.1666666666666</ele><time>2026-04-12T17:20:07.998Z</time></trkpt><trkpt lat="41.66075063192298" lon="13.11895960437886"><ele>764.0</ele><time>2026-04-12T17:20:09.998Z</time></trkpt><trkpt lat="41.66069599175095" lon="13.119027127065422"><ele>762.0</ele><time>2026-04-12T17:20:11.998Z</time></trkpt><trkpt lat="41.660638826014114" lon="13.119104294726371"><ele>760.0</ele><time>2026-04-12T17:20:13.998Z</time></trkpt><trkpt lat="41.660606486720084" lon="13.119192845020743"><ele>758.0</ele><time>2026-04-12T17:20:15.998Z</time></trkpt><trkpt lat="41.66056072752955" lon="13.119258381756518"><ele>756.0</ele><time>2026-04-12T17:20:18.998Z</time></trkpt><trkpt lat="41.66052699469141" lon="13.119343561450446"><ele>754.0</ele><time>2026-04-12T17:20:21.997Z</time></trkpt><trkpt lat="41.660458887807806" lon="13.119396354946463"><ele>752.0</ele><time>2026-04-12T17:20:23.997Z</time></trkpt><trkpt lat="41.66036964297916" lon="13.119382168370288"><ele>752.0</ele><time>2026-04-12T17:20:25.997Z</time></trkpt><trkpt lat="41.66030403634639" lon="13.119374411979594"><ele>752.0</ele><time>2026-04-12T17:20:27.997Z</time></trkpt><trkpt lat="41.66024267581707" lon="13.11935125280691"><ele>752.0</ele><time>2026-04-12T17:20:29.997Z</time></trkpt><trkpt lat="41.660166197162404" lon="13.119299385521884"><ele>752.0</ele><time>2026-04-12T17:20:31.997Z</time></trkpt><trkpt lat="41.66010232595725" lon="13.119309259451365"><ele>752.0</ele><time>2026-04-12T17:20:32.997Z</time></trkpt><trkpt lat="41.66001684393524" lon="13.1192340212522"><ele>752.0</ele><time>2026-04-12T17:20:34.997Z</time></trkpt><trkpt lat="41.65992205979958" lon="13.11917154225461"><ele>751.3333333333333</ele><time>2026-04-12T17:20:36.997Z</time></trkpt><trkpt lat="41.65982535437372" lon="13.119124685338154"><ele>750.6666666666666</ele><time>2026-04-12T17:20:39Z</time></trkpt><trkpt lat="41.659740196104494" lon="13.119074867254373"><ele>750.0</ele><time>2026-04-12T17:20:41Z</time></trkpt><trkpt lat="41.65970171524985" lon="13.118985278089943"><ele>749.3333333333334</ele><time>2026-04-12T17:20:43Z</time></trkpt><trkpt lat="41.65962767897795" lon="13.118924599614342"><ele>748.6666666666667</ele><time>2026-04-12T17:20:46Z</time></trkpt><trkpt lat="41.65955415480388" lon="13.118954297481121"><ele>748.0</ele><time>2026-04-12T17:20:48Z</time></trkpt><trkpt lat="41.65955494521744" lon="13.119074553531323"><ele>745.4</ele><time>2026-04-12T17:20:50Z</time></trkpt><trkpt lat="41.65963576103309" lon="13.11915381979137"><ele>742.8</ele><time>2026-04-12T17:20:52Z</time></trkpt><trkpt lat="41.659707596006136" lon="13.119221340555217"><ele>740.2</ele><time>2026-04-12T17:20:54Z</time></trkpt><trkpt lat="41.65974594630381" lon="13.119328310137544"><ele>737.6</ele><time>2026-04-12T17:20:56Z</time></trkpt><trkpt lat="41.65969679459953" lon="13.119418798429699"><ele>735.0</ele><time>2026-04-12T17:20:58Z</time></trkpt><trkpt lat="41.65959446133577" lon="13.119402604235436"><ele>735.0</ele><time>2026-04-12T17:21:00Z</time></trkpt><trkpt lat="41.659526694469996" lon="13.119406590705639"><ele>735.0</ele><time>2026-04-12T17:21:01Z</time></trkpt><trkpt lat="41.65946470494612" lon="13.11939145133867"><ele>735.0</ele><time>2026-04-12T17:21:02Z</time></trkpt><trkpt lat="41.65940271135054" lon="13.119370293351707"><ele>735.0</ele><time>2026-04-12T17:21:03Z</time></trkpt><trkpt lat="41.659303785574366" lon="13.119314589314355"><ele>735.0</ele><time>2026-04-12T17:21:05Z</time></trkpt><trkpt lat="41.65922319348663" lon="13.119235701101625"><ele>735.0</ele><time>2026-04-12T17:21:07Z</time></trkpt><trkpt lat="41.65913024720856" lon="13.119132759565083"><ele>731.4</ele><time>2026-04-12T17:21:09Z</time></trkpt><trkpt lat="41.65905439335427" lon="13.119056072960186"><ele>727.8</ele><time>2026-04-12T17:21:10.999Z</time></trkpt><trkpt lat="41.65900008212781" lon="13.118999759258783"><ele>724.2</ele><time>2026-04-12T17:21:11.999Z</time></trkpt><trkpt lat="41.65888877900518" lon="13.11889730613942"><ele>720.6</ele><time>2026-04-12T17:21:13.999Z</time></trkpt><trkpt lat="41.65881271196312" lon="13.118841978855107"><ele>717.0</ele><time>2026-04-12T17:21:14.999Z</time></trkpt><trkpt lat="41.658730975623946" lon="13.11879172787788"><ele>717.0</ele><time>2026-04-12T17:21:15.999Z</time></trkpt><trkpt lat="41.65865763232172" lon="13.118755204624136"><ele>717.0</ele><time>2026-04-12T17:21:16.999Z</time></trkpt><trkpt lat="41.65857845135168" lon="13.118715775027466"><ele>717.0</ele><time>2026-04-12T17:21:17.999Z</time></trkpt><trkpt lat="41.65850459331577" lon="13.118679407501517"><ele>717.0</ele><time>2026-04-12T17:21:18.999Z</time></trkpt><trkpt lat="41.6584326920584" lon="13.118644481539942"><ele>717.0</ele><time>2026-04-12T17:21:19.999Z</time></trkpt><trkpt lat="41.658359829908214" lon="13.118608763076466"><ele>717.0</ele><time>2026-04-12T17:21:20.999Z</time></trkpt><trkpt lat="41.658274175602166" lon="13.118565447407393"><ele>713.4000000000001</ele><time>2026-04-12T17:21:21.999Z</time></trkpt><trkpt lat="41.65818095191655" lon="13.118504465856839"><ele>709.8000000000001</ele><time>2026-04-12T17:21:22.999Z</time></trkpt><trkpt lat="41.65808619210488" lon="13.11845486003065"><ele>706.2</ele><time>2026-04-12T17:21:23.999Z</time></trkpt><trkpt lat="41.65801117978319" lon="13.11840065316376"><ele>702.6</ele><time>2026-04-12T17:21:24.999Z</time></trkpt><trkpt lat="41.65793056957761" lon="13.11834657048683"><ele>699.0</ele><time>2026-04-12T17:21:25.999Z</time></trkpt><trkpt lat="41.65785311513666" lon="13.118303133419879"><ele>699.1666666666666</ele><time>2026-04-12T17:21:26.999Z</time></trkpt><trkpt lat="41.65778230826048" lon="13.118262817258655"><ele>699.3333333333334</ele><time>2026-04-12T17:21:27.999Z</time></trkpt><trkpt lat="41.657720819018195" lon="13.118227806330527"><ele>699.5</ele><time>2026-04-12T17:21:28.999Z</time></trkpt><trkpt lat="41.65760577904141" lon="13.118147317399506"><ele>699.6666666666667</ele><time>2026-04-12T17:21:30.999Z</time></trkpt><trkpt lat="41.65754284206196" lon="13.11811001079171"><ele>699.8333333333334</ele><time>2026-04-12T17:21:31.999Z</time></trkpt><trkpt lat="41.65747217109528" lon="13.1180977705912"><ele>700.0</ele><time>2026-04-12T17:21:32.999Z</time></trkpt><trkpt lat="41.6574028745816" lon="13.118088392042548"><ele>699.3333333333334</ele><time>2026-04-12T17:21:33.999Z</time></trkpt><trkpt lat="41.657315286834255" lon="13.118089436949417"><ele>698.6666666666667</ele><time>2026-04-12T17:21:34.999Z</time></trkpt><trkpt lat="41.657232911288816" lon="13.118086046583462"><ele>698.0</ele><time>2026-04-12T17:21:35.999Z</time></trkpt><trkpt lat="41.65715373090464" lon="13.118079021133685"><ele>697.3333333333334</ele><time>2026-04-12T17:21:36.999Z</time></trkpt><trkpt lat="41.6570630634808" lon="13.118065004724762"><ele>696.6666666666666</ele><time>2026-04-12T17:21:37.999Z</time></trkpt><trkpt lat="41.65698801615618" lon="13.118057499799134"><ele>696.0</ele><time>2026-04-12T17:21:38.999Z</time></trkpt><trkpt lat="41.65690517903624" lon="13.11806355633057"><ele>696.0</ele><time>2026-04-12T17:21:39.999Z</time></trkpt><trkpt lat="41.65683186424601" lon="13.11810612827089"><ele>696.0</ele><time>2026-04-12T17:21:40.999Z</time></trkpt><trkpt lat="41.65673356448027" lon="13.11818394486568"><ele>696.0</ele><time>2026-04-12T17:21:42.999Z</time></trkpt><trkpt lat="41.65664372567874" lon="13.118281233942279"><ele>696.0</ele><time>2026-04-12T17:21:44.999Z</time></trkpt><trkpt lat="41.65657884172075" lon="13.118324767716663"><ele>696.0</ele><time>2026-04-12T17:21:46.998Z</time></trkpt><trkpt lat="41.65650367180113" lon="13.118330572853816"><ele>696.0</ele><time>2026-04-12T17:21:48.998Z</time></trkpt><trkpt lat="41.65644357538303" lon="13.118263863004488"><ele>696.0</ele><time>2026-04-12T17:21:51.998Z</time></trkpt><trkpt lat="41.65651044564392" lon="13.118170926593695"><ele>696.0</ele><time>2026-04-12T17:21:53.998Z</time></trkpt><trkpt lat="41.6565427414574" lon="13.118034420806675"><ele>696.0</ele><time>2026-04-12T17:21:54.998Z</time></trkpt><trkpt lat="41.656533771684096" lon="13.117906081232082"><ele>696.0</ele><time>2026-04-12T17:21:55.998Z</time></trkpt><trkpt lat="41.656562336865036" lon="13.117771524255858"><ele>696.0</ele><time>2026-04-12T17:21:56.998Z</time></trkpt><trkpt lat="41.65659645538099" lon="13.117627627837416"><ele>696.0</ele><time>2026-04-12T17:21:57.998Z</time></trkpt><trkpt lat="41.65665971787163" lon="13.117505933966982"><ele>696.0</ele><time>2026-04-12T17:21:58.998Z</time></trkpt><trkpt lat="41.6567323228528" lon="13.117400855672177"><ele>696.0</ele><time>2026-04-12T17:21:59.998Z</time></trkpt><trkpt lat="41.65678964683212" lon="13.117295145523201"><ele>696.0</ele><time>2026-04-12T17:22:00.998Z</time></trkpt><trkpt lat="41.65683440055019" lon="13.117199059384957"><ele>699.8</ele><time>2026-04-12T17:22:01.998Z</time></trkpt><trkpt lat="41.65687341374188" lon="13.117098542022285"><ele>703.5999999999999</ele><time>2026-04-12T17:22:02.998Z</time></trkpt><trkpt lat="41.65691033317815" lon="13.116986163308349"><ele>707.4</ele><time>2026-04-12T17:22:03.998Z</time></trkpt><trkpt lat="41.656927518858794" lon="13.116860579696908"><ele>711.2</ele><time>2026-04-12T17:22:04.998Z</time></trkpt><trkpt lat="41.65694738225692" lon="13.116748511347154"><ele>715.0</ele><time>2026-04-12T17:22:05.998Z</time></trkpt><trkpt lat="41.656978960017184" lon="13.116626817247411"><ele>708.5</ele><time>2026-04-12T17:22:06.998Z</time></trkpt><trkpt lat="41.656987435410585" lon="13.116489229477576"><ele>702.0</ele><time>2026-04-12T17:22:07.998Z</time></trkpt><trkpt lat="41.65697946814761" lon="13.116360077268547"><ele>695.5</ele><time>2026-04-12T17:22:08.998Z</time></trkpt><trkpt lat="41.65697531341628" lon="13.116251668603992"><ele>689.0</ele><time>2026-04-12T17:22:09.998Z</time></trkpt><trkpt lat="41.656994056269546" lon="13.116147917952235"><ele>682.5</ele><time>2026-04-12T17:22:10.998Z</time></trkpt><trkpt lat="41.65699957904477" lon="13.116030006047653"><ele>676.0</ele><time>2026-04-12T17:22:11.998Z</time></trkpt><trkpt lat="41.65700503708067" lon="13.115926574707133"><ele>676.0</ele><time>2026-04-12T17:22:12.998Z</time></trkpt><trkpt lat="41.65700200474117" lon="13.11582642410725"><ele>676.0</ele><time>2026-04-12T17:22:13.998Z</time></trkpt><trkpt lat="41.65696117568351" lon="13.115684728496248"><ele>676.0</ele><time>2026-04-12T17:22:15.998Z</time></trkpt><trkpt lat="41.65684187569182" lon="13.115564366827625"><ele>676.0</ele><time>2026-04-12T17:22:17.998Z</time></trkpt><trkpt lat="41.656777853571946" lon="13.115500755722529"><ele>676.0</ele><time>2026-04-12T17:22:18.998Z</time></trkpt><trkpt lat="41.656705911967755" lon="13.115421996775842"><ele>680.1999999999999</ele><time>2026-04-12T17:22:19.998Z</time></trkpt><trkpt lat="41.65663648485078" lon="13.115343411949487"><ele>684.4</ele><time>2026-04-12T17:22:20.998Z</time></trkpt><trkpt lat="41.65656718751083" lon="13.115264515269276"><ele>688.6</ele><time>2026-04-12T17:22:21.998Z</time></trkpt><trkpt lat="41.65647685328066" lon="13.115174472109862"><ele>692.8</ele><time>2026-04-12T17:22:22.998Z</time></trkpt><trkpt lat="41.65637852808431" lon="13.11511164897937"><ele>697.0</ele><time>2026-04-12T17:22:23.997Z</time></trkpt><trkpt lat="41.656305661525934" lon="13.115012902561347"><ele>697.0</ele><time>2026-04-12T17:22:24.997Z</time></trkpt><trkpt lat="41.656233040977476" lon="13.114926746401906"><ele>697.0</ele><time>2026-04-12T17:22:25.997Z</time></trkpt><trkpt lat="41.65614753583615" lon="13.114852227672154"><ele>697.0</ele><time>2026-04-12T17:22:26.997Z</time></trkpt><trkpt lat="41.65605278740788" lon="13.114823506712144"><ele>697.0</ele><time>2026-04-12T17:22:27.997Z</time></trkpt><trkpt lat="41.655987191957145" lon="13.114725016994097"><ele>697.0</ele><time>2026-04-12T17:22:28.997Z</time></trkpt><trkpt lat="41.65592411586713" lon="13.11464517914806"><ele>696.2</ele><time>2026-04-12T17:22:29.997Z</time></trkpt><trkpt lat="41.65583941371678" lon="13.11456740180936"><ele>695.4000000000001</ele><time>2026-04-12T17:22:30.997Z</time></trkpt><trkpt lat="41.655774565173935" lon="13.114489734138543"><ele>694.5999999999999</ele><time>2026-04-12T17:22:31.997Z</time></trkpt><trkpt lat="41.655710483578346" lon="13.114406810016785"><ele>693.8</ele><time>2026-04-12T17:22:32.997Z</time></trkpt><trkpt lat="41.65565594842469" lon="13.114299869451159"><ele>693.0</ele><time>2026-04-12T17:22:33.997Z</time></trkpt><trkpt lat="41.65560880674341" lon="13.114197146178798"><ele>693.0</ele><time>2026-04-12T17:22:34.997Z</time></trkpt><trkpt lat="41.6555529296409" lon="13.114102915759826"><ele>693.0</ele><time>2026-04-12T17:22:35.997Z</time></trkpt><trkpt lat="41.65549024445594" lon="13.114020146930352"><ele>693.0</ele><time>2026-04-12T17:22:36.997Z</time></trkpt><trkpt lat="41.65548246054116" lon="13.113908582876741"><ele>693.0</ele><time>2026-04-12T17:22:37.997Z</time></trkpt><trkpt lat="41.655435703640435" lon="13.113773381578866"><ele>693.0</ele><time>2026-04-12T17:22:38.997Z</time></trkpt><trkpt lat="41.65538645542484" lon="13.113670458278943"><ele>690.8333333333334</ele><time>2026-04-12T17:22:39.997Z</time></trkpt><trkpt lat="41.65532005536798" lon="13.11358703927464"><ele>688.6666666666666</ele><time>2026-04-12T17:22:40.997Z</time></trkpt><trkpt lat="41.655283444144715" lon="13.113479756906736"><ele>686.5</ele><time>2026-04-12T17:22:41.997Z</time></trkpt><trkpt lat="41.65523232878437" lon="13.113382730930446"><ele>684.3333333333333</ele><time>2026-04-12T17:22:42.997Z</time></trkpt><trkpt lat="41.65519209177658" lon="13.113279968630554"><ele>682.1666666666666</ele><time>2026-04-12T17:22:43.997Z</time></trkpt><trkpt lat="41.65515474507123" lon="13.113190425365314"><ele>680.0</ele><time>2026-04-12T17:22:45Z</time></trkpt><trkpt lat="41.655102686625796" lon="13.11311751538304"><ele>687.0</ele><time>2026-04-12T17:22:46Z</time></trkpt><trkpt lat="41.65504351705468" lon="13.113030056345737"><ele>694.0</ele><time>2026-04-12T17:22:47Z</time></trkpt><trkpt lat="41.65496372904579" lon="13.112967942119925"><ele>701.0</ele><time>2026-04-12T17:22:48Z</time></trkpt><trkpt lat="41.65487821438641" lon="13.11290497957894"><ele>708.0</ele><time>2026-04-12T17:22:49Z</time></trkpt><trkpt lat="41.65479987483507" lon="13.11284340317805"><ele>715.0</ele><time>2026-04-12T17:22:50Z</time></trkpt><trkpt lat="41.654722581112104" lon="13.11277376856183"><ele>715.0</ele><time>2026-04-12T17:22:51Z</time></trkpt><trkpt lat="41.65465335755945" lon="13.112705773922206"><ele>715.0</ele><time>2026-04-12T17:22:52Z</time></trkpt><trkpt lat="41.65459133279325" lon="13.112648788922721"><ele>715.0</ele><time>2026-04-12T17:22:53Z</time></trkpt><trkpt lat="41.65453928874439" lon="13.112598311320363"><ele>715.0</ele><time>2026-04-12T17:22:54Z</time></trkpt><trkpt lat="41.6544895003633" lon="13.11245518462038"><ele>715.0</ele><time>2026-04-12T17:22:56Z</time></trkpt><trkpt lat="41.6544711844512" lon="13.112350307992573"><ele>715.0</ele><time>2026-04-12T17:22:57Z</time></trkpt><trkpt lat="41.654453984236625" lon="13.112236082128472"><ele>716.8333333333334</ele><time>2026-04-12T17:22:58Z</time></trkpt><trkpt lat="41.65445733027092" lon="13.112113645360974"><ele>718.6666666666667</ele><time>2026-04-12T17:22:59Z</time></trkpt><trkpt lat="41.65444856871565" lon="13.111987185679773"><ele>720.5</ele><time>2026-04-12T17:23:00Z</time></trkpt><trkpt lat="41.65443947157425" lon="13.111874492690255"><ele>722.3333333333334</ele><time>2026-04-12T17:23:01Z</time></trkpt><trkpt lat="41.654418963984135" lon="13.111768013409192"><ele>724.1666666666666</ele><time>2026-04-12T17:23:02Z</time></trkpt><trkpt lat="41.65441539700109" lon="13.111647465498185"><ele>726.0</ele><time>2026-04-12T17:23:03Z</time></trkpt><trkpt lat="41.65436732892463" lon="13.111533776196328"><ele>726.0</ele><time>2026-04-12T17:23:04Z</time></trkpt><trkpt lat="41.654342332501194" lon="13.111405320372596"><ele>726.0</ele><time>2026-04-12T17:23:05Z</time></trkpt><trkpt lat="41.65430206803667" lon="13.11128134667279"><ele>726.0</ele><time>2026-04-12T17:23:06Z</time></trkpt><trkpt lat="41.65425972269425" lon="13.111156751442731"><ele>726.0</ele><time>2026-04-12T17:23:07Z</time></trkpt><trkpt lat="41.65422057035626" lon="13.111032111479405"><ele>726.0</ele><time>2026-04-12T17:23:08Z</time></trkpt><trkpt lat="41.654196901560354" lon="13.110912634443542"><ele>726.0</ele><time>2026-04-12T17:23:09Z</time></trkpt><trkpt lat="41.65418716101926" lon="13.110789361313083"><ele>726.0</ele><time>2026-04-12T17:23:10Z</time></trkpt><trkpt lat="41.65416653227558" lon="13.110678860958098"><ele>726.0</ele><time>2026-04-12T17:23:11Z</time></trkpt><trkpt lat="41.65415385344742" lon="13.110592212257577"><ele>726.0</ele><time>2026-04-12T17:23:12Z</time></trkpt><trkpt lat="41.654136888033825" lon="13.110500361197534"><ele>726.0</ele><time>2026-04-12T17:23:13Z</time></trkpt><trkpt lat="41.65409549218636" lon="13.110405307559311"><ele>726.0</ele><time>2026-04-12T17:23:14Z</time></trkpt><trkpt lat="41.65404905733377" lon="13.110304366224222"><ele>726.8</ele><time>2026-04-12T17:23:15Z</time></trkpt><trkpt lat="41.654018139950324" lon="13.110190656748964"><ele>727.5999999999999</ele><time>2026-04-12T17:23:16Z</time></trkpt><trkpt lat="41.65401046086299" lon="13.110068236623194"><ele>728.4</ele><time>2026-04-12T17:23:16.999Z</time></trkpt><trkpt lat="41.65401936282112" lon="13.109935205385131"><ele>729.2</ele><time>2026-04-12T17:23:17.999Z</time></trkpt><trkpt lat="41.65402602135902" lon="13.109787292697748"><ele>730.0</ele><time>2026-04-12T17:23:18.999Z</time></trkpt><trkpt lat="41.654039135267254" lon="13.109629386069784"><ele>731.75</ele><time>2026-04-12T17:23:19.999Z</time></trkpt><trkpt lat="41.65408332184697" lon="13.109470844503072"><ele>733.5</ele><time>2026-04-12T17:23:20.999Z</time></trkpt><trkpt lat="41.654100820931625" lon="13.10930803941176"><ele>735.25</ele><time>2026-04-12T17:23:21.999Z</time></trkpt><trkpt lat="41.65413264637717" lon="13.109139941773629"><ele>737.0</ele><time>2026-04-12T17:23:22.999Z</time></trkpt><trkpt lat="41.65416491004113" lon="13.108968938854908"><ele>739.5</ele><time>2026-04-12T17:23:23.999Z</time></trkpt><trkpt lat="41.65419100240061" lon="13.108785518355235"><ele>742.0</ele><time>2026-04-12T17:23:24.999Z</time></trkpt><trkpt lat="41.65421325841877" lon="13.10859809298716"><ele>744.5</ele><time>2026-04-12T17:23:25.999Z</time></trkpt><trkpt lat="41.654225742985375" lon="13.108414053583065"><ele>747.0</ele><time>2026-04-12T17:23:26.999Z</time></trkpt><trkpt lat="41.65423596546529" lon="13.108237593763445"><ele>748.0</ele><time>2026-04-12T17:23:27.999Z</time></trkpt><trkpt lat="41.65427335676737" lon="13.10807058615943"><ele>749.0</ele><time>2026-04-12T17:23:28.999Z</time></trkpt><trkpt lat="41.65428662592457" lon="13.107901055098466"><ele>750.0</ele><time>2026-04-12T17:23:29.999Z</time></trkpt><trkpt lat="41.65432060565726" lon="13.107738377415613"><ele>751.0</ele><time>2026-04-12T17:23:30.999Z</time></trkpt><trkpt lat="41.65435510145845" lon="13.10758032614537"><ele>751.0</ele><time>2026-04-12T17:23:31.999Z</time></trkpt><trkpt lat="41.6543885657426" lon="13.107427705339346"><ele>751.0</ele><time>2026-04-12T17:23:32.999Z</time></trkpt><trkpt lat="41.654422500781074" lon="13.107267790239542"><ele>751.0</ele><time>2026-04-12T17:23:33.999Z</time></trkpt><trkpt lat="41.65446020371249" lon="13.10710684695787"><ele>751.0</ele><time>2026-04-12T17:23:34.999Z</time></trkpt><trkpt lat="41.65450145682518" lon="13.106946358605581"><ele>753.25</ele><time>2026-04-12T17:23:35.999Z</time></trkpt><trkpt lat="41.654552321981555" lon="13.106787210815352"><ele>755.5</ele><time>2026-04-12T17:23:36.999Z</time></trkpt><trkpt lat="41.65457689693558" lon="13.106608652110317"><ele>757.75</ele><time>2026-04-12T17:23:37.999Z</time></trkpt><trkpt lat="41.65461489663501" lon="13.106424753806184"><ele>760.0</ele><time>2026-04-12T17:23:38.999Z</time></trkpt><trkpt lat="41.65466720361165" lon="13.106252888087237"><ele>761.5</ele><time>2026-04-12T17:23:39.999Z</time></trkpt><trkpt lat="41.65470377713704" lon="13.106082611342208"><ele>763.0</ele><time>2026-04-12T17:23:40.999Z</time></trkpt><trkpt lat="41.654741479801885" lon="13.10592408433986"><ele>764.5</ele><time>2026-04-12T17:23:41.999Z</time></trkpt><trkpt lat="41.654778724600185" lon="13.105796806864118"><ele>766.0</ele><time>2026-04-12T17:23:42.999Z</time></trkpt><trkpt lat="41.65480066147202" lon="13.105677326616737"><ele>769.4</ele><time>2026-04-12T17:23:43.999Z</time></trkpt><trkpt lat="41.65485026469673" lon="13.105593107014686"><ele>772.8</ele><time>2026-04-12T17:23:44.999Z</time></trkpt><trkpt lat="41.65492379885445" lon="13.105558957215637"><ele>776.1999999999999</ele><time>2026-04-12T17:23:45.999Z</time></trkpt><trkpt lat="41.655013771179824" lon="13.105583686210625"><ele>779.5999999999999</ele><time>2026-04-12T17:23:46.999Z</time></trkpt><trkpt lat="41.655117254063086" lon="13.105618048692607"><ele>783.0</ele><time>2026-04-12T17:23:47.999Z</time></trkpt><trkpt lat="41.655237572769586" lon="13.105670321737117"><ele>782.5999999999999</ele><time>2026-04-12T17:23:48.999Z</time></trkpt><trkpt lat="41.655353573650586" lon="13.105729598507349"><ele>782.1999999999999</ele><time>2026-04-12T17:23:49.999Z</time></trkpt><trkpt lat="41.65544866156739" lon="13.105797705129634"><ele>781.8</ele><time>2026-04-12T17:23:50.999Z</time></trkpt><trkpt lat="41.65551322339242" lon="13.10586872030101"><ele>781.4</ele><time>2026-04-12T17:23:51.999Z</time></trkpt><trkpt lat="41.655553453651294" lon="13.105938141777946"><ele>781.0</ele><time>2026-04-12T17:23:52.999Z</time></trkpt><trkpt lat="41.65560449159168" lon="13.106007953584529"><ele>780.9999999999999</ele><time>2026-04-12T17:23:54.998Z</time></trkpt><trkpt lat="41.655670957521394" lon="13.106066549195576"><ele>781.0</ele><time>2026-04-12T17:23:57.998Z</time></trkpt><trkpt lat="41.65571041433967" lon="13.105939979496318"><ele>781.0</ele><time>2026-04-12T17:23:58.998Z</time></trkpt><trkpt lat="41.655698819278506" lon="13.105818496611862"><ele>781.0</ele><time>2026-04-12T17:23:59.998Z</time></trkpt><trkpt lat="41.65569891341863" lon="13.105716673944482"><ele>780.9999999999999</ele><time>2026-04-12T17:24:00.998Z</time></trkpt><trkpt lat="41.655695832498495" lon="13.105595684945357"><ele>781.0</ele><time>2026-04-12T17:24:01.998Z</time></trkpt><trkpt lat="41.65567826523433" lon="13.105466603886619"><ele>782.1999999999999</ele><time>2026-04-12T17:24:02.998Z</time></trkpt><trkpt lat="41.65564152910333" lon="13.105340075878349"><ele>783.4</ele><time>2026-04-12T17:24:03.998Z</time></trkpt><trkpt lat="41.655585005295166" lon="13.105229754879606"><ele>784.6</ele><time>2026-04-12T17:24:04.998Z</time></trkpt><trkpt lat="41.6555225908111" lon="13.105136893247744"><ele>785.8</ele><time>2026-04-12T17:24:05.998Z</time></trkpt><trkpt lat="41.65546176733673" lon="13.105060082253585"><ele>787.0</ele><time>2026-04-12T17:24:06.998Z</time></trkpt><trkpt lat="41.655404158689166" lon="13.104988672491823"><ele>786.9999999999999</ele><time>2026-04-12T17:24:07.998Z</time></trkpt><trkpt lat="41.655346816040044" lon="13.104925641928713"><ele>787.0</ele><time>2026-04-12T17:24:08.998Z</time></trkpt><trkpt lat="41.655290097809846" lon="13.104854895892965"><ele>787.0</ele><time>2026-04-12T17:24:09.998Z</time></trkpt><trkpt lat="41.65522955631362" lon="13.10476751616544"><ele>787.0</ele><time>2026-04-12T17:24:10.998Z</time></trkpt><trkpt lat="41.655170283872884" lon="13.104665465465084"><ele>786.9999999999999</ele><time>2026-04-12T17:24:11.998Z</time></trkpt><trkpt lat="41.65512198814171" lon="13.104557719374423"><ele>787.0</ele><time>2026-04-12T17:24:12.998Z</time></trkpt><trkpt lat="41.65508391853845" lon="13.104440913609615"><ele>787.4999999999999</ele><time>2026-04-12T17:24:13.998Z</time></trkpt><trkpt lat="41.65505293354565" lon="13.1043143565679"><ele>788.0</ele><time>2026-04-12T17:24:14.998Z</time></trkpt><trkpt lat="41.65502025728315" lon="13.104194595473738"><ele>788.5</ele><time>2026-04-12T17:24:15.998Z</time></trkpt><trkpt lat="41.65501107443437" lon="13.10408594451144"><ele>789.0</ele><time>2026-04-12T17:24:16.998Z</time></trkpt><trkpt lat="41.65502775420871" lon="13.103986770618569"><ele>789.4999999999999</ele><time>2026-04-12T17:24:17.998Z</time></trkpt><trkpt lat="41.655061946913015" lon="13.103899723513548"><ele>790.0</ele><time>2026-04-12T17:24:18.998Z</time></trkpt><trkpt lat="41.655101434078844" lon="13.103821218974385"><ele>789.9999999999999</ele><time>2026-04-12T17:24:19.998Z</time></trkpt><trkpt lat="41.65515527342299" lon="13.103751181861607"><ele>790.0</ele><time>2026-04-12T17:24:20.998Z</time></trkpt><trkpt lat="41.655217779748206" lon="13.103682060293517"><ele>790.0</ele><time>2026-04-12T17:24:21.998Z</time></trkpt><trkpt lat="41.65528638620553" lon="13.103613647492136"><ele>790.0</ele><time>2026-04-12T17:24:22.998Z</time></trkpt><trkpt lat="41.655358680567026" lon="13.103540871986159"><ele>789.9999999999999</ele><time>2026-04-12T17:24:23.998Z</time></trkpt><trkpt lat="41.655422887959375" lon="13.103468216688523"><ele>790.0</ele><time>2026-04-12T17:24:24.998Z</time></trkpt><trkpt lat="41.655487213724165" lon="13.103403458928899"><ele>789.9999999999999</ele><time>2026-04-12T17:24:25.998Z</time></trkpt><trkpt lat="41.65554801529243" lon="13.103335226590112"><ele>790.0</ele><time>2026-04-12T17:24:26.998Z</time></trkpt><trkpt lat="41.65560306153432" lon="13.103271634976593"><ele>790.0</ele><time>2026-04-12T17:24:27.998Z</time></trkpt><trkpt lat="41.65565376205369" lon="13.10320994899888"><ele>790.0</ele><time>2026-04-12T17:24:28.998Z</time></trkpt><trkpt lat="41.65573814542956" lon="13.103132769471753"><ele>789.9999999999999</ele><time>2026-04-12T17:24:29.998Z</time></trkpt><trkpt lat="41.65578082301482" lon="13.10301924304986"><ele>790.0</ele><time>2026-04-12T17:24:30.998Z</time></trkpt><trkpt lat="41.65581789870004" lon="13.10291238343212"><ele>788.4999999999999</ele><time>2026-04-12T17:24:31.997Z</time></trkpt><trkpt lat="41.655851169549464" lon="13.102815424015041"><ele>787.0</ele><time>2026-04-12T17:24:32.997Z</time></trkpt><trkpt lat="41.655804391703" lon="13.102662626937821"><ele>785.5</ele><time>2026-04-12T17:24:33.997Z</time></trkpt><trkpt lat="41.65581027115909" lon="13.102563255045965"><ele>784.0</ele><time>2026-04-12T17:24:34.997Z</time></trkpt><trkpt lat="41.655832131363155" lon="13.102460918355302"><ele>782.4999999999999</ele><time>2026-04-12T17:24:35.997Z</time></trkpt><trkpt lat="41.655862763938345" lon="13.10236501705068"><ele>781.0</ele><time>2026-04-12T17:24:36.997Z</time></trkpt><trkpt lat="41.655893155213526" lon="13.102265482341902"><ele>779.6666666666666</ele><time>2026-04-12T17:24:37.997Z</time></trkpt><trkpt lat="41.655923239502826" lon="13.102167907112413"><ele>778.3333333333333</ele><time>2026-04-12T17:24:38.997Z</time></trkpt><trkpt lat="41.65597085575028" lon="13.10208839344023"><ele>777.0</ele><time>2026-04-12T17:24:39.997Z</time></trkpt><trkpt lat="41.65599779323126" lon="13.10199839137985"><ele>775.6666666666667</ele><time>2026-04-12T17:24:40.997Z</time></trkpt><trkpt lat="41.65602320327083" lon="13.101911053634145"><ele>774.3333333333334</ele><time>2026-04-12T17:24:41.997Z</time></trkpt><trkpt lat="41.656031214822015" lon="13.101822948564955"><ele>773.0</ele><time>2026-04-12T17:24:42.997Z</time></trkpt><trkpt lat="41.656077858024645" lon="13.101704953105404"><ele>773.0</ele><time>2026-04-12T17:24:44.997Z</time></trkpt><trkpt lat="41.655943216962406" lon="13.101622877947072"><ele>773.0</ele><time>2026-04-12T17:24:47.997Z</time></trkpt><trkpt lat="41.655882612951046" lon="13.101678722395434"><ele>773.0</ele><time>2026-04-12T17:24:48.997Z</time></trkpt><trkpt lat="41.65582142111713" lon="13.10173863994176"><ele>773.0</ele><time>2026-04-12T17:24:49.997Z</time></trkpt><trkpt lat="41.65574686939078" lon="13.101800414017097"><ele>773.0</ele><time>2026-04-12T17:24:51Z</time></trkpt><trkpt lat="41.65566941778815" lon="13.101872916933159"><ele>773.0000000000001</ele><time>2026-04-12T17:24:52Z</time></trkpt><trkpt lat="41.655588356211865" lon="13.101947871023757"><ele>773.0</ele><time>2026-04-12T17:24:53Z</time></trkpt><trkpt lat="41.65551614950918" lon="13.102006419601459"><ele>773.0</ele><time>2026-04-12T17:24:54Z</time></trkpt><trkpt lat="41.65545392148414" lon="13.102057494113227"><ele>773.0</ele><time>2026-04-12T17:24:55Z</time></trkpt><trkpt lat="41.655393244320564" lon="13.102102218043308"><ele>773.0000000000001</ele><time>2026-04-12T17:24:56Z</time></trkpt><trkpt lat="41.65529688044305" lon="13.102122143072878"><ele>773.0</ele><time>2026-04-12T17:24:57Z</time></trkpt><trkpt lat="41.65523282146981" lon="13.102119270234656"><ele>772.6666666666667</ele><time>2026-04-12T17:24:58Z</time></trkpt><trkpt lat="41.65514943754589" lon="13.102067086554431"><ele>772.3333333333334</ele><time>2026-04-12T17:25:00Z</time></trkpt><trkpt lat="41.65519631086342" lon="13.101940803735"><ele>772.0</ele><time>2026-04-12T17:25:01Z</time></trkpt><trkpt lat="41.65521536487889" lon="13.101814358417712"><ele>771.6666666666667</ele><time>2026-04-12T17:25:02Z</time></trkpt><trkpt lat="41.655221142911635" lon="13.101702643783296"><ele>771.3333333333334</ele><time>2026-04-12T17:25:03Z</time></trkpt><trkpt lat="41.65521921157665" lon="13.101612497344487"><ele>771.0</ele><time>2026-04-12T17:25:04Z</time></trkpt><trkpt lat="41.65521066789854" lon="13.101518488372522"><ele>770.5999999999999</ele><time>2026-04-12T17:25:05Z</time></trkpt><trkpt lat="41.655206537944636" lon="13.101420763669164"><ele>770.2</ele><time>2026-04-12T17:25:06Z</time></trkpt><trkpt lat="41.65521107849189" lon="13.101333403704533"><ele>769.8</ele><time>2026-04-12T17:25:07Z</time></trkpt><trkpt lat="41.65523639283522" lon="13.101186127615868"><ele>769.4000000000001</ele><time>2026-04-12T17:25:09Z</time></trkpt><trkpt lat="41.65526392447865" lon="13.101014347900573"><ele>769.0</ele><time>2026-04-12T17:25:11Z</time></trkpt><trkpt lat="41.6552793311642" lon="13.100913234627638"><ele>768.8333333333333</ele><time>2026-04-12T17:25:12Z</time></trkpt><trkpt lat="41.65529280751536" lon="13.100816104069038"><ele>768.6666666666666</ele><time>2026-04-12T17:25:13Z</time></trkpt><trkpt lat="41.65530278391089" lon="13.100725543463566"><ele>768.5</ele><time>2026-04-12T17:25:14Z</time></trkpt><trkpt lat="41.655310761907394" lon="13.100630912151711"><ele>768.3333333333333</ele><time>2026-04-12T17:25:15Z</time></trkpt><trkpt lat="41.65531783165459" lon="13.100536732672985"><ele>768.1666666666666</ele><time>2026-04-12T17:25:16Z</time></trkpt><trkpt lat="41.655324894501156" lon="13.100371037117483"><ele>768.0</ele><time>2026-04-12T17:25:18Z</time></trkpt><trkpt lat="41.6553219823252" lon="13.100273152153811"><ele>768.4</ele><time>2026-04-12T17:25:19Z</time></trkpt><trkpt lat="41.65530304427544" lon="13.100157367140188"><ele>768.8</ele><time>2026-04-12T17:25:20Z</time></trkpt><trkpt lat="41.65529616291431" lon="13.100037215444598"><ele>769.2</ele><time>2026-04-12T17:25:21Z</time></trkpt><trkpt lat="41.65528350183738" lon="13.099906971872901"><ele>769.6</ele><time>2026-04-12T17:25:21.999Z</time></trkpt><trkpt lat="41.65526545497462" lon="13.099775034918622"><ele>770.0</ele><time>2026-04-12T17:25:22.999Z</time></trkpt><trkpt lat="41.65523790874628" lon="13.099638670550913"><ele>770.6</ele><time>2026-04-12T17:25:23.999Z</time></trkpt><trkpt lat="41.65522016053151" lon="13.099498465987162"><ele>771.2</ele><time>2026-04-12T17:25:24.999Z</time></trkpt><trkpt lat="41.65518178662932" lon="13.099357588043771"><ele>771.8</ele><time>2026-04-12T17:25:25.999Z</time></trkpt><trkpt lat="41.655140849975275" lon="13.09922500504542"><ele>772.4</ele><time>2026-04-12T17:25:26.999Z</time></trkpt><trkpt lat="41.65510213472568" lon="13.0991018026455"><ele>773.0</ele><time>2026-04-12T17:25:27.999Z</time></trkpt><trkpt lat="41.65506954718499" lon="13.09898631048916"><ele>774.0</ele><time>2026-04-12T17:25:28.999Z</time></trkpt><trkpt lat="41.65503478094015" lon="13.09886265983953"><ele>775.0</ele><time>2026-04-12T17:25:29.999Z</time></trkpt><trkpt lat="41.654996380239844" lon="13.098729700544702"><ele>776.0</ele><time>2026-04-12T17:25:30.999Z</time></trkpt><trkpt lat="41.6549500310914" lon="13.098601363963216"><ele>777.0</ele><time>2026-04-12T17:25:31.999Z</time></trkpt><trkpt lat="41.65494238675673" lon="13.098471339758463"><ele>778.0</ele><time>2026-04-12T17:25:32.999Z</time></trkpt><trkpt lat="41.65494190337642" lon="13.098334792255185"><ele>778.8</ele><time>2026-04-12T17:25:33.999Z</time></trkpt><trkpt lat="41.65498078787606" lon="13.098215305272584"><ele>779.5999999999999</ele><time>2026-04-12T17:25:34.999Z</time></trkpt><trkpt lat="41.655017488097954" lon="13.09810588168735"><ele>780.4000000000001</ele><time>2026-04-12T17:25:35.999Z</time></trkpt><trkpt lat="41.655050278274345" lon="13.097996905555863"><ele>781.2</ele><time>2026-04-12T17:25:36.999Z</time></trkpt><trkpt lat="41.655087173084596" lon="13.097874468001148"><ele>782.0</ele><time>2026-04-12T17:25:37.999Z</time></trkpt><trkpt lat="41.65509520106385" lon="13.09771473794222"><ele>782.0</ele><time>2026-04-12T17:25:38.999Z</time></trkpt><trkpt lat="41.65512653764137" lon="13.097549176867005"><ele>782.0</ele><time>2026-04-12T17:25:39.999Z</time></trkpt><trkpt lat="41.655143831385054" lon="13.09738477622292"><ele>782.0</ele><time>2026-04-12T17:25:40.999Z</time></trkpt><trkpt lat="41.65519981061695" lon="13.097234402053653"><ele>782.0</ele><time>2026-04-12T17:25:41.999Z</time></trkpt><trkpt lat="41.655238841469476" lon="13.09707156341527"><ele>782.6</ele><time>2026-04-12T17:25:42.999Z</time></trkpt><trkpt lat="41.65523003802782" lon="13.096911668314934"><ele>783.2</ele><time>2026-04-12T17:25:43.999Z</time></trkpt><trkpt lat="41.65524655134432" lon="13.096778729799071"><ele>783.8</ele><time>2026-04-12T17:25:44.999Z</time></trkpt><trkpt lat="41.655289578591805" lon="13.096692624985351"><ele>784.4</ele><time>2026-04-12T17:25:45.999Z</time></trkpt><trkpt lat="41.65534848555296" lon="13.0966067871489"><ele>785.0</ele><time>2026-04-12T17:25:46.999Z</time></trkpt><trkpt lat="41.655419988104036" lon="13.09651845190986"><ele>785.0</ele><time>2026-04-12T17:25:47.999Z</time></trkpt><trkpt lat="41.655490897670155" lon="13.096423533255983"><ele>785.0</ele><time>2026-04-12T17:25:48.999Z</time></trkpt><trkpt lat="41.6555377802045" lon="13.096288135854584"><ele>785.0</ele><time>2026-04-12T17:25:49.999Z</time></trkpt><trkpt lat="41.655576538804034" lon="13.096131598755525"><ele>785.0</ele><time>2026-04-12T17:25:50.999Z</time></trkpt><trkpt lat="41.65564055381208" lon="13.09603195513155"><ele>785.0</ele><time>2026-04-12T17:25:51.999Z</time></trkpt><trkpt lat="41.655746408964745" lon="13.095856703152052"><ele>785.4</ele><time>2026-04-12T17:25:52.999Z</time></trkpt><trkpt lat="41.655803999191555" lon="13.095743023420507"><ele>785.8</ele><time>2026-04-12T17:25:53.999Z</time></trkpt><trkpt lat="41.65585283993091" lon="13.09563088611869"><ele>786.2</ele><time>2026-04-12T17:25:54.999Z</time></trkpt><trkpt lat="41.65585989461785" lon="13.095464557130018"><ele>786.6</ele><time>2026-04-12T17:25:55.999Z</time></trkpt><trkpt lat="41.65586342264913" lon="13.095311485246514"><ele>787.0</ele><time>2026-04-12T17:25:56.999Z</time></trkpt><trkpt lat="41.655878062148425" lon="13.095163619265586"><ele>787.0</ele><time>2026-04-12T17:25:57.999Z</time></trkpt><trkpt lat="41.6559371026471" lon="13.095051174369454"><ele>787.0</ele><time>2026-04-12T17:25:58.998Z</time></trkpt><trkpt lat="41.65601829761343" lon="13.094952596455382"><ele>787.0</ele><time>2026-04-12T17:25:59.998Z</time></trkpt><trkpt lat="41.65610617652302" lon="13.094840809552775"><ele>787.0</ele><time>2026-04-12T17:26:00.998Z</time></trkpt><trkpt lat="41.65618451225271" lon="13.094789561238832"><ele>787.0</ele><time>2026-04-12T17:26:01.998Z</time></trkpt><trkpt lat="41.6562491330413" lon="13.0947279279665"><ele>784.6</ele><time>2026-04-12T17:26:02.998Z</time></trkpt><trkpt lat="41.656300867608614" lon="13.094668723029828"><ele>782.2</ele><time>2026-04-12T17:26:03.998Z</time></trkpt><trkpt lat="41.65638963040224" lon="13.094572094197988"><ele>779.8</ele><time>2026-04-12T17:26:05.998Z</time></trkpt><trkpt lat="41.65637024941122" lon="13.094412658045917"><ele>777.4</ele><time>2026-04-12T17:26:06.998Z</time></trkpt><trkpt lat="41.65638760487778" lon="13.094263337726758"><ele>775.0</ele><time>2026-04-12T17:26:08.998Z</time></trkpt><trkpt lat="41.65640330451193" lon="13.094117309494571"><ele>774.6666666666666</ele><time>2026-04-12T17:26:10.998Z</time></trkpt><trkpt lat="41.65641015151062" lon="13.09402331780587"><ele>774.3333333333333</ele><time>2026-04-12T17:26:11.998Z</time></trkpt><trkpt lat="41.656416436807135" lon="13.093924245932772"><ele>774.0</ele><time>2026-04-12T17:26:12.998Z</time></trkpt><trkpt lat="41.65642330535466" lon="13.09381597982356"><ele>773.6666666666667</ele><time>2026-04-12T17:26:13.998Z</time></trkpt><trkpt lat="41.65643397794504" lon="13.093716986586273"><ele>773.3333333333334</ele><time>2026-04-12T17:26:14.998Z</time></trkpt><trkpt lat="41.65645132645753" lon="13.093617522621694"><ele>773.0</ele><time>2026-04-12T17:26:15.998Z</time></trkpt><trkpt lat="41.656474863547096" lon="13.093514619159677"><ele>773.0000000000001</ele><time>2026-04-12T17:26:16.998Z</time></trkpt><trkpt lat="41.65650698040243" lon="13.093424061571058"><ele>773.0</ele><time>2026-04-12T17:26:17.998Z</time></trkpt><trkpt lat="41.65656867151113" lon="13.09334675005476"><ele>773.0</ele><time>2026-04-12T17:26:18.998Z</time></trkpt><trkpt lat="41.65664191560607" lon="13.093307689647684"><ele>773.0</ele><time>2026-04-12T17:26:19.998Z</time></trkpt><trkpt lat="41.656718982164634" lon="13.093278211317747"><ele>773.0000000000001</ele><time>2026-04-12T17:26:20.998Z</time></trkpt><trkpt lat="41.65678250330286" lon="13.09324258425076"><ele>773.0</ele><time>2026-04-12T17:26:21.998Z</time></trkpt><trkpt lat="41.65684666915112" lon="13.093185838910372"><ele>772.5000000000001</ele><time>2026-04-12T17:26:22.998Z</time></trkpt><trkpt lat="41.65690381493105" lon="13.093120759415699"><ele>772.0</ele><time>2026-04-12T17:26:23.998Z</time></trkpt><trkpt lat="41.65695013154084" lon="13.09303330856441"><ele>771.5</ele><time>2026-04-12T17:26:24.998Z</time></trkpt><trkpt lat="41.656960972822304" lon="13.092910715607289"><ele>771.0</ele><time>2026-04-12T17:26:25.998Z</time></trkpt><trkpt lat="41.65693584005344" lon="13.092783104022393"><ele>770.5000000000001</ele><time>2026-04-12T17:26:26.998Z</time></trkpt><trkpt lat="41.656906616871645" lon="13.092668896979756"><ele>770.0</ele><time>2026-04-12T17:26:27.998Z</time></trkpt><trkpt lat="41.65687929207986" lon="13.092550736910068"><ele>770.0</ele><time>2026-04-12T17:26:28.998Z</time></trkpt><trkpt lat="41.65685461476142" lon="13.092437187187391"><ele>770.0</ele><time>2026-04-12T17:26:29.998Z</time></trkpt><trkpt lat="41.65682690953986" lon="13.092308815838424"><ele>770.0</ele><time>2026-04-12T17:26:30.998Z</time></trkpt><trkpt lat="41.656797869790694" lon="13.09218154360621"><ele>770.0</ele><time>2026-04-12T17:26:31.998Z</time></trkpt><trkpt lat="41.6567708553473" lon="13.092057211224573"><ele>770.0</ele><time>2026-04-12T17:26:32.998Z</time></trkpt><trkpt lat="41.65674860802334" lon="13.09193583310237"><ele>769.4</ele><time>2026-04-12T17:26:33.998Z</time></trkpt><trkpt lat="41.656729394624385" lon="13.091803301640969"><ele>768.8</ele><time>2026-04-12T17:26:34.998Z</time></trkpt><trkpt lat="41.656714333168075" lon="13.091674443401565"><ele>768.2</ele><time>2026-04-12T17:26:35.998Z</time></trkpt><trkpt lat="41.6566906923497" lon="13.091547360735808"><ele>767.6</ele><time>2026-04-12T17:26:36.997Z</time></trkpt><trkpt lat="41.65669147162619" lon="13.091427595813682"><ele>767.0</ele><time>2026-04-12T17:26:37.997Z</time></trkpt><trkpt lat="41.65671128478042" lon="13.091323297337526"><ele>767.0</ele><time>2026-04-12T17:26:38.997Z</time></trkpt><trkpt lat="41.65672977084663" lon="13.091229366082528"><ele>767.0</ele><time>2026-04-12T17:26:39.997Z</time></trkpt><trkpt lat="41.65675500847814" lon="13.09113218844997"><ele>767.0</ele><time>2026-04-12T17:26:40.997Z</time></trkpt><trkpt lat="41.65679309899127" lon="13.09103868913803"><ele>767.0</ele><time>2026-04-12T17:26:41.997Z</time></trkpt><trkpt lat="41.6568308031142" lon="13.090944648228442"><ele>767.0</ele><time>2026-04-12T17:26:42.997Z</time></trkpt><trkpt lat="41.656868448480736" lon="13.090849704227786"><ele>767.0</ele><time>2026-04-12T17:26:43.997Z</time></trkpt><trkpt lat="41.65690099538254" lon="13.090742968529788"><ele>766.6666666666666</ele><time>2026-04-12T17:26:44.997Z</time></trkpt><trkpt lat="41.656921739908086" lon="13.090645415500937"><ele>766.3333333333333</ele><time>2026-04-12T17:26:45.997Z</time></trkpt><trkpt lat="41.65694919474912" lon="13.090561431564694"><ele>766.0</ele><time>2026-04-12T17:26:46.997Z</time></trkpt><trkpt lat="41.65697364289159" lon="13.090468521125935"><ele>765.6666666666666</ele><time>2026-04-12T17:26:47.997Z</time></trkpt><trkpt lat="41.657009369793826" lon="13.090357199357435"><ele>765.3333333333334</ele><time>2026-04-12T17:26:48.997Z</time></trkpt><trkpt lat="41.65700936092602" lon="13.090233818875992"><ele>765.0</ele><time>2026-04-12T17:26:49.997Z</time></trkpt><trkpt lat="41.65702198060449" lon="13.090107022411958"><ele>762.4</ele><time>2026-04-12T17:26:50.997Z</time></trkpt><trkpt lat="41.6570356400031" lon="13.08997579710403"><ele>759.8</ele><time>2026-04-12T17:26:51.997Z</time></trkpt><trkpt lat="41.65704688001517" lon="13.089844391646295"><ele>757.2</ele><time>2026-04-12T17:26:52.997Z</time></trkpt><trkpt lat="41.657061394779795" lon="13.089708945899492"><ele>754.6</ele><time>2026-04-12T17:26:53.997Z</time></trkpt><trkpt lat="41.65706870495853" lon="13.08957760540721"><ele>752.0</ele><time>2026-04-12T17:26:54.997Z</time></trkpt><trkpt lat="41.65709318983591" lon="13.089442252697891"><ele>751.5</ele><time>2026-04-12T17:26:55.997Z</time></trkpt><trkpt lat="41.657106510473106" lon="13.08930569596068"><ele>751.0</ele><time>2026-04-12T17:26:57Z</time></trkpt><trkpt lat="41.657120432910595" lon="13.089183462946895"><ele>750.5</ele><time>2026-04-12T17:26:58Z</time></trkpt><trkpt lat="41.65713594674321" lon="13.089071420990994"><ele>750.0</ele><time>2026-04-12T17:26:59Z</time></trkpt><trkpt lat="41.657152800977535" lon="13.088968288007463"><ele>749.5</ele><time>2026-04-12T17:27:00Z</time></trkpt><trkpt lat="41.657169491487544" lon="13.088871356825356"><ele>749.0</ele><time>2026-04-12T17:27:01Z</time></trkpt><trkpt lat="41.65718156505762" lon="13.08876721326618"><ele>747.5</ele><time>2026-04-12T17:27:02Z</time></trkpt><trkpt lat="41.65720155049496" lon="13.088670178897054"><ele>746.0</ele><time>2026-04-12T17:27:03Z</time></trkpt><trkpt lat="41.657213635914054" lon="13.088581395654574"><ele>744.5</ele><time>2026-04-12T17:27:04Z</time></trkpt><trkpt lat="41.657224918865694" lon="13.088490813687894"><ele>743.0</ele><time>2026-04-12T17:27:05Z</time></trkpt><trkpt lat="41.657252222911666" lon="13.08837118463948"><ele>741.5</ele><time>2026-04-12T17:27:07Z</time></trkpt><trkpt lat="41.657275436739354" lon="13.08827745438498"><ele>740.0</ele><time>2026-04-12T17:27:10Z</time></trkpt><trkpt lat="41.65725800652233" lon="13.088404597389697"><ele>740.0</ele><time>2026-04-12T17:27:55.999Z</time></trkpt><trkpt lat="41.65720191279599" lon="13.088630231937389"><ele>740.0</ele><time>2026-04-12T17:27:57.999Z</time></trkpt><trkpt lat="41.657186191960385" lon="13.088749702148451"><ele>740.0</ele><time>2026-04-12T17:27:58.999Z</time></trkpt><trkpt lat="41.65715853944843" lon="13.088879842475857"><ele>740.0</ele><time>2026-04-12T17:27:59.999Z</time></trkpt><trkpt lat="41.657131373649854" lon="13.089008871615455"><ele>742.25</ele><time>2026-04-12T17:28:00.999Z</time></trkpt><trkpt lat="41.657104643133415" lon="13.089146873251785"><ele>744.5</ele><time>2026-04-12T17:28:01.999Z</time></trkpt><trkpt lat="41.657088939912164" lon="13.089298213207815"><ele>746.75</ele><time>2026-04-12T17:28:02.999Z</time></trkpt><trkpt lat="41.65707946720163" lon="13.08945615636198"><ele>749.0</ele><time>2026-04-12T17:28:03.999Z</time></trkpt><trkpt lat="41.65707028524494" lon="13.089616425685382"><ele>749.0</ele><time>2026-04-12T17:28:04.998Z</time></trkpt><trkpt lat="41.65703010815422" lon="13.08977436738974"><ele>749.0</ele><time>2026-04-12T17:28:05.998Z</time></trkpt><trkpt lat="41.65701643212296" lon="13.089928131344882"><ele>749.0</ele><time>2026-04-12T17:28:06.998Z</time></trkpt><trkpt lat="41.65700367699324" lon="13.090071541220787"><ele>749.0</ele><time>2026-04-12T17:28:07.998Z</time></trkpt><trkpt lat="41.65699015924192" lon="13.090218333761023"><ele>749.6</ele><time>2026-04-12T17:28:08.998Z</time></trkpt><trkpt lat="41.656988183660395" lon="13.090362657444789"><ele>750.2</ele><time>2026-04-12T17:28:09.998Z</time></trkpt><trkpt lat="41.656949964967055" lon="13.090490769031183"><ele>750.8000000000001</ele><time>2026-04-12T17:28:10.998Z</time></trkpt><trkpt lat="41.656912538797144" lon="13.090621008047384"><ele>751.4000000000001</ele><time>2026-04-12T17:28:11.998Z</time></trkpt><trkpt lat="41.65686694409561" lon="13.090752889162927"><ele>752.0</ele><time>2026-04-12T17:28:12.998Z</time></trkpt><trkpt lat="41.656823924185694" lon="13.090905512145678"><ele>755.75</ele><time>2026-04-12T17:28:13.998Z</time></trkpt><trkpt lat="41.6567614143035" lon="13.091055392728776"><ele>759.5</ele><time>2026-04-12T17:28:14.998Z</time></trkpt><trkpt lat="41.65671143226593" lon="13.091189346917032"><ele>763.25</ele><time>2026-04-12T17:28:15.998Z</time></trkpt><trkpt lat="41.65668836616136" lon="13.091353277348599"><ele>767.0</ele><time>2026-04-12T17:28:16.998Z</time></trkpt><trkpt lat="41.65666882704349" lon="13.091530177476526"><ele>766.75</ele><time>2026-04-12T17:28:17.998Z</time></trkpt><trkpt lat="41.656685457158346" lon="13.09171921686048"><ele>766.5</ele><time>2026-04-12T17:28:18.998Z</time></trkpt><trkpt lat="41.65671795919617" lon="13.091887828711135"><ele>766.25</ele><time>2026-04-12T17:28:19.998Z</time></trkpt><trkpt lat="41.656743916284945" lon="13.09204849578775"><ele>766.0</ele><time>2026-04-12T17:28:20.998Z</time></trkpt><trkpt lat="41.656781487051354" lon="13.092194061110211"><ele>766.0</ele><time>2026-04-12T17:28:21.998Z</time></trkpt><trkpt lat="41.65680848869888" lon="13.09232927541808"><ele>766.0</ele><time>2026-04-12T17:28:22.998Z</time></trkpt><trkpt lat="41.65683632867769" lon="13.092454819703155"><ele>766.0</ele><time>2026-04-12T17:28:23.998Z</time></trkpt><trkpt lat="41.656861915006566" lon="13.092580691363334"><ele>766.0</ele><time>2026-04-12T17:28:24.998Z</time></trkpt><trkpt lat="41.6568883653456" lon="13.092699549172258"><ele>766.0</ele><time>2026-04-12T17:28:25.998Z</time></trkpt><trkpt lat="41.65690889403001" lon="13.092817452815892"><ele>766.8</ele><time>2026-04-12T17:28:26.998Z</time></trkpt><trkpt lat="41.65692452394894" lon="13.092914518701596"><ele>767.5999999999999</ele><time>2026-04-12T17:28:27.998Z</time></trkpt><trkpt lat="41.65691906214119" lon="13.093043514749386"><ele>768.4</ele><time>2026-04-12T17:28:29.998Z</time></trkpt><trkpt lat="41.656843089399395" lon="13.093146485786155"><ele>769.2</ele><time>2026-04-12T17:29:31Z</time></trkpt><trkpt lat="41.656748913568066" lon="13.09322121867887"><ele>770.0</ele><time>2026-04-12T17:29:32.999Z</time></trkpt><trkpt lat="41.65668777813255" lon="13.093266793695884"><ele>770.6</ele><time>2026-04-12T17:29:33.999Z</time></trkpt><trkpt lat="41.65660725618843" lon="13.093279276550753"><ele>771.2</ele><time>2026-04-12T17:29:34.999Z</time></trkpt><trkpt lat="41.65652749494235" lon="13.093336221854992"><ele>771.8</ele><time>2026-04-12T17:29:35.999Z</time></trkpt><trkpt lat="41.65646712304275" lon="13.093424100913552"><ele>772.4</ele><time>2026-04-12T17:29:36.999Z</time></trkpt><trkpt lat="41.65643802578701" lon="13.093547467937677"><ele>773.0</ele><time>2026-04-12T17:29:37.999Z</time></trkpt><trkpt lat="41.65641115415606" lon="13.09366871503123"><ele>773.0</ele><time>2026-04-12T17:29:38.999Z</time></trkpt><trkpt lat="41.65640413131952" lon="13.093799686475561"><ele>773.0</ele><time>2026-04-12T17:29:39.999Z</time></trkpt><trkpt lat="41.6563978255324" lon="13.093937974900133"><ele>773.0</ele><time>2026-04-12T17:29:40.999Z</time></trkpt><trkpt lat="41.65638655364044" lon="13.094066009891977"><ele>773.0</ele><time>2026-04-12T17:29:41.999Z</time></trkpt><trkpt lat="41.656374609012325" lon="13.094183198730997"><ele>773.0</ele><time>2026-04-12T17:29:42.999Z</time></trkpt><trkpt lat="41.65635975393441" lon="13.094298343693618"><ele>773.4</ele><time>2026-04-12T17:29:43.999Z</time></trkpt><trkpt lat="41.65635215617114" lon="13.094417561275613"><ele>773.8</ele><time>2026-04-12T17:29:44.999Z</time></trkpt><trkpt lat="41.6563214201394" lon="13.094517779856345"><ele>774.2</ele><time>2026-04-12T17:29:45.999Z</time></trkpt><trkpt lat="41.65627685926567" lon="13.094664861930298"><ele>774.6</ele><time>2026-04-12T17:29:47.999Z</time></trkpt><trkpt lat="41.65620261243068" lon="13.094715556615544"><ele>775.0</ele><time>2026-04-12T17:29:48.999Z</time></trkpt><trkpt lat="41.656115247925534" lon="13.094771841251966"><ele>777.4</ele><time>2026-04-12T17:29:49.999Z</time></trkpt><trkpt lat="41.65602998880342" lon="13.094845500345308"><ele>779.8</ele><time>2026-04-12T17:29:50.999Z</time></trkpt><trkpt lat="41.655957205702606" lon="13.094943274568362"><ele>782.2</ele><time>2026-04-12T17:29:51.999Z</time></trkpt><trkpt lat="41.65590500573927" lon="13.095041041588752"><ele>784.6</ele><time>2026-04-12T17:29:52.999Z</time></trkpt><trkpt lat="41.65585643967917" lon="13.095148605384182"><ele>787.0</ele><time>2026-04-12T17:29:53.999Z</time></trkpt><trkpt lat="41.65584265124121" lon="13.095270255342827"><ele>786.9999999999999</ele><time>2026-04-12T17:29:54.999Z</time></trkpt><trkpt lat="41.65584389668595" lon="13.095403980545147"><ele>787.0</ele><time>2026-04-12T17:29:55.999Z</time></trkpt><trkpt lat="41.65581762905211" lon="13.095526947241316"><ele>787.0</ele><time>2026-04-12T17:29:56.999Z</time></trkpt><trkpt lat="41.655812968082216" lon="13.095640960012002"><ele>787.0</ele><time>2026-04-12T17:29:57.999Z</time></trkpt><trkpt lat="41.65578743884741" lon="13.09573812495747"><ele>786.9999999999999</ele><time>2026-04-12T17:29:58.999Z</time></trkpt><trkpt lat="41.65572978632857" lon="13.095813051469666"><ele>787.0</ele><time>2026-04-12T17:29:59.999Z</time></trkpt><trkpt lat="41.65567993199627" lon="13.09592431257953"><ele>786.6</ele><time>2026-04-12T17:30:00.999Z</time></trkpt><trkpt lat="41.655598621921904" lon="13.096043675131016"><ele>786.2</ele><time>2026-04-12T17:30:01.999Z</time></trkpt><trkpt lat="41.6555381169598" lon="13.096170685646772"><ele>785.8</ele><time>2026-04-12T17:30:02.999Z</time></trkpt><trkpt lat="41.65549711036092" lon="13.096293001759985"><ele>785.4</ele><time>2026-04-12T17:30:03.999Z</time></trkpt><trkpt lat="41.65546696421135" lon="13.09641704643793"><ele>785.0</ele><time>2026-04-12T17:30:04.999Z</time></trkpt><trkpt lat="41.655390963200624" lon="13.096494013344483"><ele>785.0000000000001</ele><time>2026-04-12T17:30:05.999Z</time></trkpt><trkpt lat="41.6553209458039" lon="13.096585607706162"><ele>785.0</ele><time>2026-04-12T17:30:06.999Z</time></trkpt><trkpt lat="41.65526703763023" lon="13.09667400665979"><ele>785.0</ele><time>2026-04-12T17:30:07.999Z</time></trkpt><trkpt lat="41.655227877680645" lon="13.096754821389379"><ele>785.0</ele><time>2026-04-12T17:30:08.999Z</time></trkpt><trkpt lat="41.65520120400346" lon="13.096862585324319"><ele>785.0000000000001</ele><time>2026-04-12T17:30:09.999Z</time></trkpt><trkpt lat="41.65520121296565" lon="13.09700825860057"><ele>785.0</ele><time>2026-04-12T17:30:10.998Z</time></trkpt><trkpt lat="41.65519458848368" lon="13.097174451432593"><ele>785.0</ele><time>2026-04-12T17:30:11.998Z</time></trkpt><trkpt lat="41.655136639800816" lon="13.097330532353084"><ele>785.0</ele><time>2026-04-12T17:30:12.998Z</time></trkpt><trkpt lat="41.6550994214102" lon="13.097504208161578"><ele>785.0</ele><time>2026-04-12T17:30:13.998Z</time></trkpt><trkpt lat="41.65508673054762" lon="13.097671442548716"><ele>785.0</ele><time>2026-04-12T17:30:14.998Z</time></trkpt><trkpt lat="41.65506789228284" lon="13.097821582263737"><ele>784.4</ele><time>2026-04-12T17:30:15.998Z</time></trkpt><trkpt lat="41.6550372857962" lon="13.097955359396732"><ele>783.8</ele><time>2026-04-12T17:30:16.998Z</time></trkpt><trkpt lat="41.65499408374925" lon="13.09806703202096"><ele>783.2</ele><time>2026-04-12T17:30:17.998Z</time></trkpt><trkpt lat="41.65495552259847" lon="13.098183223664938"><ele>782.6</ele><time>2026-04-12T17:30:18.998Z</time></trkpt><trkpt lat="41.654937955022135" lon="13.09829799164163"><ele>782.0</ele><time>2026-04-12T17:30:19.998Z</time></trkpt><trkpt lat="41.654927049499086" lon="13.098427016178844"><ele>781.0</ele><time>2026-04-12T17:30:20.998Z</time></trkpt><trkpt lat="41.65492630471074" lon="13.098586963300184"><ele>780.0</ele><time>2026-04-12T17:30:21.998Z</time></trkpt><trkpt lat="41.65496453942209" lon="13.098737584783809"><ele>779.0</ele><time>2026-04-12T17:30:22.998Z</time></trkpt><trkpt lat="41.654984772540864" lon="13.098885016152764"><ele>778.0</ele><time>2026-04-12T17:30:23.998Z</time></trkpt><trkpt lat="41.655018858312836" lon="13.09902764187326"><ele>777.0</ele><time>2026-04-12T17:30:24.998Z</time></trkpt><trkpt lat="41.655061595972704" lon="13.099152547115475"><ele>776.0</ele><time>2026-04-12T17:30:25.998Z</time></trkpt><trkpt lat="41.655111431248294" lon="13.09927036358189"><ele>775.0</ele><time>2026-04-12T17:30:26.998Z</time></trkpt><trkpt lat="41.65515856668561" lon="13.09939849207552"><ele>774.0</ele><time>2026-04-12T17:30:27.998Z</time></trkpt><trkpt lat="41.65520596066355" lon="13.0995443689717"><ele>773.0</ele><time>2026-04-12T17:30:28.998Z</time></trkpt><trkpt lat="41.65522828468171" lon="13.099712192189392"><ele>773.0</ele><time>2026-04-12T17:30:29.998Z</time></trkpt><trkpt lat="41.65525308655934" lon="13.099881492012857"><ele>773.0</ele><time>2026-04-12T17:30:30.998Z</time></trkpt><trkpt lat="41.65527390951202" lon="13.100067543713717"><ele>773.0</ele><time>2026-04-12T17:30:31.998Z</time></trkpt><trkpt lat="41.65530364471625" lon="13.100261813712175"><ele>773.0</ele><time>2026-04-12T17:30:32.998Z</time></trkpt><trkpt lat="41.65529854637509" lon="13.100454852791291"><ele>772.25</ele><time>2026-04-12T17:30:33.998Z</time></trkpt><trkpt lat="41.65529168543491" lon="13.100635069500125"><ele>771.5</ele><time>2026-04-12T17:30:34.998Z</time></trkpt><trkpt lat="41.6552581206356" lon="13.100823546974796"><ele>770.75</ele><time>2026-04-12T17:30:35.998Z</time></trkpt><trkpt lat="41.655229306589575" lon="13.101018469661554"><ele>770.0</ele><time>2026-04-12T17:30:36.998Z</time></trkpt><trkpt lat="41.65520114334063" lon="13.101191486197745"><ele>769.75</ele><time>2026-04-12T17:30:37.998Z</time></trkpt><trkpt lat="41.65517616735262" lon="13.101351079053503"><ele>769.5</ele><time>2026-04-12T17:30:38.998Z</time></trkpt><trkpt lat="41.65518802198509" lon="13.101521602223617"><ele>769.25</ele><time>2026-04-12T17:30:39.998Z</time></trkpt><trkpt lat="41.65519180116455" lon="13.101688591633687"><ele>769.0</ele><time>2026-04-12T17:30:40.998Z</time></trkpt><trkpt lat="41.6551889834574" lon="13.101831224415095"><ele>769.4000000000001</ele><time>2026-04-12T17:30:41.998Z</time></trkpt><trkpt lat="41.65517635511817" lon="13.101945064937938"><ele>769.8</ele><time>2026-04-12T17:30:42.998Z</time></trkpt><trkpt lat="41.655147671779595" lon="13.102025910521498"><ele>770.2</ele><time>2026-04-12T17:30:43.998Z</time></trkpt><trkpt lat="41.655137387181895" lon="13.102124992151612"><ele>770.5999999999999</ele><time>2026-04-12T17:30:45.998Z</time></trkpt><trkpt lat="41.65530040699226" lon="13.10215930640002"><ele>771.0</ele><time>2026-04-12T17:30:46.998Z</time></trkpt><trkpt lat="41.65539628024061" lon="13.10213748028475"><ele>771.5</ele><time>2026-04-12T17:30:47.998Z</time></trkpt><trkpt lat="41.655500898879886" lon="13.102058661193993"><ele>772.0</ele><time>2026-04-12T17:30:48.997Z</time></trkpt><trkpt lat="41.655605317313785" lon="13.101951512173454"><ele>772.5</ele><time>2026-04-12T17:30:49.997Z</time></trkpt><trkpt lat="41.655704410745294" lon="13.101858994992735"><ele>773.0</ele><time>2026-04-12T17:30:50.997Z</time></trkpt><trkpt lat="41.6558067686209" lon="13.101776171268014"><ele>773.0</ele><time>2026-04-12T17:30:51.997Z</time></trkpt><trkpt lat="41.65589895436028" lon="13.101718741959559"><ele>773.0</ele><time>2026-04-12T17:30:52.997Z</time></trkpt><trkpt lat="41.65596506971844" lon="13.101643963184902"><ele>773.0</ele><time>2026-04-12T17:30:53.997Z</time></trkpt><trkpt lat="41.656071302331206" lon="13.101606799166753"><ele>773.0</ele><time>2026-04-12T17:30:55.997Z</time></trkpt><trkpt lat="41.656175649366695" lon="13.101441211457788"><ele>771.75</ele><time>2026-04-12T17:30:57.997Z</time></trkpt><trkpt lat="41.65626346229849" lon="13.101324755142697"><ele>770.5</ele><time>2026-04-12T17:30:58.997Z</time></trkpt><trkpt lat="41.65638111253989" lon="13.101239551037645"><ele>769.25</ele><time>2026-04-12T17:30:59.997Z</time></trkpt><trkpt lat="41.6565242074538" lon="13.101194360797196"><ele>768.0</ele><time>2026-04-12T17:31:00.997Z</time></trkpt><trkpt lat="41.6566940064203" lon="13.101153873127858"><ele>768.0</ele><time>2026-04-12T17:31:01.997Z</time></trkpt><trkpt lat="41.65687105335771" lon="13.101095477309645"><ele>768.0</ele><time>2026-04-12T17:31:02.997Z</time></trkpt><trkpt lat="41.65706027858828" lon="13.101049023369741"><ele>768.0</ele><time>2026-04-12T17:31:03.997Z</time></trkpt><trkpt lat="41.65725557488458" lon="13.100974215547453"><ele>767.6666666666666</ele><time>2026-04-12T17:31:04.997Z</time></trkpt><trkpt lat="41.65742838393437" lon="13.100871680623337"><ele>767.3333333333333</ele><time>2026-04-12T17:31:05.997Z</time></trkpt><trkpt lat="41.65757970429352" lon="13.100754954994"><ele>767.0</ele><time>2026-04-12T17:31:06.997Z</time></trkpt><trkpt lat="41.65771324807292" lon="13.100635842863557"><ele>766.0</ele><time>2026-04-12T17:31:07.997Z</time></trkpt><trkpt lat="41.65782776708771" lon="13.100493180806426"><ele>765.0</ele><time>2026-04-12T17:31:09Z</time></trkpt><trkpt lat="41.65791416820802" lon="13.10032687352251"><ele>764.0</ele><time>2026-04-12T17:31:10Z</time></trkpt><trkpt lat="41.65797413646444" lon="13.100128559905853"><ele>761.6666666666666</ele><time>2026-04-12T17:31:11Z</time></trkpt><trkpt lat="41.65801678019759" lon="13.099901915778988"><ele>759.3333333333334</ele><time>2026-04-12T17:31:12Z</time></trkpt><trkpt lat="41.658049548976294" lon="13.09968612055677"><ele>757.0</ele><time>2026-04-12T17:31:13Z</time></trkpt><trkpt lat="41.658087349302576" lon="13.099490215370075"><ele>757.0</ele><time>2026-04-12T17:31:14Z</time></trkpt><trkpt lat="41.658138552448406" lon="13.099296906567602"><ele>757.0</ele><time>2026-04-12T17:31:15Z</time></trkpt><trkpt lat="41.6582224058473" lon="13.099129359153228"><ele>757.0</ele><time>2026-04-12T17:31:16Z</time></trkpt><trkpt lat="41.65829992536329" lon="13.098960341003131"><ele>754.25</ele><time>2026-04-12T17:31:17Z</time></trkpt><trkpt lat="41.65837725256874" lon="13.098794852366346"><ele>751.5</ele><time>2026-04-12T17:31:18Z</time></trkpt><trkpt lat="41.65848001988342" lon="13.098657712143257"><ele>748.75</ele><time>2026-04-12T17:31:19Z</time></trkpt><trkpt lat="41.65859264974293" lon="13.098521260669845"><ele>746.0</ele><time>2026-04-12T17:31:20Z</time></trkpt><trkpt lat="41.65869688766684" lon="13.098399776268586"><ele>745.25</ele><time>2026-04-12T17:31:21Z</time></trkpt><trkpt lat="41.65880282713713" lon="13.098286505577548"><ele>744.5</ele><time>2026-04-12T17:31:22Z</time></trkpt><trkpt lat="41.65890435608213" lon="13.098177675290518"><ele>743.75</ele><time>2026-04-12T17:31:23Z</time></trkpt><trkpt lat="41.659036803405584" lon="13.098163105197683"><ele>743.0</ele><time>2026-04-12T17:31:24Z</time></trkpt><trkpt lat="41.65916526194793" lon="13.098170370565828"><ele>739.5999999999999</ele><time>2026-04-12T17:31:25Z</time></trkpt><trkpt lat="41.659288336651606" lon="13.098184917338491"><ele>736.1999999999999</ele><time>2026-04-12T17:31:26Z</time></trkpt><trkpt lat="41.65939503025543" lon="13.09818045606092"><ele>732.8</ele><time>2026-04-12T17:31:27Z</time></trkpt><trkpt lat="41.65948803878938" lon="13.098202101506795"><ele>729.4</ele><time>2026-04-12T17:31:28Z</time></trkpt><trkpt lat="41.659561711302615" lon="13.09821430302537"><ele>726.0</ele><time>2026-04-12T17:31:29Z</time></trkpt><trkpt lat="41.659627811491376" lon="13.09822049022728"><ele>726.0</ele><time>2026-04-12T17:31:30Z</time></trkpt><trkpt lat="41.65968593187896" lon="13.09814929412322"><ele>726.0</ele><time>2026-04-12T17:31:31Z</time></trkpt><trkpt lat="41.659682859308205" lon="13.098039750405569"><ele>726.0</ele><time>2026-04-12T17:31:32Z</time></trkpt><trkpt lat="41.659639867300946" lon="13.097941676378234"><ele>726.0</ele><time>2026-04-12T17:31:33Z</time></trkpt><trkpt lat="41.65955512456247" lon="13.09787237669429"><ele>726.0</ele><time>2026-04-12T17:31:34Z</time></trkpt><trkpt lat="41.65944426988971" lon="13.097844871470548"><ele>726.0</ele><time>2026-04-12T17:31:35Z</time></trkpt><trkpt lat="41.65932869563682" lon="13.097845022901124"><ele>726.0</ele><time>2026-04-12T17:31:36Z</time></trkpt><trkpt lat="41.6592256847126" lon="13.097825139023342"><ele>726.0</ele><time>2026-04-12T17:31:37Z</time></trkpt><trkpt lat="41.659134504146515" lon="13.09782205983953"><ele>726.0</ele><time>2026-04-12T17:31:37.999Z</time></trkpt><trkpt lat="41.659051817804944" lon="13.097819267508983"><ele>726.0</ele><time>2026-04-12T17:31:38.999Z</time></trkpt><trkpt lat="41.65898472941746" lon="13.097808091842095"><ele>726.0</ele><time>2026-04-12T17:31:39.999Z</time></trkpt><trkpt lat="41.65893030011333" lon="13.09770862011896"><ele>726.0</ele><time>2026-04-12T17:31:41.999Z</time></trkpt><trkpt lat="41.65896155265903" lon="13.097629190115512"><ele>726.0</ele><time>2026-04-12T17:31:42.999Z</time></trkpt><trkpt lat="41.659041247117" lon="13.09761195358538"><ele>726.0</ele><time>2026-04-12T17:31:43.999Z</time></trkpt><trkpt lat="41.65912965327654" lon="13.097621522162148"><ele>726.0</ele><time>2026-04-12T17:31:44.999Z</time></trkpt><trkpt lat="41.65923558960592" lon="13.097593995530161"><ele>726.0</ele><time>2026-04-12T17:31:45.999Z</time></trkpt><trkpt lat="41.6593602062602" lon="13.097575803826885"><ele>723.5</ele><time>2026-04-12T17:31:46.999Z</time></trkpt><trkpt lat="41.65948997921475" lon="13.097531486433668"><ele>721.0</ele><time>2026-04-12T17:31:47.999Z</time></trkpt><trkpt lat="41.65960154878178" lon="13.097461901352363"><ele>718.5</ele><time>2026-04-12T17:31:48.999Z</time></trkpt><trkpt lat="41.65970979305995" lon="13.097394558440135"><ele>716.0</ele><time>2026-04-12T17:31:49.999Z</time></trkpt><trkpt lat="41.659817480806375" lon="13.097352954755703"><ele>716.0</ele><time>2026-04-12T17:31:50.999Z</time></trkpt><trkpt lat="41.65992504790146" lon="13.09735251595144"><ele>716.0</ele><time>2026-04-12T17:31:51.999Z</time></trkpt><trkpt lat="41.660030449576745" lon="13.09740419504462"><ele>716.0</ele><time>2026-04-12T17:31:52.999Z</time></trkpt><trkpt lat="41.6601263005886" lon="13.097497550714841"><ele>716.0</ele><time>2026-04-12T17:31:53.999Z</time></trkpt><trkpt lat="41.66021555133736" lon="13.097586675866332"><ele>713.25</ele><time>2026-04-12T17:31:54.999Z</time></trkpt><trkpt lat="41.6603105355958" lon="13.097649893731235"><ele>710.5</ele><time>2026-04-12T17:31:55.999Z</time></trkpt><trkpt lat="41.660420791980066" lon="13.097683898578206"><ele>707.75</ele><time>2026-04-12T17:31:56.999Z</time></trkpt><trkpt lat="41.660542863017334" lon="13.097676453340199"><ele>705.0</ele><time>2026-04-12T17:31:57.999Z</time></trkpt><trkpt lat="41.660654823740266" lon="13.097646211319615"><ele>705.0</ele><time>2026-04-12T17:31:58.999Z</time></trkpt><trkpt lat="41.6607481169656" lon="13.09761880736225"><ele>705.0</ele><time>2026-04-12T17:31:59.999Z</time></trkpt><trkpt lat="41.66082503111842" lon="13.097593715289948"><ele>705.0</ele><time>2026-04-12T17:32:00.999Z</time></trkpt><trkpt lat="41.660879505102045" lon="13.097542633978794"><ele>705.0</ele><time>2026-04-12T17:32:01.999Z</time></trkpt><trkpt lat="41.660936268472064" lon="13.097474908088751"><ele>705.0</ele><time>2026-04-12T17:32:02.999Z</time></trkpt><trkpt lat="41.66092573722964" lon="13.09734089396023"><ele>705.0</ele><time>2026-04-12T17:32:03.999Z</time></trkpt><trkpt lat="41.6608341742912" lon="13.097244485932563"><ele>703.0</ele><time>2026-04-12T17:32:04.999Z</time></trkpt><trkpt lat="41.660735492866834" lon="13.09717878603763"><ele>701.0</ele><time>2026-04-12T17:32:05.999Z</time></trkpt><trkpt lat="41.660624678562606" lon="13.0971118153313"><ele>699.0</ele><time>2026-04-12T17:32:06.999Z</time></trkpt><trkpt lat="41.660510731243704" lon="13.097023624387361"><ele>697.0</ele><time>2026-04-12T17:32:07.999Z</time></trkpt><trkpt lat="41.6604113422542" lon="13.096937501570105"><ele>697.0</ele><time>2026-04-12T17:32:08.999Z</time></trkpt><trkpt lat="41.66031677291023" lon="13.096857586805841"><ele>697.0</ele><time>2026-04-12T17:32:09.999Z</time></trkpt><trkpt lat="41.66023875340548" lon="13.096763899593364"><ele>697.0</ele><time>2026-04-12T17:32:10.999Z</time></trkpt><trkpt lat="41.660167488278375" lon="13.096708265450083"><ele>697.0</ele><time>2026-04-12T17:32:11.999Z</time></trkpt><trkpt lat="41.66011178529065" lon="13.096663677890115"><ele>697.0</ele><time>2026-04-12T17:32:12.999Z</time></trkpt><trkpt lat="41.66005051512814" lon="13.096563217918971"><ele>693.0</ele><time>2026-04-12T17:32:14.999Z</time></trkpt><trkpt lat="41.66016224381934" lon="13.096483589865768"><ele>689.0</ele><time>2026-04-12T17:32:16.998Z</time></trkpt><trkpt lat="41.660231263926875" lon="13.096549412497179"><ele>685.0</ele><time>2026-04-12T17:32:17.998Z</time></trkpt><trkpt lat="41.66033707400523" lon="13.096584438217294"><ele>681.0</ele><time>2026-04-12T17:32:18.998Z</time></trkpt><trkpt lat="41.66046423385615" lon="13.096586122181721"><ele>677.0</ele><time>2026-04-12T17:32:19.998Z</time></trkpt><trkpt lat="41.660597690046444" lon="13.096559499370766"><ele>676.3333333333333</ele><time>2026-04-12T17:32:20.998Z</time></trkpt><trkpt lat="41.66073634643972" lon="13.096508673871945"><ele>675.6666666666666</ele><time>2026-04-12T17:32:21.998Z</time></trkpt><trkpt lat="41.66089507999993" lon="13.096492091653383"><ele>675.0</ele><time>2026-04-12T17:32:22.998Z</time></trkpt><trkpt lat="41.6610437711962" lon="13.096441395048345"><ele>674.5</ele><time>2026-04-12T17:32:23.998Z</time></trkpt><trkpt lat="41.661186601769295" lon="13.096422361641919"><ele>674.0</ele><time>2026-04-12T17:32:24.998Z</time></trkpt><trkpt lat="41.66132057406217" lon="13.096401003282615"><ele>673.5</ele><time>2026-04-12T17:32:25.998Z</time></trkpt><trkpt lat="41.661451252392794" lon="13.096381937821686"><ele>673.0</ele><time>2026-04-12T17:32:26.998Z</time></trkpt><trkpt lat="41.66157521703009" lon="13.09636343258892"><ele>673.0</ele><time>2026-04-12T17:32:27.998Z</time></trkpt><trkpt lat="41.661691635702994" lon="13.096350106902849"><ele>673.0</ele><time>2026-04-12T17:32:28.998Z</time></trkpt><trkpt lat="41.66179408006714" lon="13.096349746185378"><ele>673.0</ele><time>2026-04-12T17:32:29.998Z</time></trkpt><trkpt lat="41.66188134059329" lon="13.096364077760642"><ele>673.0</ele><time>2026-04-12T17:32:30.998Z</time></trkpt><trkpt lat="41.66195797536965" lon="13.096389538337178"><ele>673.0</ele><time>2026-04-12T17:32:31.998Z</time></trkpt><trkpt lat="41.66206417723931" lon="13.096332805717536"><ele>673.0</ele><time>2026-04-12T17:32:33.998Z</time></trkpt><trkpt lat="41.662064856071716" lon="13.096137386805523"><ele>673.0</ele><time>2026-04-12T17:32:35.998Z</time></trkpt><trkpt lat="41.661945140479204" lon="13.096090909889831"><ele>673.0</ele><time>2026-04-12T17:32:36.998Z</time></trkpt><trkpt lat="41.66180960884841" lon="13.096069750305704"><ele>673.0</ele><time>2026-04-12T17:32:37.998Z</time></trkpt><trkpt lat="41.66170743370208" lon="13.09599136840269"><ele>673.0</ele><time>2026-04-12T17:32:38.998Z</time></trkpt><trkpt lat="41.6616217206417" lon="13.095850360186573"><ele>673.0</ele><time>2026-04-12T17:32:39.998Z</time></trkpt><trkpt lat="41.661502665279045" lon="13.095725380303556"><ele>673.0</ele><time>2026-04-12T17:32:40.998Z</time></trkpt><trkpt lat="41.6613868606792" lon="13.095633479116168"><ele>673.0</ele><time>2026-04-12T17:32:41.998Z</time></trkpt><trkpt lat="41.6612604899555" lon="13.095563279713039"><ele>668.0</ele><time>2026-04-12T17:32:42.998Z</time></trkpt><trkpt lat="41.66113296436897" lon="13.095506939781869"><ele>663.0</ele><time>2026-04-12T17:32:43.998Z</time></trkpt><trkpt lat="41.66100691822825" lon="13.095466758257555"><ele>658.0</ele><time>2026-04-12T17:32:44.998Z</time></trkpt><trkpt lat="41.66088195643238" lon="13.095471076145751"><ele>653.0</ele><time>2026-04-12T17:32:45.998Z</time></trkpt><trkpt lat="41.66076386522419" lon="13.095504671105093"><ele>652.8</ele><time>2026-04-12T17:32:46.998Z</time></trkpt><trkpt lat="41.660665575980914" lon="13.09557072543802"><ele>652.5999999999999</ele><time>2026-04-12T17:32:47.998Z</time></trkpt><trkpt lat="41.66058664863871" lon="13.09563562971615"><ele>652.4000000000001</ele><time>2026-04-12T17:32:48.998Z</time></trkpt><trkpt lat="41.66053227651826" lon="13.095725707443785"><ele>652.2</ele><time>2026-04-12T17:32:49.998Z</time></trkpt><trkpt lat="41.66048514958937" lon="13.095788859258164"><ele>652.0</ele><time>2026-04-12T17:32:50.998Z</time></trkpt><trkpt lat="41.660390780411156" lon="13.095790898293219"><ele>652.0</ele><time>2026-04-12T17:32:52.997Z</time></trkpt><trkpt lat="41.660401662437565" lon="13.095625582192659"><ele>652.0</ele><time>2026-04-12T17:32:54.997Z</time></trkpt><trkpt lat="41.66047878734967" lon="13.095555910883872"><ele>652.0</ele><time>2026-04-12T17:32:55.997Z</time></trkpt><trkpt lat="41.66057599824131" lon="13.095457657901717"><ele>652.0</ele><time>2026-04-12T17:32:56.997Z</time></trkpt><trkpt lat="41.660680253686046" lon="13.095338325450319"><ele>652.0</ele><time>2026-04-12T17:32:57.997Z</time></trkpt><trkpt lat="41.66080091393212" lon="13.095227348672898"><ele>652.0</ele><time>2026-04-12T17:32:58.997Z</time></trkpt><trkpt lat="41.66094217329536" lon="13.095149885055232"><ele>652.0</ele><time>2026-04-12T17:32:59.997Z</time></trkpt><trkpt lat="41.66108418226342" lon="13.09508087222702"><ele>652.3333333333334</ele><time>2026-04-12T17:33:00.997Z</time></trkpt><trkpt lat="41.66122065276645" lon="13.09502427569616"><ele>652.6666666666666</ele><time>2026-04-12T17:33:01.997Z</time></trkpt><trkpt lat="41.6613635953793" lon="13.094941190416876"><ele>653.0</ele><time>2026-04-12T17:33:02.997Z</time></trkpt><trkpt lat="41.66153620926454" lon="13.09486704114117"><ele>644.3333333333333</ele><time>2026-04-12T17:33:03.997Z</time></trkpt><trkpt lat="41.66169679553584" lon="13.094797599860254"><ele>635.6666666666666</ele><time>2026-04-12T17:33:04.997Z</time></trkpt><trkpt lat="41.66185187124781" lon="13.094730523409648"><ele>627.0</ele><time>2026-04-12T17:33:05.997Z</time></trkpt><trkpt lat="41.662006616184094" lon="13.094696340905926"><ele>627.0</ele><time>2026-04-12T17:33:06.997Z</time></trkpt><trkpt lat="41.66214418198788" lon="13.094649824395486"><ele>627.0</ele><time>2026-04-12T17:33:07.997Z</time></trkpt><trkpt lat="41.66228169841912" lon="13.094708235049728"><ele>627.0</ele><time>2026-04-12T17:33:08.997Z</time></trkpt><trkpt lat="41.6624328132629" lon="13.094774481541325"><ele>627.0</ele><time>2026-04-12T17:33:09.997Z</time></trkpt><trkpt lat="41.66260450880216" lon="13.094807902897195"><ele>627.0</ele><time>2026-04-12T17:33:10.997Z</time></trkpt><trkpt lat="41.662777733192286" lon="13.094768673892949"><ele>627.0</ele><time>2026-04-12T17:33:11.997Z</time></trkpt><trkpt lat="41.662933470579546" lon="13.094745217346833"><ele>627.0</ele><time>2026-04-12T17:33:12.997Z</time></trkpt><trkpt lat="41.663064546259726" lon="13.094708286169139"><ele>625.8000000000001</ele><time>2026-04-12T17:33:13.997Z</time></trkpt><trkpt lat="41.66317334830007" lon="13.094709370379586"><ele>624.6</ele><time>2026-04-12T17:33:15Z</time></trkpt><trkpt lat="41.66326799333236" lon="13.094727555944226"><ele>623.4000000000001</ele><time>2026-04-12T17:33:16Z</time></trkpt><trkpt lat="41.66335538424582" lon="13.094776835372933"><ele>622.2</ele><time>2026-04-12T17:33:17Z</time></trkpt><trkpt lat="41.66342097412468" lon="13.09484009125345"><ele>621.0</ele><time>2026-04-12T17:33:18Z</time></trkpt><trkpt lat="41.663526672992056" lon="13.094851647513744"><ele>621.0</ele><time>2026-04-12T17:33:20Z</time></trkpt><trkpt lat="41.66351910572049" lon="13.094608952796094"><ele>621.0</ele><time>2026-04-12T17:33:22Z</time></trkpt><trkpt lat="41.66344533442095" lon="13.094499421069301"><ele>621.0</ele><time>2026-04-12T17:33:23Z</time></trkpt><trkpt lat="41.66332473477138" lon="13.094401453848691"><ele>621.0</ele><time>2026-04-12T17:33:24Z</time></trkpt><trkpt lat="41.66319976535972" lon="13.094306388106222"><ele>621.0</ele><time>2026-04-12T17:33:25Z</time></trkpt><trkpt lat="41.663086854430276" lon="13.094166244328395"><ele>621.0</ele><time>2026-04-12T17:33:26Z</time></trkpt><trkpt lat="41.662950118509634" lon="13.094027782947911"><ele>621.0</ele><time>2026-04-12T17:33:27Z</time></trkpt><trkpt lat="41.662821952264686" lon="13.093872855839027"><ele>616.6666666666666</ele><time>2026-04-12T17:33:28Z</time></trkpt><trkpt lat="41.66269388124049" lon="13.09374428582963"><ele>612.3333333333333</ele><time>2026-04-12T17:33:29Z</time></trkpt><trkpt lat="41.66255721889815" lon="13.093647835660052"><ele>608.0</ele><time>2026-04-12T17:33:30Z</time></trkpt><trkpt lat="41.66240064112232" lon="13.093592502303594"><ele>608.0</ele><time>2026-04-12T17:33:31Z</time></trkpt><trkpt lat="41.66222692065221" lon="13.093578793967936"><ele>608.0</ele><time>2026-04-12T17:33:32Z</time></trkpt><trkpt lat="41.662047024392" lon="13.093599738369088"><ele>608.0</ele><time>2026-04-12T17:33:33Z</time></trkpt><trkpt lat="41.661881920452274" lon="13.09364347270367"><ele>604.3333333333333</ele><time>2026-04-12T17:33:34Z</time></trkpt><trkpt lat="41.661719614977436" lon="13.093717922982028"><ele>600.6666666666666</ele><time>2026-04-12T17:33:35Z</time></trkpt><trkpt lat="41.66155758228907" lon="13.093815990824039"><ele>597.0</ele><time>2026-04-12T17:33:36Z</time></trkpt><trkpt lat="41.66139846611749" lon="13.093875305613956"><ele>597.0</ele><time>2026-04-12T17:33:37Z</time></trkpt><trkpt lat="41.661253857932316" lon="13.093939146699395"><ele>597.0</ele><time>2026-04-12T17:33:38Z</time></trkpt><trkpt lat="41.661123209830514" lon="13.093980452800153"><ele>597.0</ele><time>2026-04-12T17:33:39Z</time></trkpt><trkpt lat="41.6610092065637" lon="13.0940059480613"><ele>597.0</ele><time>2026-04-12T17:33:40Z</time></trkpt><trkpt lat="41.66091249808434" lon="13.094046286604254"><ele>601.5</ele><time>2026-04-12T17:33:41Z</time></trkpt><trkpt lat="41.6608356251977" lon="13.094028490342366"><ele>606.0</ele><time>2026-04-12T17:33:42Z</time></trkpt><trkpt lat="41.66074501635461" lon="13.09398455040954"><ele>610.5</ele><time>2026-04-12T17:33:43.999Z</time></trkpt><trkpt lat="41.66072193517499" lon="13.093855322510656"><ele>615.0</ele><time>2026-04-12T17:33:45.999Z</time></trkpt><trkpt lat="41.66076740412374" lon="13.093785096995083"><ele>619.5</ele><time>2026-04-12T17:33:46.999Z</time></trkpt><trkpt lat="41.66086235471689" lon="13.093763847867656"><ele>624.0</ele><time>2026-04-12T17:33:47.999Z</time></trkpt><trkpt lat="41.66095599299387" lon="13.093756219826064"><ele>624.0</ele><time>2026-04-12T17:33:48.999Z</time></trkpt><trkpt lat="41.661082131247326" lon="13.093755423400584"><ele>624.0</ele><time>2026-04-12T17:33:49.999Z</time></trkpt><trkpt lat="41.66121972573944" lon="13.093715502799101"><ele>624.0</ele><time>2026-04-12T17:33:50.999Z</time></trkpt><trkpt lat="41.66136567278942" lon="13.093646217919641"><ele>624.0</ele><time>2026-04-12T17:33:51.999Z</time></trkpt><trkpt lat="41.66150557868057" lon="13.093511436410653"><ele>615.0</ele><time>2026-04-12T17:33:52.999Z</time></trkpt><trkpt lat="41.66163769432133" lon="13.093330768270551"><ele>606.0</ele><time>2026-04-12T17:33:53.999Z</time></trkpt><trkpt lat="41.66176790727544" lon="13.093136160064123"><ele>597.0</ele><time>2026-04-12T17:33:54.999Z</time></trkpt><trkpt lat="41.66192355608649" lon="13.092997895882"><ele>589.6666666666666</ele><time>2026-04-12T17:33:55.999Z</time></trkpt><trkpt lat="41.6620746021434" lon="13.092884044609388"><ele>582.3333333333333</ele><time>2026-04-12T17:33:56.999Z</time></trkpt><trkpt lat="41.662247291435605" lon="13.092803537337003"><ele>575.0</ele><time>2026-04-12T17:33:57.999Z</time></trkpt><trkpt lat="41.662445600467606" lon="13.092748086767724"><ele>575.0</ele><time>2026-04-12T17:33:58.999Z</time></trkpt><trkpt lat="41.66263695000046" lon="13.092698451442812"><ele>575.0</ele><time>2026-04-12T17:33:59.999Z</time></trkpt><trkpt lat="41.66280677839362" lon="13.09260719649624"><ele>575.0</ele><time>2026-04-12T17:34:00.999Z</time></trkpt><trkpt lat="41.662970158909296" lon="13.092535300044304"><ele>576.6666666666666</ele><time>2026-04-12T17:34:01.999Z</time></trkpt><trkpt lat="41.66312801240225" lon="13.092479712370793"><ele>578.3333333333334</ele><time>2026-04-12T17:34:02.999Z</time></trkpt><trkpt lat="41.66328158355423" lon="13.092409876053809"><ele>580.0</ele><time>2026-04-12T17:34:03.999Z</time></trkpt><trkpt lat="41.663427396303184" lon="13.092342846616535"><ele>570.5</ele><time>2026-04-12T17:34:04.999Z</time></trkpt><trkpt lat="41.66357115328305" lon="13.092272020535983"><ele>561.0</ele><time>2026-04-12T17:34:05.999Z</time></trkpt><trkpt lat="41.66370199244278" lon="13.092207403814072"><ele>551.5</ele><time>2026-04-12T17:34:06.999Z</time></trkpt><trkpt lat="41.66381324605692" lon="13.092160860210186"><ele>542.0</ele><time>2026-04-12T17:34:07.999Z</time></trkpt><trkpt lat="41.66390900205147" lon="13.092132637620951"><ele>542.0</ele><time>2026-04-12T17:34:08.999Z</time></trkpt><trkpt lat="41.66401373185378" lon="13.092171344601798"><ele>542.0</ele><time>2026-04-12T17:34:09.999Z</time></trkpt><trkpt lat="41.6640969196127" lon="13.092268575639721"><ele>542.0</ele><time>2026-04-12T17:34:10.999Z</time></trkpt><trkpt lat="41.66409548822113" lon="13.092432074379976"><ele>542.0</ele><time>2026-04-12T17:34:11.999Z</time></trkpt><trkpt lat="41.664141739443956" lon="13.092584710147582"><ele>543.25</ele><time>2026-04-12T17:34:12.999Z</time></trkpt><trkpt lat="41.664220870112366" lon="13.092705031238673"><ele>544.5</ele><time>2026-04-12T17:34:13.999Z</time></trkpt><trkpt lat="41.664335642922445" lon="13.09277752821782"><ele>545.75</ele><time>2026-04-12T17:34:14.999Z</time></trkpt><trkpt lat="41.66448680152502" lon="13.092807450992316"><ele>547.0</ele><time>2026-04-12T17:34:15.999Z</time></trkpt><trkpt lat="41.66464249789307" lon="13.092808456020816"><ele>547.0</ele><time>2026-04-12T17:34:16.999Z</time></trkpt><trkpt lat="41.66478009559304" lon="13.092809830770747"><ele>547.0</ele><time>2026-04-12T17:34:17.999Z</time></trkpt><trkpt lat="41.66490569553789" lon="13.09282437301896"><ele>547.0</ele><time>2026-04-12T17:34:18.999Z</time></trkpt><trkpt lat="41.66500683107458" lon="13.092842251540494"><ele>547.0</ele><time>2026-04-12T17:34:19.999Z</time></trkpt><trkpt lat="41.66510082581605" lon="13.092858716173561"><ele>547.0</ele><time>2026-04-12T17:34:20.999Z</time></trkpt><trkpt lat="41.66517073525188" lon="13.092915668098406"><ele>547.0</ele><time>2026-04-12T17:34:21.998Z</time></trkpt><trkpt lat="41.66521752612269" lon="13.093017478255405"><ele>547.0</ele><time>2026-04-12T17:34:22.998Z</time></trkpt><trkpt lat="41.66521924924267" lon="13.093155882268107"><ele>547.0</ele><time>2026-04-12T17:34:23.998Z</time></trkpt><trkpt lat="41.66515500780704" lon="13.093309820705304"><ele>547.0</ele><time>2026-04-12T17:34:24.998Z</time></trkpt><trkpt lat="41.66511776550765" lon="13.09350806168113"><ele>547.3333333333334</ele><time>2026-04-12T17:34:25.998Z</time></trkpt><trkpt lat="41.66506151201341" lon="13.093722931706221"><ele>547.6666666666666</ele><time>2026-04-12T17:34:26.998Z</time></trkpt><trkpt lat="41.66500198101635" lon="13.093960390599896"><ele>548.0</ele><time>2026-04-12T17:34:27.998Z</time></trkpt><trkpt lat="41.664908330420815" lon="13.094196637149468"><ele>548.0</ele><time>2026-04-12T17:34:28.998Z</time></trkpt><trkpt lat="41.66483105459912" lon="13.094449047093239"><ele>548.0</ele><time>2026-04-12T17:34:29.998Z</time></trkpt><trkpt lat="41.66474007810299" lon="13.094692142645616"><ele>548.0</ele><time>2026-04-12T17:34:30.998Z</time></trkpt><trkpt lat="41.66466898215466" lon="13.094921876345255"><ele>541.3333333333333</ele><time>2026-04-12T17:34:31.998Z</time></trkpt><trkpt lat="41.664607313698944" lon="13.095148119478907"><ele>534.6666666666666</ele><time>2026-04-12T17:34:32.998Z</time></trkpt><trkpt lat="41.66454536626902" lon="13.095369290394506"><ele>528.0</ele><time>2026-04-12T17:34:33.998Z</time></trkpt><trkpt lat="41.664483399016525" lon="13.0955987144867"><ele>541.6666666666666</ele><time>2026-04-12T17:34:34.998Z</time></trkpt><trkpt lat="41.664425377455025" lon="13.095809048582824"><ele>555.3333333333333</ele><time>2026-04-12T17:34:35.998Z</time></trkpt><trkpt lat="41.664369381001755" lon="13.096010083064947"><ele>569.0</ele><time>2026-04-12T17:34:36.998Z</time></trkpt><trkpt lat="41.664301369763194" lon="13.096180907822779"><ele>569.0</ele><time>2026-04-12T17:34:37.998Z</time></trkpt><trkpt lat="41.6642658506323" lon="13.09632623662901"><ele>569.0</ele><time>2026-04-12T17:34:38.998Z</time></trkpt><trkpt lat="41.6642072837662" lon="13.096443129119384"><ele>569.0</ele><time>2026-04-12T17:34:39.998Z</time></trkpt><trkpt lat="41.664116682989686" lon="13.096503718943751"><ele>569.0</ele><time>2026-04-12T17:34:40.998Z</time></trkpt><trkpt lat="41.664054041051514" lon="13.096589464310535"><ele>569.0</ele><time>2026-04-12T17:34:41.998Z</time></trkpt><trkpt lat="41.66400256059218" lon="13.096643184181028"><ele>569.0</ele><time>2026-04-12T17:34:42.998Z</time></trkpt><trkpt lat="41.664027332230376" lon="13.09678210082621"><ele>569.0</ele><time>2026-04-12T17:34:44.998Z</time></trkpt><trkpt lat="41.66408735610151" lon="13.096837999610369"><ele>569.0</ele><time>2026-04-12T17:34:45.998Z</time></trkpt><trkpt lat="41.66418816617687" lon="13.096774775497165"><ele>569.0</ele><time>2026-04-12T17:34:46.998Z</time></trkpt><trkpt lat="41.66425747806275" lon="13.096675644848919"><ele>569.0</ele><time>2026-04-12T17:34:47.998Z</time></trkpt><trkpt lat="41.66431614900838" lon="13.096520832433292"><ele>569.0</ele><time>2026-04-12T17:34:48.998Z</time></trkpt><trkpt lat="41.664374500461825" lon="13.096344193741986"><ele>569.0</ele><time>2026-04-12T17:34:49.998Z</time></trkpt><trkpt lat="41.66444678418056" lon="13.096152758895567"><ele>569.0</ele><time>2026-04-12T17:34:50.998Z</time></trkpt><trkpt lat="41.66454684147291" lon="13.095932075221642"><ele>555.3333333333333</ele><time>2026-04-12T17:34:51.998Z</time></trkpt><trkpt lat="41.66464722387453" lon="13.095699487625268"><ele>541.6666666666666</ele><time>2026-04-12T17:34:52.998Z</time></trkpt><trkpt lat="41.66474882135518" lon="13.095485409798451"><ele>528.0</ele><time>2026-04-12T17:34:53.998Z</time></trkpt><trkpt lat="41.6648506749123" lon="13.095240452680036"><ele>528.0</ele><time>2026-04-12T17:34:54.998Z</time></trkpt><trkpt lat="41.664965347843705" lon="13.09501338858895"><ele>528.0</ele><time>2026-04-12T17:34:55.998Z</time></trkpt><trkpt lat="41.66509004058779" lon="13.094792093572794"><ele>528.0</ele><time>2026-04-12T17:34:56.998Z</time></trkpt><trkpt lat="41.665211315604964" lon="13.094549368942976"><ele>521.0</ele><time>2026-04-12T17:34:57.998Z</time></trkpt><trkpt lat="41.66533468669018" lon="13.094273510603285"><ele>514.0</ele><time>2026-04-12T17:34:58.998Z</time></trkpt><trkpt lat="41.665461795697176" lon="13.094012676017401"><ele>514.0</ele><time>2026-04-12T17:34:59.997Z</time></trkpt><trkpt lat="41.665568152839285" lon="13.093767363010702"><ele>514.0</ele><time>2026-04-12T17:35:00.997Z</time></trkpt><trkpt lat="41.66568864001155" lon="13.093538769188136"><ele>514.0</ele><time>2026-04-12T17:35:01.997Z</time></trkpt><trkpt lat="41.66578288502974" lon="13.093288143191614"><ele>517.6666666666667</ele><time>2026-04-12T17:35:02.997Z</time></trkpt><trkpt lat="41.665912684636915" lon="13.093086075515675"><ele>521.3333333333334</ele><time>2026-04-12T17:35:03.997Z</time></trkpt><trkpt lat="41.6660371475266" lon="13.092897476630394"><ele>525.0</ele><time>2026-04-12T17:35:04.997Z</time></trkpt><trkpt lat="41.66614448142815" lon="13.092715354849453"><ele>515.75</ele><time>2026-04-12T17:35:05.997Z</time></trkpt><trkpt lat="41.66625445611216" lon="13.092561236282354"><ele>506.5</ele><time>2026-04-12T17:35:06.997Z</time></trkpt><trkpt lat="41.66634238044943" lon="13.092409318648526"><ele>497.25</ele><time>2026-04-12T17:35:07.997Z</time></trkpt><trkpt lat="41.66639526829947" lon="13.092242847039861"><ele>488.0</ele><time>2026-04-12T17:35:08.997Z</time></trkpt><trkpt lat="41.66641082131685" lon="13.092059513477349"><ele>488.0</ele><time>2026-04-12T17:35:09.997Z</time></trkpt><trkpt lat="41.666395444789096" lon="13.091893368929815"><ele>487.99999999999994</ele><time>2026-04-12T17:35:10.997Z</time></trkpt><trkpt lat="41.66637698232205" lon="13.091752818206482"><ele>487.99999999999994</ele><time>2026-04-12T17:35:11.997Z</time></trkpt><trkpt lat="41.666324570096585" lon="13.091633403205277"><ele>488.0</ele><time>2026-04-12T17:35:12.997Z</time></trkpt><trkpt lat="41.666233103977405" lon="13.091541724290037"><ele>488.0</ele><time>2026-04-12T17:35:13.997Z</time></trkpt><trkpt lat="41.66610553368403" lon="13.091487521255605"><ele>485.25</ele><time>2026-04-12T17:35:14.997Z</time></trkpt><trkpt lat="41.66595543782722" lon="13.091466742714603"><ele>482.5</ele><time>2026-04-12T17:35:15.997Z</time></trkpt><trkpt lat="41.66580813819063" lon="13.091415481842324"><ele>479.75</ele><time>2026-04-12T17:35:16.997Z</time></trkpt><trkpt lat="41.665675569076384" lon="13.091380498735429"><ele>477.0</ele><time>2026-04-12T17:35:17.997Z</time></trkpt><trkpt lat="41.66555479662712" lon="13.091358109014152"><ele>477.0</ele><time>2026-04-12T17:35:18.997Z</time></trkpt><trkpt lat="41.66545624302938" lon="13.091343677608034"><ele>477.0</ele><time>2026-04-12T17:35:20Z</time></trkpt><trkpt lat="41.66539305752229" lon="13.09133316832413"><ele>477.0</ele><time>2026-04-12T17:35:21Z</time></trkpt><trkpt lat="41.665339604597854" lon="13.091257139128372"><ele>477.0</ele><time>2026-04-12T17:35:23Z</time></trkpt><trkpt lat="41.66536266076181" lon="13.091174195622274"><ele>477.0</ele><time>2026-04-12T17:35:24Z</time></trkpt><trkpt lat="41.66548289036794" lon="13.091200868586151"><ele>477.0</ele><time>2026-04-12T17:35:26Z</time></trkpt><trkpt lat="41.66557266845963" lon="13.091248175131344"><ele>477.0</ele><time>2026-04-12T17:35:27Z</time></trkpt><trkpt lat="41.665704132779084" lon="13.091281696158147"><ele>477.0</ele><time>2026-04-12T17:35:28Z</time></trkpt><trkpt lat="41.665857655163464" lon="13.091329073556091"><ele>477.0</ele><time>2026-04-12T17:35:29Z</time></trkpt><trkpt lat="41.666018436231205" lon="13.091367890273263"><ele>473.25</ele><time>2026-04-12T17:35:30Z</time></trkpt><trkpt lat="41.66615915581859" lon="13.091368798775337"><ele>469.5</ele><time>2026-04-12T17:35:31Z</time></trkpt><trkpt lat="41.66627980966255" lon="13.091369051182255"><ele>465.75</ele><time>2026-04-12T17:35:32Z</time></trkpt><trkpt lat="41.666396481829516" lon="13.091378656442368"><ele>462.0</ele><time>2026-04-12T17:35:33Z</time></trkpt><trkpt lat="41.66650602963377" lon="13.091416088444536"><ele>462.0</ele><time>2026-04-12T17:35:34Z</time></trkpt><trkpt lat="41.6666037156154" lon="13.091492477479527"><ele>462.00000000000006</ele><time>2026-04-12T17:35:35Z</time></trkpt><trkpt lat="41.666688510561656" lon="13.091590742767162"><ele>462.00000000000006</ele><time>2026-04-12T17:35:36Z</time></trkpt><trkpt lat="41.66675882351827" lon="13.091683502791714"><ele>462.0</ele><time>2026-04-12T17:35:37Z</time></trkpt><trkpt lat="41.66681925681065" lon="13.091791101879899"><ele>462.0</ele><time>2026-04-12T17:35:38Z</time></trkpt><trkpt lat="41.666797127024985" lon="13.091964015197666"><ele>468.66666666666663</ele><time>2026-04-12T17:35:39Z</time></trkpt><trkpt lat="41.66674758431513" lon="13.09213374168528"><ele>475.3333333333333</ele><time>2026-04-12T17:35:40Z</time></trkpt><trkpt lat="41.66669464779221" lon="13.092331977914798"><ele>482.0</ele><time>2026-04-12T17:35:41Z</time></trkpt><trkpt lat="41.66662923386338" lon="13.092544535846292"><ele>482.0</ele><time>2026-04-12T17:35:42Z</time></trkpt><trkpt lat="41.66652784867434" lon="13.092777887529508"><ele>482.0</ele><time>2026-04-12T17:35:43Z</time></trkpt><trkpt lat="41.6664515524209" lon="13.093017151353022"><ele>482.0</ele><time>2026-04-12T17:35:44Z</time></trkpt><trkpt lat="41.66633995959626" lon="13.093246823507206"><ele>470.5</ele><time>2026-04-12T17:35:45Z</time></trkpt><trkpt lat="41.66623710485915" lon="13.093525968772262"><ele>459.0</ele><time>2026-04-12T17:35:46Z</time></trkpt><trkpt lat="41.666127151883195" lon="13.093819680751693"><ele>472.5</ele><time>2026-04-12T17:35:47Z</time></trkpt><trkpt lat="41.6660353555635" lon="13.094065867806815"><ele>486.0</ele><time>2026-04-12T17:35:48Z</time></trkpt><trkpt lat="41.665930575200065" lon="13.094391314359115"><ele>486.0</ele><time>2026-04-12T17:35:49Z</time></trkpt><trkpt lat="41.665847007001524" lon="13.094655143972634"><ele>486.0</ele><time>2026-04-12T17:35:49.999Z</time></trkpt><trkpt lat="41.665763892756914" lon="13.094918286590234"><ele>486.0</ele><time>2026-04-12T17:35:50.999Z</time></trkpt><trkpt lat="41.66568545393052" lon="13.095179653888874"><ele>479.33333333333337</ele><time>2026-04-12T17:35:51.999Z</time></trkpt><trkpt lat="41.66563595463346" lon="13.09542997634258"><ele>472.6666666666667</ele><time>2026-04-12T17:35:52.999Z</time></trkpt><trkpt lat="41.66558242054467" lon="13.095665568437033"><ele>466.0</ele><time>2026-04-12T17:35:53.999Z</time></trkpt><trkpt lat="41.66551373815994" lon="13.095886950896995"><ele>460.0</ele><time>2026-04-12T17:35:54.999Z</time></trkpt><trkpt lat="41.66545149698033" lon="13.096098717672831"><ele>454.0</ele><time>2026-04-12T17:35:55.999Z</time></trkpt><trkpt lat="41.66538912793397" lon="13.09630028932656"><ele>448.0</ele><time>2026-04-12T17:35:56.999Z</time></trkpt><trkpt lat="41.66533516887607" lon="13.096502329416412"><ele>441.0</ele><time>2026-04-12T17:35:57.999Z</time></trkpt><trkpt lat="41.66529369101167" lon="13.096701320820904"><ele>434.0</ele><time>2026-04-12T17:35:58.999Z</time></trkpt><trkpt lat="41.665239792687366" lon="13.096888353141317"><ele>427.0</ele><time>2026-04-12T17:35:59.999Z</time></trkpt><trkpt lat="41.665173698133216" lon="13.097078970587154"><ele>437.0</ele><time>2026-04-12T17:36:00.999Z</time></trkpt><trkpt lat="41.6651006365854" lon="13.097260619008104"><ele>447.0</ele><time>2026-04-12T17:36:01.999Z</time></trkpt><trkpt lat="41.66502147199304" lon="13.097448328167903"><ele>457.0</ele><time>2026-04-12T17:36:02.999Z</time></trkpt><trkpt lat="41.66494334054516" lon="13.097631171694287"><ele>457.0</ele><time>2026-04-12T17:36:03.999Z</time></trkpt><trkpt lat="41.66486653772674" lon="13.09779836724523"><ele>457.0</ele><time>2026-04-12T17:36:04.999Z</time></trkpt><trkpt lat="41.6647840323097" lon="13.097959857006204"><ele>457.0</ele><time>2026-04-12T17:36:05.999Z</time></trkpt><trkpt lat="41.6646988742494" lon="13.09810088613951"><ele>457.0</ele><time>2026-04-12T17:36:06.999Z</time></trkpt><trkpt lat="41.664624445947524" lon="13.098203691758751"><ele>460.6666666666667</ele><time>2026-04-12T17:36:07.999Z</time></trkpt><trkpt lat="41.66455573086743" lon="13.098273686185186"><ele>464.33333333333337</ele><time>2026-04-12T17:36:08.999Z</time></trkpt><trkpt lat="41.66449414791206" lon="13.098327037294732"><ele>468.0</ele><time>2026-04-12T17:36:09.999Z</time></trkpt><trkpt lat="41.664427660901765" lon="13.098416109028062"><ele>471.66666666666663</ele><time>2026-04-12T17:36:11.999Z</time></trkpt><trkpt lat="41.66444284451745" lon="13.098522371652875"><ele>475.3333333333333</ele><time>2026-04-12T17:36:12.999Z</time></trkpt><trkpt lat="41.66449872781891" lon="13.09859444545171"><ele>479.0</ele><time>2026-04-12T17:36:13.999Z</time></trkpt><trkpt lat="41.664609059962444" lon="13.098544686740725"><ele>473.5</ele><time>2026-04-12T17:36:14.999Z</time></trkpt><trkpt lat="41.66466718426603" lon="13.098431916984486"><ele>468.0</ele><time>2026-04-12T17:36:15.999Z</time></trkpt><trkpt lat="41.66474849256812" lon="13.098314089943901"><ele>462.5</ele><time>2026-04-12T17:36:16.999Z</time></trkpt><trkpt lat="41.66483814468145" lon="13.09814675366572"><ele>457.0</ele><time>2026-04-12T17:36:17.999Z</time></trkpt><trkpt lat="41.66497046519413" lon="13.097989311455596"><ele>457.0</ele><time>2026-04-12T17:36:18.999Z</time></trkpt><trkpt lat="41.66508685846449" lon="13.097805305859024"><ele>457.0</ele><time>2026-04-12T17:36:19.999Z</time></trkpt><trkpt lat="41.66521354269526" lon="13.09759537106665"><ele>457.0</ele><time>2026-04-12T17:36:20.999Z</time></trkpt><trkpt lat="41.665337369996365" lon="13.097381978584222"><ele>447.0</ele><time>2026-04-12T17:36:21.999Z</time></trkpt><trkpt lat="41.66546639778357" lon="13.097155749357537"><ele>437.0</ele><time>2026-04-12T17:36:22.999Z</time></trkpt><trkpt lat="41.665597549822174" lon="13.096925795482127"><ele>427.0</ele><time>2026-04-12T17:36:23.999Z</time></trkpt><trkpt lat="41.66571089646598" lon="13.096665980671983"><ele>434.0</ele><time>2026-04-12T17:36:24.999Z</time></trkpt><trkpt lat="41.66583251962709" lon="13.096408005043989"><ele>441.0</ele><time>2026-04-12T17:36:25.999Z</time></trkpt><trkpt lat="41.665953701943735" lon="13.09617133663135"><ele>448.0</ele><time>2026-04-12T17:36:26.999Z</time></trkpt><trkpt lat="41.66605067651513" lon="13.09591968006974"><ele>436.33333333333337</ele><time>2026-04-12T17:36:27.998Z</time></trkpt><trkpt lat="41.66615501037288" lon="13.095667354298595"><ele>424.66666666666663</ele><time>2026-04-12T17:36:28.998Z</time></trkpt><trkpt lat="41.66626723854994" lon="13.09542179609417"><ele>413.0</ele><time>2026-04-12T17:36:29.998Z</time></trkpt><trkpt lat="41.66637148734909" lon="13.095167266206161"><ele>413.0</ele><time>2026-04-12T17:36:30.998Z</time></trkpt><trkpt lat="41.66650452547802" lon="13.094939753520523"><ele>413.0</ele><time>2026-04-12T17:36:31.998Z</time></trkpt><trkpt lat="41.66663462610226" lon="13.094709213131464"><ele>413.0</ele><time>2026-04-12T17:36:32.998Z</time></trkpt><trkpt lat="41.666769574953236" lon="13.09446774588864"><ele>409.0</ele><time>2026-04-12T17:36:33.998Z</time></trkpt><trkpt lat="41.66689344358425" lon="13.09420681584056"><ele>405.0</ele><time>2026-04-12T17:36:34.998Z</time></trkpt><trkpt lat="41.66703312883307" lon="13.093959778552922"><ele>405.0</ele><time>2026-04-12T17:36:35.998Z</time></trkpt><trkpt lat="41.667172937859306" lon="13.093745604954202"><ele>405.0</ele><time>2026-04-12T17:36:36.998Z</time></trkpt><trkpt lat="41.667296186895875" lon="13.093528904078775"><ele>405.0</ele><time>2026-04-12T17:36:37.998Z</time></trkpt><trkpt lat="41.66741835140021" lon="13.093312365776217"><ele>411.66666666666663</ele><time>2026-04-12T17:36:38.998Z</time></trkpt><trkpt lat="41.667530666486726" lon="13.093073618322107"><ele>418.3333333333333</ele><time>2026-04-12T17:36:39.998Z</time></trkpt><trkpt lat="41.66766506000877" lon="13.092860421108567"><ele>425.0</ele><time>2026-04-12T17:36:40.998Z</time></trkpt><trkpt lat="41.66777900194106" lon="13.09261061132138"><ele>414.0</ele><time>2026-04-12T17:36:41.998Z</time></trkpt><trkpt lat="41.66789717845221" lon="13.092385235544828"><ele>403.0</ele><time>2026-04-12T17:36:42.998Z</time></trkpt><trkpt lat="41.66801353911794" lon="13.092149245784336"><ele>392.0</ele><time>2026-04-12T17:36:43.998Z</time></trkpt><trkpt lat="41.66812968269789" lon="13.091929179473306"><ele>392.0</ele><time>2026-04-12T17:36:44.998Z</time></trkpt><trkpt lat="41.668239863104446" lon="13.091726940594189"><ele>392.0</ele><time>2026-04-12T17:36:45.998Z</time></trkpt><trkpt lat="41.66834979798866" lon="13.091527168877342"><ele>392.0</ele><time>2026-04-12T17:36:46.998Z</time></trkpt><trkpt lat="41.66846535252011" lon="13.091319443973203"><ele>397.3333333333333</ele><time>2026-04-12T17:36:47.998Z</time></trkpt><trkpt lat="41.66857659534406" lon="13.091123512046499"><ele>402.66666666666663</ele><time>2026-04-12T17:36:48.998Z</time></trkpt><trkpt lat="41.66867494726742" lon="13.090933075159304"><ele>408.0</ele><time>2026-04-12T17:36:49.998Z</time></trkpt><trkpt lat="41.66874762120832" lon="13.090764546740036"><ele>395.75</ele><time>2026-04-12T17:36:50.998Z</time></trkpt><trkpt lat="41.66879789213143" lon="13.09059283758701"><ele>383.5</ele><time>2026-04-12T17:36:51.998Z</time></trkpt><trkpt lat="41.668820314890596" lon="13.090409423234792"><ele>371.25</ele><time>2026-04-12T17:36:52.998Z</time></trkpt><trkpt lat="41.66878918541427" lon="13.090215154167355"><ele>359.0</ele><time>2026-04-12T17:36:53.998Z</time></trkpt><trkpt lat="41.668728502854194" lon="13.090021960754123"><ele>359.0</ele><time>2026-04-12T17:36:54.998Z</time></trkpt><trkpt lat="41.66863135188311" lon="13.08983670681833"><ele>359.0</ele><time>2026-04-12T17:36:55.998Z</time></trkpt><trkpt lat="41.668519179823285" lon="13.08968042169173"><ele>359.0</ele><time>2026-04-12T17:36:56.998Z</time></trkpt><trkpt lat="41.668378732929405" lon="13.08955742760911"><ele>359.0</ele><time>2026-04-12T17:36:57.998Z</time></trkpt><trkpt lat="41.66821979154293" lon="13.089466108302469"><ele>359.0</ele><time>2026-04-12T17:36:58.998Z</time></trkpt><trkpt lat="41.66804551295338" lon="13.089411006083045"><ele>359.0</ele><time>2026-04-12T17:36:59.998Z</time></trkpt><trkpt lat="41.66786759203492" lon="13.08936675228246"><ele>362.6666666666667</ele><time>2026-04-12T17:37:00.998Z</time></trkpt><trkpt lat="41.6677038528502" lon="13.089320314341618"><ele>366.3333333333333</ele><time>2026-04-12T17:37:01.998Z</time></trkpt><trkpt lat="41.66753232872505" lon="13.089275543602024"><ele>370.0</ele><time>2026-04-12T17:37:02.998Z</time></trkpt><trkpt lat="41.66736724744671" lon="13.089241398013996"><ele>370.0</ele><time>2026-04-12T17:37:03.998Z</time></trkpt><trkpt lat="41.66721173380573" lon="13.089212145834193"><ele>370.0</ele><time>2026-04-12T17:37:04.998Z</time></trkpt><trkpt lat="41.66706390595977" lon="13.08918025366078"><ele>370.0</ele><time>2026-04-12T17:37:05.997Z</time></trkpt><trkpt lat="41.66693960379162" lon="13.089152813429369"><ele>370.0</ele><time>2026-04-12T17:37:06.997Z</time></trkpt><trkpt lat="41.66683186590226" lon="13.089127823616716"><ele>369.4</ele><time>2026-04-12T17:37:07.997Z</time></trkpt><trkpt lat="41.666742120400016" lon="13.089130007826782"><ele>368.8</ele><time>2026-04-12T17:37:08.997Z</time></trkpt><trkpt lat="41.66667475025792" lon="13.089102091399212"><ele>368.20000000000005</ele><time>2026-04-12T17:37:09.997Z</time></trkpt><trkpt lat="41.666575610913824" lon="13.089063180209843"><ele>367.6</ele><time>2026-04-12T17:37:11.997Z</time></trkpt><trkpt lat="41.666616523691424" lon="13.088904788797207"><ele>367.0</ele><time>2026-04-12T17:37:13.997Z</time></trkpt><trkpt lat="41.66669218168414" lon="13.088882325213133"><ele>367.0</ele><time>2026-04-12T17:37:14.997Z</time></trkpt><trkpt lat="41.666764741690834" lon="13.088966125004067"><ele>367.0</ele><time>2026-04-12T17:37:15.997Z</time></trkpt><trkpt lat="41.66685585872452" lon="13.089025466069916"><ele>367.0</ele><time>2026-04-12T17:37:16.997Z</time></trkpt><trkpt lat="41.66697764691097" lon="13.089072811814026"><ele>367.0</ele><time>2026-04-12T17:37:17.997Z</time></trkpt><trkpt lat="41.66712185492022" lon="13.089099757250402"><ele>368.0</ele><time>2026-04-12T17:37:18.997Z</time></trkpt><trkpt lat="41.66727324251387" lon="13.089103982005106"><ele>369.0</ele><time>2026-04-12T17:37:19.997Z</time></trkpt><trkpt lat="41.667431467420265" lon="13.089104038175956"><ele>370.0</ele><time>2026-04-12T17:37:20.997Z</time></trkpt><trkpt lat="41.66758509130326" lon="13.089094667162607"><ele>362.66666666666663</ele><time>2026-04-12T17:37:21.997Z</time></trkpt><trkpt lat="41.66775638622376" lon="13.089072153070264"><ele>355.3333333333333</ele><time>2026-04-12T17:37:22.997Z</time></trkpt><trkpt lat="41.667941427080486" lon="13.089072087078172"><ele>348.0</ele><time>2026-04-12T17:37:23.997Z</time></trkpt><trkpt lat="41.66813636732782" lon="13.089048240691975"><ele>343.0</ele><time>2026-04-12T17:37:24.997Z</time></trkpt><trkpt lat="41.6683227947031" lon="13.089009010647139"><ele>338.0</ele><time>2026-04-12T17:37:26Z</time></trkpt><trkpt lat="41.66850057287534" lon="13.089023012212365"><ele>333.0</ele><time>2026-04-12T17:37:27Z</time></trkpt><trkpt lat="41.668659781100466" lon="13.089052186169715"><ele>336.25</ele><time>2026-04-12T17:37:28Z</time></trkpt><trkpt lat="41.66881261769768" lon="13.089100550894452"><ele>339.5</ele><time>2026-04-12T17:37:29Z</time></trkpt><trkpt lat="41.66895192661235" lon="13.089156016882502"><ele>342.75</ele><time>2026-04-12T17:37:30Z</time></trkpt><trkpt lat="41.66907774534387" lon="13.089225265414532"><ele>346.0</ele><time>2026-04-12T17:37:31Z</time></trkpt><trkpt lat="41.66919356578789" lon="13.08932467511218"><ele>346.0</ele><time>2026-04-12T17:37:32Z</time></trkpt><trkpt lat="41.669306049307394" lon="13.089453221233747"><ele>346.0</ele><time>2026-04-12T17:37:33Z</time></trkpt><trkpt lat="41.66941744061459" lon="13.089620940153864"><ele>346.0</ele><time>2026-04-12T17:37:34Z</time></trkpt><trkpt lat="41.66952515829823" lon="13.089806302035557"><ele>342.5</ele><time>2026-04-12T17:37:35Z</time></trkpt><trkpt lat="41.66963203426143" lon="13.089955205203303"><ele>339.0</ele><time>2026-04-12T17:37:36Z</time></trkpt><trkpt lat="41.66971327952002" lon="13.090105532517459"><ele>335.5</ele><time>2026-04-12T17:37:37Z</time></trkpt><trkpt lat="41.66978814075952" lon="13.090246796638068"><ele>332.0</ele><time>2026-04-12T17:37:38Z</time></trkpt><trkpt lat="41.669830568908125" lon="13.090390553313291"><ele>332.0</ele><time>2026-04-12T17:37:39Z</time></trkpt><trkpt lat="41.669820182405296" lon="13.090536278278158"><ele>332.0</ele><time>2026-04-12T17:37:40Z</time></trkpt><trkpt lat="41.66976658624489" lon="13.09069123452013"><ele>332.0</ele><time>2026-04-12T17:37:41Z</time></trkpt><trkpt lat="41.66970335208461" lon="13.090903779140572"><ele>332.0</ele><time>2026-04-12T17:37:42Z</time></trkpt><trkpt lat="41.669647967907075" lon="13.091163272459442"><ele>332.33333333333337</ele><time>2026-04-12T17:37:43Z</time></trkpt><trkpt lat="41.6695847875554" lon="13.091425766249833"><ele>332.6666666666667</ele><time>2026-04-12T17:37:44Z</time></trkpt><trkpt lat="41.66953506782772" lon="13.091702364956845"><ele>333.0</ele><time>2026-04-12T17:37:45Z</time></trkpt><trkpt lat="41.669472485888605" lon="13.09197839978115"><ele>334.3333333333333</ele><time>2026-04-12T17:37:46Z</time></trkpt><trkpt lat="41.669447185180395" lon="13.092244021243296"><ele>335.66666666666663</ele><time>2026-04-12T17:37:47Z</time></trkpt><trkpt lat="41.669432038966086" lon="13.092494051181216"><ele>337.0</ele><time>2026-04-12T17:37:48Z</time></trkpt><trkpt lat="41.669361556798016" lon="13.0927416046382"><ele>337.0</ele><time>2026-04-12T17:37:49Z</time></trkpt><trkpt lat="41.66929622394318" lon="13.092992006875999"><ele>337.0</ele><time>2026-04-12T17:37:50Z</time></trkpt><trkpt lat="41.669236964266574" lon="13.093228110898748"><ele>337.0</ele><time>2026-04-12T17:37:51Z</time></trkpt><trkpt lat="41.66919700282945" lon="13.093446607857002"><ele>334.0</ele><time>2026-04-12T17:37:52Z</time></trkpt><trkpt lat="41.669169285560024" lon="13.093651434119765"><ele>331.0</ele><time>2026-04-12T17:37:53Z</time></trkpt><trkpt lat="41.66915325215855" lon="13.093849747105711"><ele>328.0</ele><time>2026-04-12T17:37:54Z</time></trkpt><trkpt lat="41.66916147496761" lon="13.094046676222252"><ele>327.25</ele><time>2026-04-12T17:37:55Z</time></trkpt><trkpt lat="41.66919359696258" lon="13.094227205359903"><ele>326.5</ele><time>2026-04-12T17:37:56Z</time></trkpt><trkpt lat="41.66923177486902" lon="13.09438866098018"><ele>325.75</ele><time>2026-04-12T17:37:57Z</time></trkpt><trkpt lat="41.66927210738579" lon="13.09451647204513"><ele>325.0</ele><time>2026-04-12T17:37:57.999Z</time></trkpt><trkpt lat="41.669329360729215" lon="13.094615256557905"><ele>325.0</ele><time>2026-04-12T17:37:58.999Z</time></trkpt><trkpt lat="41.66942137939519" lon="13.094675928112439"><ele>325.0</ele><time>2026-04-12T17:37:59.999Z</time></trkpt><trkpt lat="41.66953935588845" lon="13.094696242364062"><ele>325.0</ele><time>2026-04-12T17:38:00.999Z</time></trkpt><trkpt lat="41.66968017629104" lon="13.094600572132217"><ele>325.0</ele><time>2026-04-12T17:38:01.999Z</time></trkpt><trkpt lat="41.66982734164882" lon="13.094500974407737"><ele>319.3333333333333</ele><time>2026-04-12T17:38:02.999Z</time></trkpt><trkpt lat="41.66998401467199" lon="13.094402297164894"><ele>313.6666666666667</ele><time>2026-04-12T17:38:03.999Z</time></trkpt><trkpt lat="41.67014681417678" lon="13.094316550968962"><ele>308.0</ele><time>2026-04-12T17:38:04.999Z</time></trkpt><trkpt lat="41.67031684790786" lon="13.094230834197186"><ele>305.6666666666667</ele><time>2026-04-12T17:38:05.999Z</time></trkpt><trkpt lat="41.670491324949765" lon="13.094136460139033"><ele>303.3333333333333</ele><time>2026-04-12T17:38:06.999Z</time></trkpt><trkpt lat="41.6706655481469" lon="13.094044552214632"><ele>301.0</ele><time>2026-04-12T17:38:07.999Z</time></trkpt><trkpt lat="41.67082900854296" lon="13.093956452303335"><ele>300.0</ele><time>2026-04-12T17:38:08.999Z</time></trkpt><trkpt lat="41.67099754713583" lon="13.093839498585814"><ele>299.0</ele><time>2026-04-12T17:38:09.999Z</time></trkpt><trkpt lat="41.67119141073756" lon="13.093732777993438"><ele>298.0</ele><time>2026-04-12T17:38:10.999Z</time></trkpt><trkpt lat="41.671379257299876" lon="13.093586593747379"><ele>297.5</ele><time>2026-04-12T17:38:11.999Z</time></trkpt><trkpt lat="41.67160075991407" lon="13.093451438344895"><ele>297.0</ele><time>2026-04-12T17:38:12.999Z</time></trkpt><trkpt lat="41.67180459752097" lon="13.093312004233773"><ele>294.0</ele><time>2026-04-12T17:38:13.999Z</time></trkpt><trkpt lat="41.6719971596129" lon="13.093211082177016"><ele>291.0</ele><time>2026-04-12T17:38:14.999Z</time></trkpt><trkpt lat="41.672158588365185" lon="13.093081160172632"><ele>288.0</ele><time>2026-04-12T17:38:15.999Z</time></trkpt><trkpt lat="41.67231712921159" lon="13.09297714633217"><ele>288.0</ele><time>2026-04-12T17:38:16.999Z</time></trkpt><trkpt lat="41.67246551633983" lon="13.092878867003066"><ele>288.0</ele><time>2026-04-12T17:38:17.999Z</time></trkpt><trkpt lat="41.67260497424365" lon="13.092792290893525"><ele>288.0</ele><time>2026-04-12T17:38:18.999Z</time></trkpt><trkpt lat="41.672743102370546" lon="13.092742406607151"><ele>288.25</ele><time>2026-04-12T17:38:19.999Z</time></trkpt><trkpt lat="41.672884492524446" lon="13.092776868186847"><ele>288.5</ele><time>2026-04-12T17:38:20.999Z</time></trkpt><trkpt lat="41.673024006482336" lon="13.09281495071056"><ele>288.75</ele><time>2026-04-12T17:38:21.999Z</time></trkpt><trkpt lat="41.67316710716124" lon="13.092833950544321"><ele>289.0</ele><time>2026-04-12T17:38:22.999Z</time></trkpt><trkpt lat="41.6732934524731" lon="13.092880085918344"><ele>289.0</ele><time>2026-04-12T17:38:23.999Z</time></trkpt><trkpt lat="41.67341225833144" lon="13.092916461237133"><ele>289.0</ele><time>2026-04-12T17:38:24.999Z</time></trkpt><trkpt lat="41.673529285151496" lon="13.092944656834813"><ele>289.0</ele><time>2026-04-12T17:38:25.999Z</time></trkpt><trkpt lat="41.67364193843862" lon="13.092983518250197"><ele>289.0</ele><time>2026-04-12T17:38:26.999Z</time></trkpt><trkpt lat="41.673752445036826" lon="13.093016378265494"><ele>287.2</ele><time>2026-04-12T17:38:27.999Z</time></trkpt><trkpt lat="41.673853001744284" lon="13.093039221536587"><ele>285.4</ele><time>2026-04-12T17:38:28.999Z</time></trkpt><trkpt lat="41.67394290940269" lon="13.093011952932509"><ele>283.6</ele><time>2026-04-12T17:38:29.999Z</time></trkpt><trkpt lat="41.6740266332346" lon="13.092930870662038"><ele>281.8</ele><time>2026-04-12T17:38:30.999Z</time></trkpt><trkpt lat="41.674085197966605" lon="13.092770358226401"><ele>280.0</ele><time>2026-04-12T17:38:31.999Z</time></trkpt><trkpt lat="41.67410807143924" lon="13.092556748317259"><ele>278.3333333333333</ele><time>2026-04-12T17:38:32.999Z</time></trkpt><trkpt lat="41.674113179837555" lon="13.092322497010601"><ele>276.6666666666667</ele><time>2026-04-12T17:38:33.999Z</time></trkpt><trkpt lat="41.67413318133294" lon="13.092095967379946"><ele>275.0</ele><time>2026-04-12T17:38:34.999Z</time></trkpt><trkpt lat="41.67415781374285" lon="13.09188878706565"><ele>275.0</ele><time>2026-04-12T17:38:35.999Z</time></trkpt><trkpt lat="41.674206339358065" lon="13.091699590832485"><ele>275.0</ele><time>2026-04-12T17:38:36.998Z</time></trkpt><trkpt lat="41.67430364931919" lon="13.091545981827753"><ele>275.0</ele><time>2026-04-12T17:38:37.998Z</time></trkpt><trkpt lat="41.67443933113479" lon="13.09143048355602"><ele>272.6666666666667</ele><time>2026-04-12T17:38:38.998Z</time></trkpt><trkpt lat="41.67459840474715" lon="13.091308314182378"><ele>270.3333333333333</ele><time>2026-04-12T17:38:39.998Z</time></trkpt><trkpt lat="41.67476852869616" lon="13.091192586493824"><ele>268.0</ele><time>2026-04-12T17:38:40.998Z</time></trkpt><trkpt lat="41.67493996917015" lon="13.091109948248162"><ele>268.0</ele><time>2026-04-12T17:38:41.998Z</time></trkpt><trkpt lat="41.67511709096838" lon="13.091062590576435"><ele>268.0</ele><time>2026-04-12T17:38:42.998Z</time></trkpt><trkpt lat="41.67528902086522" lon="13.090999925378872"><ele>268.0</ele><time>2026-04-12T17:38:43.998Z</time></trkpt><trkpt lat="41.675461488768896" lon="13.090950056633847"><ele>265.0</ele><time>2026-04-12T17:38:44.998Z</time></trkpt><trkpt lat="41.67562175565651" lon="13.090883978049254"><ele>262.0</ele><time>2026-04-12T17:38:45.998Z</time></trkpt><trkpt lat="41.67577665146646" lon="13.09080793568756"><ele>259.0</ele><time>2026-04-12T17:38:46.998Z</time></trkpt><trkpt lat="41.675934246177746" lon="13.090740834923652"><ele>258.66666666666663</ele><time>2026-04-12T17:38:47.998Z</time></trkpt><trkpt lat="41.67607731514804" lon="13.090646628268379"><ele>258.3333333333333</ele><time>2026-04-12T17:38:48.998Z</time></trkpt><trkpt lat="41.67622310235921" lon="13.090581358543664"><ele>258.0</ele><time>2026-04-12T17:38:49.998Z</time></trkpt><trkpt lat="41.67637244868817" lon="13.090528866799485"><ele>256.0</ele><time>2026-04-12T17:38:50.998Z</time></trkpt><trkpt lat="41.67650180706563" lon="13.090451228028575"><ele>254.0</ele><time>2026-04-12T17:38:51.998Z</time></trkpt><trkpt lat="41.67661601874678" lon="13.090407331373271"><ele>252.0</ele><time>2026-04-12T17:38:52.998Z</time></trkpt><trkpt lat="41.676708217252546" lon="13.090367384030618"><ele>250.0</ele><time>2026-04-12T17:38:53.998Z</time></trkpt><trkpt lat="41.67679068036279" lon="13.09033487118779"><ele>248.0</ele><time>2026-04-12T17:38:54.998Z</time></trkpt><trkpt lat="41.67685162326452" lon="13.090255996681517"><ele>248.0</ele><time>2026-04-12T17:38:55.998Z</time></trkpt><trkpt lat="41.676878689482336" lon="13.09012541600097"><ele>248.0</ele><time>2026-04-12T17:38:56.998Z</time></trkpt><trkpt lat="41.6768522973414" lon="13.089976086758645"><ele>248.0</ele><time>2026-04-12T17:38:57.998Z</time></trkpt><trkpt lat="41.676774282275446" lon="13.089809168400292"><ele>248.0</ele><time>2026-04-12T17:38:58.998Z</time></trkpt><trkpt lat="41.676672455401736" lon="13.089635698408399"><ele>245.33333333333334</ele><time>2026-04-12T17:38:59.998Z</time></trkpt><trkpt lat="41.67663876401912" lon="13.08942031683668"><ele>242.66666666666669</ele><time>2026-04-12T17:39:00.998Z</time></trkpt><trkpt lat="41.67662721915469" lon="13.089160885141373"><ele>240.0</ele><time>2026-04-12T17:39:01.998Z</time></trkpt><trkpt lat="41.67661863395994" lon="13.088847641943154"><ele>238.5</ele><time>2026-04-12T17:39:02.998Z</time></trkpt><trkpt lat="41.67660988462268" lon="13.088496355791596"><ele>237.0</ele><time>2026-04-12T17:39:03.998Z</time></trkpt><trkpt lat="41.67659292554034" lon="13.088111352318812"><ele>234.5</ele><time>2026-04-12T17:39:04.998Z</time></trkpt><trkpt lat="41.676585349702634" lon="13.087728131498972"><ele>232.0</ele><time>2026-04-12T17:39:05.998Z</time></trkpt><trkpt lat="41.67657851572619" lon="13.087385190553775"><ele>230.0</ele><time>2026-04-12T17:39:06.998Z</time></trkpt><trkpt lat="41.67656791551352" lon="13.087063199625378"><ele>228.0</ele><time>2026-04-12T17:39:07.998Z</time></trkpt><trkpt lat="41.67655642349297" lon="13.0867450023484"><ele>227.0</ele><time>2026-04-12T17:39:08.998Z</time></trkpt><trkpt lat="41.676551130531536" lon="13.086443370833642"><ele>226.0</ele><time>2026-04-12T17:39:09.998Z</time></trkpt><trkpt lat="41.67654784559441" lon="13.086159294816932"><ele>225.0</ele><time>2026-04-12T17:39:10.998Z</time></trkpt><trkpt lat="41.676545205467775" lon="13.085878526594747"><ele>225.0</ele><time>2026-04-12T17:39:11.998Z</time></trkpt><trkpt lat="41.676544002916245" lon="13.0855998086512"><ele>225.0</ele><time>2026-04-12T17:39:12.998Z</time></trkpt><trkpt lat="41.676538884879676" lon="13.085324824765864"><ele>225.0</ele><time>2026-04-12T17:39:13.998Z</time></trkpt><trkpt lat="41.676503707843146" lon="13.085061885043343"><ele>224.0</ele><time>2026-04-12T17:39:14.997Z</time></trkpt><trkpt lat="41.67644193161077" lon="13.084817676012849"><ele>223.0</ele><time>2026-04-12T17:39:15.997Z</time></trkpt><trkpt lat="41.67638814264323" lon="13.08457785497201"><ele>222.0</ele><time>2026-04-12T17:39:16.997Z</time></trkpt><trkpt lat="41.676337936224854" lon="13.084367602391154"><ele>222.0</ele><time>2026-04-12T17:39:17.997Z</time></trkpt><trkpt lat="41.67633047880729" lon="13.084157651900579"><ele>222.0</ele><time>2026-04-12T17:39:18.997Z</time></trkpt><trkpt lat="41.67635120673106" lon="13.083950174289749"><ele>222.0</ele><time>2026-04-12T17:39:19.997Z</time></trkpt><trkpt lat="41.67641875586865" lon="13.083652411133428"><ele>221.0</ele><time>2026-04-12T17:39:20.997Z</time></trkpt><trkpt lat="41.676508174497705" lon="13.083376329071868"><ele>220.0</ele><time>2026-04-12T17:39:21.997Z</time></trkpt><trkpt lat="41.67662558297171" lon="13.083103842711028"><ele>220.0</ele><time>2026-04-12T17:39:22.997Z</time></trkpt><trkpt lat="41.676741829814425" lon="13.082844702300633"><ele>220.0</ele><time>2026-04-12T17:39:23.997Z</time></trkpt><trkpt lat="41.676836524293016" lon="13.082601137675264"><ele>220.0</ele><time>2026-04-12T17:39:24.997Z</time></trkpt><trkpt lat="41.676941156764194" lon="13.082375706279675"><ele>217.0</ele><time>2026-04-12T17:39:25.997Z</time></trkpt><trkpt lat="41.67703958645204" lon="13.082153426982083"><ele>214.0</ele><time>2026-04-12T17:39:26.997Z</time></trkpt><trkpt lat="41.677148103872554" lon="13.081949117066118"><ele>211.0</ele><time>2026-04-12T17:39:27.997Z</time></trkpt><trkpt lat="41.6772297860535" lon="13.081726459080798"><ele>210.0</ele><time>2026-04-12T17:39:28.997Z</time></trkpt><trkpt lat="41.67732566842162" lon="13.081519685188942"><ele>209.0</ele><time>2026-04-12T17:39:29.997Z</time></trkpt><trkpt lat="41.67742083874016" lon="13.08130985210034"><ele>208.0</ele><time>2026-04-12T17:39:30.997Z</time></trkpt><trkpt lat="41.6775181723569" lon="13.081089946415158"><ele>208.0</ele><time>2026-04-12T17:39:32Z</time></trkpt><trkpt lat="41.67763512359196" lon="13.080892344766042"><ele>208.0</ele><time>2026-04-12T17:39:33Z</time></trkpt><trkpt lat="41.67775443485586" lon="13.080710822908275"><ele>208.0</ele><time>2026-04-12T17:39:34Z</time></trkpt><trkpt lat="41.67788726512311" lon="13.080534934255567"><ele>207.0</ele><time>2026-04-12T17:39:35Z</time></trkpt><trkpt lat="41.67802935336094" lon="13.08035418823252"><ele>206.0</ele><time>2026-04-12T17:39:36Z</time></trkpt><trkpt lat="41.678170048340164" lon="13.080157531947911"><ele>205.0</ele><time>2026-04-12T17:39:37Z</time></trkpt><trkpt lat="41.678320827638075" lon="13.07998156660128"><ele>204.33333333333331</ele><time>2026-04-12T17:39:38Z</time></trkpt><trkpt lat="41.67845966915938" lon="13.079818471457358"><ele>203.66666666666669</ele><time>2026-04-12T17:39:39Z</time></trkpt><trkpt lat="41.678594022650664" lon="13.079649641292848"><ele>203.0</ele><time>2026-04-12T17:39:40Z</time></trkpt><trkpt lat="41.678730022314745" lon="13.079479475362946"><ele>202.33333333333334</ele><time>2026-04-12T17:39:41Z</time></trkpt><trkpt lat="41.67886221416373" lon="13.079319018967595"><ele>201.66666666666669</ele><time>2026-04-12T17:39:42Z</time></trkpt><trkpt lat="41.67900098020518" lon="13.079149087223637"><ele>201.0</ele><time>2026-04-12T17:39:43Z</time></trkpt><trkpt lat="41.67913551382779" lon="13.078978639036015"><ele>200.66666666666669</ele><time>2026-04-12T17:39:44Z</time></trkpt><trkpt lat="41.6792803217796" lon="13.078831397875877"><ele>200.33333333333334</ele><time>2026-04-12T17:39:45Z</time></trkpt><trkpt lat="41.679399615138486" lon="13.07865954239074"><ele>200.0</ele><time>2026-04-12T17:39:46Z</time></trkpt><trkpt lat="41.67951937353613" lon="13.078513373133694"><ele>200.0</ele><time>2026-04-12T17:39:47Z</time></trkpt><trkpt lat="41.679636709632234" lon="13.078369138601413"><ele>200.0</ele><time>2026-04-12T17:39:48Z</time></trkpt><trkpt lat="41.67976030713148" lon="13.078221548390058"><ele>200.0</ele><time>2026-04-12T17:39:49Z</time></trkpt><trkpt lat="41.679878632077916" lon="13.078081255628291"><ele>200.0</ele><time>2026-04-12T17:39:50Z</time></trkpt><trkpt lat="41.67998544090881" lon="13.077948906847261"><ele>200.0</ele><time>2026-04-12T17:39:51Z</time></trkpt><trkpt lat="41.68008442345551" lon="13.077820239800115"><ele>200.0</ele><time>2026-04-12T17:39:52Z</time></trkpt><trkpt lat="41.680189041556304" lon="13.077719393568398"><ele>200.0</ele><time>2026-04-12T17:39:53Z</time></trkpt><trkpt lat="41.68027557199863" lon="13.077614676787967"><ele>199.2</ele><time>2026-04-12T17:39:54Z</time></trkpt><trkpt lat="41.6803420269063" lon="13.077510304144432"><ele>198.4</ele><time>2026-04-12T17:39:55Z</time></trkpt><trkpt lat="41.68040579243746" lon="13.077442117310015"><ele>197.60000000000002</ele><time>2026-04-12T17:39:56Z</time></trkpt><trkpt lat="41.6804638864835" lon="13.077377181966009"><ele>196.8</ele><time>2026-04-12T17:39:57Z</time></trkpt><trkpt lat="41.680562071055384" lon="13.07734165523205"><ele>196.0</ele><time>2026-04-12T17:39:58Z</time></trkpt><trkpt lat="41.6806333928407" lon="13.077158009601979"><ele>196.0</ele><time>2026-04-12T17:39:59Z</time></trkpt><trkpt lat="41.680736485096126" lon="13.077031669145507"><ele>196.0</ele><time>2026-04-12T17:40:00Z</time></trkpt><trkpt lat="41.680850527935156" lon="13.076889072080197"><ele>196.0</ele><time>2026-04-12T17:40:01Z</time></trkpt><trkpt lat="41.68095940112615" lon="13.076754336690092"><ele>196.0</ele><time>2026-04-12T17:40:02Z</time></trkpt><trkpt lat="41.681057501522886" lon="13.076631978835106"><ele>196.0</ele><time>2026-04-12T17:40:03Z</time></trkpt><trkpt lat="41.68115691050963" lon="13.076507359030227"><ele>196.0</ele><time>2026-04-12T17:40:03.999Z</time></trkpt><trkpt lat="41.68126795383273" lon="13.076394251472381"><ele>196.0</ele><time>2026-04-12T17:40:04.999Z</time></trkpt><trkpt lat="41.68136722424169" lon="13.076273459984765"><ele>196.0</ele><time>2026-04-12T17:40:05.999Z</time></trkpt><trkpt lat="41.68145708832407" lon="13.076163041211563"><ele>196.0</ele><time>2026-04-12T17:40:06.999Z</time></trkpt><trkpt lat="41.681539776034654" lon="13.076061440427955"><ele>196.0</ele><time>2026-04-12T17:40:07.999Z</time></trkpt><trkpt lat="41.68161640591542" lon="13.075967282966486"><ele>196.0</ele><time>2026-04-12T17:40:08.999Z</time></trkpt><trkpt lat="41.68168794659368" lon="13.07588039943949"><ele>196.0</ele><time>2026-04-12T17:40:09.999Z</time></trkpt><trkpt lat="41.681754068403535" lon="13.075800966353256"><ele>196.0</ele><time>2026-04-12T17:40:10.999Z</time></trkpt><trkpt lat="41.68181721843757" lon="13.075725103251147"><ele>196.25</ele><time>2026-04-12T17:40:11.999Z</time></trkpt><trkpt lat="41.68187161896295" lon="13.075659751102245"><ele>196.5</ele><time>2026-04-12T17:40:12.999Z</time></trkpt><trkpt lat="41.68194166004982" lon="13.075620101379561"><ele>196.75</ele><time>2026-04-12T17:40:14.999Z</time></trkpt><trkpt lat="41.682081639642185" lon="13.07583698498569"><ele>197.0</ele><time>2026-04-12T17:40:17.999Z</time></trkpt><trkpt lat="41.68214278892909" lon="13.075931514775093"><ele>197.0</ele><time>2026-04-12T17:40:19.999Z</time></trkpt><trkpt lat="41.68220994685451" lon="13.075860264514919"><ele>197.0</ele><time>2026-04-12T17:40:21.999Z</time></trkpt><trkpt lat="41.68226809375085" lon="13.075761686455873"><ele>197.0</ele><time>2026-04-12T17:40:22.999Z</time></trkpt><trkpt lat="41.68234015685714" lon="13.07562960830125"><ele>197.0</ele><time>2026-04-12T17:40:23.999Z</time></trkpt><trkpt lat="41.68241909602859" lon="13.075497155242923"><ele>197.0</ele><time>2026-04-12T17:40:24.999Z</time></trkpt><trkpt lat="41.68250068527682" lon="13.075352988744521"><ele>197.0</ele><time>2026-04-12T17:40:25.999Z</time></trkpt><trkpt lat="41.682588688920255" lon="13.075201564018409"><ele>197.0</ele><time>2026-04-12T17:40:26.999Z</time></trkpt><trkpt lat="41.682680580545735" lon="13.075050151714928"><ele>197.0</ele><time>2026-04-12T17:40:27.999Z</time></trkpt><trkpt lat="41.68277553428576" lon="13.074903244742819"><ele>197.0</ele><time>2026-04-12T17:40:28.999Z</time></trkpt><trkpt lat="41.68286670934434" lon="13.074759011712903"><ele>197.66666666666669</ele><time>2026-04-12T17:40:29.999Z</time></trkpt><trkpt lat="41.682853491000344" lon="13.07446314141341"><ele>198.33333333333331</ele><time>2026-04-12T17:40:30.999Z</time></trkpt><trkpt lat="41.682961637081284" lon="13.074328512620458"><ele>199.0</ele><time>2026-04-12T17:40:31.999Z</time></trkpt><trkpt lat="41.68307455102969" lon="13.074187948536037"><ele>199.0</ele><time>2026-04-12T17:40:32.999Z</time></trkpt><trkpt lat="41.683182899781265" lon="13.07405306744196"><ele>199.0</ele><time>2026-04-12T17:40:33.999Z</time></trkpt><trkpt lat="41.68327186011532" lon="13.073942322474766"><ele>199.0</ele><time>2026-04-12T17:40:34.999Z</time></trkpt><trkpt lat="41.68336252720105" lon="13.073830904159715"><ele>199.0</ele><time>2026-04-12T17:40:35.999Z</time></trkpt><trkpt lat="41.68345260525464" lon="13.073721143991433"><ele>199.0</ele><time>2026-04-12T17:40:36.999Z</time></trkpt><trkpt lat="41.6835359500739" lon="13.07361968837812"><ele>199.0</ele><time>2026-04-12T17:40:37.999Z</time></trkpt><trkpt lat="41.6836204558976" lon="13.07352686711088"><ele>199.0</ele><time>2026-04-12T17:40:38.999Z</time></trkpt><trkpt lat="41.68370361879352" lon="13.073458943750227"><ele>199.0</ele><time>2026-04-12T17:40:39.999Z</time></trkpt><trkpt lat="41.68377586599406" lon="13.073407267217569"><ele>199.0</ele><time>2026-04-12T17:40:40.998Z</time></trkpt><trkpt lat="41.683850353892474" lon="13.073361358796939"><ele>200.25</ele><time>2026-04-12T17:40:41.998Z</time></trkpt><trkpt lat="41.68391823563289" lon="13.073323631967535"><ele>201.5</ele><time>2026-04-12T17:40:42.998Z</time></trkpt><trkpt lat="41.68401353128112" lon="13.073371682020877"><ele>202.75</ele><time>2026-04-12T17:40:43.998Z</time></trkpt><trkpt lat="41.684152488949515" lon="13.073385172311252"><ele>204.0</ele><time>2026-04-12T17:40:44.998Z</time></trkpt><trkpt lat="41.68430195661417" lon="13.073392389485777"><ele>205.66666666666669</ele><time>2026-04-12T17:40:45.998Z</time></trkpt><trkpt lat="41.68446400838203" lon="13.07341003854074"><ele>207.33333333333334</ele><time>2026-04-12T17:40:46.998Z</time></trkpt><trkpt lat="41.68462420568098" lon="13.073390633889595"><ele>209.0</ele><time>2026-04-12T17:40:47.998Z</time></trkpt><trkpt lat="41.68479056045153" lon="13.073313773212263"><ele>209.66666666666669</ele><time>2026-04-12T17:40:48.998Z</time></trkpt><trkpt lat="41.68495937858607" lon="13.073215452676118"><ele>210.33333333333331</ele><time>2026-04-12T17:40:49.998Z</time></trkpt><trkpt lat="41.685161140147414" lon="13.073132865617453"><ele>211.0</ele><time>2026-04-12T17:40:50.998Z</time></trkpt><trkpt lat="41.68536836712306" lon="13.073057023248971"><ele>211.0</ele><time>2026-04-12T17:40:51.998Z</time></trkpt><trkpt lat="41.68560562853208" lon="13.072984166823941"><ele>211.0</ele><time>2026-04-12T17:40:52.998Z</time></trkpt><trkpt lat="41.68585763323953" lon="13.072897311609868"><ele>211.0</ele><time>2026-04-12T17:40:53.998Z</time></trkpt><trkpt lat="41.68609422366381" lon="13.072833855534826"><ele>211.0</ele><time>2026-04-12T17:40:54.998Z</time></trkpt><trkpt lat="41.686299009028964" lon="13.072774333844544"><ele>212.66666666666666</ele><time>2026-04-12T17:40:55.998Z</time></trkpt><trkpt lat="41.68648977594717" lon="13.072727326430096"><ele>214.33333333333331</ele><time>2026-04-12T17:40:56.998Z</time></trkpt><trkpt lat="41.686672423928805" lon="13.072669846304512"><ele>216.0</ele><time>2026-04-12T17:40:57.998Z</time></trkpt><trkpt lat="41.68684726884693" lon="13.072619219437573"><ele>218.33333333333331</ele><time>2026-04-12T17:40:58.998Z</time></trkpt><trkpt lat="41.68701363877127" lon="13.072588484984063"><ele>220.66666666666666</ele><time>2026-04-12T17:40:59.998Z</time></trkpt><trkpt lat="41.6871661467645" lon="13.072545570940608"><ele>223.0</ele><time>2026-04-12T17:41:00.998Z</time></trkpt><trkpt lat="41.68731505246526" lon="13.072483286418919"><ele>223.0</ele><time>2026-04-12T17:41:01.998Z</time></trkpt><trkpt lat="41.68746379090101" lon="13.072459879234728"><ele>223.0</ele><time>2026-04-12T17:41:02.998Z</time></trkpt><trkpt lat="41.68761318946478" lon="13.072495552376656"><ele>223.0</ele><time>2026-04-12T17:41:03.998Z</time></trkpt><trkpt lat="41.68774263831228" lon="13.072572336640741"><ele>223.0</ele><time>2026-04-12T17:41:04.998Z</time></trkpt><trkpt lat="41.68788919978409" lon="13.072693211056581"><ele>226.0</ele><time>2026-04-12T17:41:05.998Z</time></trkpt><trkpt lat="41.68804831407258" lon="13.07281491011958"><ele>229.0</ele><time>2026-04-12T17:41:06.998Z</time></trkpt><trkpt lat="41.68817291617357" lon="13.072926783932258"><ele>232.0</ele><time>2026-04-12T17:41:07.998Z</time></trkpt><trkpt lat="41.68828547746853" lon="13.073011574950339"><ele>232.0</ele><time>2026-04-12T17:41:08.998Z</time></trkpt><trkpt lat="41.68838709109563" lon="13.073088296017128"><ele>232.0</ele><time>2026-04-12T17:41:09.998Z</time></trkpt><trkpt lat="41.68849544757345" lon="13.073138055090736"><ele>232.0</ele><time>2026-04-12T17:41:10.998Z</time></trkpt><trkpt lat="41.688619620925344" lon="13.073139627651626"><ele>232.0</ele><time>2026-04-12T17:41:11.998Z</time></trkpt><trkpt lat="41.68875709225484" lon="13.073087511185562"><ele>232.0</ele><time>2026-04-12T17:41:12.998Z</time></trkpt><trkpt lat="41.68891446086373" lon="13.072984494550012"><ele>232.0</ele><time>2026-04-12T17:41:13.998Z</time></trkpt><trkpt lat="41.68908185944254" lon="13.072879043328559"><ele>232.0</ele><time>2026-04-12T17:41:14.998Z</time></trkpt><trkpt lat="41.689214097228195" lon="13.07280272844029"><ele>232.0</ele><time>2026-04-12T17:41:15.998Z</time></trkpt><trkpt lat="41.68932517810297" lon="13.072740967840184"><ele>232.0</ele><time>2026-04-12T17:41:16.998Z</time></trkpt><trkpt lat="41.68940553971836" lon="13.072651238917778"><ele>232.0</ele><time>2026-04-12T17:41:17.998Z</time></trkpt><trkpt lat="41.68946007272409" lon="13.072514960191537"><ele>232.0</ele><time>2026-04-12T17:41:18.997Z</time></trkpt><trkpt lat="41.689467836046056" lon="13.072327769381948"><ele>231.66666666666666</ele><time>2026-04-12T17:41:19.997Z</time></trkpt><trkpt lat="41.68944035940204" lon="13.072130528666401"><ele>231.33333333333331</ele><time>2026-04-12T17:41:20.997Z</time></trkpt><trkpt lat="41.68942870697638" lon="13.07191552712718"><ele>231.0</ele><time>2026-04-12T17:41:21.997Z</time></trkpt><trkpt lat="41.68941840919066" lon="13.071716984255636"><ele>229.25</ele><time>2026-04-12T17:41:22.997Z</time></trkpt><trkpt lat="41.689439547171325" lon="13.071527741170883"><ele>227.5</ele><time>2026-04-12T17:41:23.997Z</time></trkpt><trkpt lat="41.68951040988391" lon="13.071357908639959"><ele>225.75</ele><time>2026-04-12T17:41:24.997Z</time></trkpt><trkpt lat="41.6896142166808" lon="13.071208622039489"><ele>224.0</ele><time>2026-04-12T17:41:25.997Z</time></trkpt><trkpt lat="41.689747361212966" lon="13.071089815752742"><ele>224.0</ele><time>2026-04-12T17:41:26.997Z</time></trkpt><trkpt lat="41.68990369286586" lon="13.070950025025375"><ele>224.0</ele><time>2026-04-12T17:41:27.997Z</time></trkpt><trkpt lat="41.69005039391481" lon="13.070795901826088"><ele>224.0</ele><time>2026-04-12T17:41:28.997Z</time></trkpt><trkpt lat="41.69018734193117" lon="13.070668519810518"><ele>223.0</ele><time>2026-04-12T17:41:29.997Z</time></trkpt><trkpt lat="41.690312946454355" lon="13.070552082448188"><ele>222.0</ele><time>2026-04-12T17:41:30.997Z</time></trkpt><trkpt lat="41.69043185943628" lon="13.070440605622988"><ele>221.0</ele><time>2026-04-12T17:41:31.997Z</time></trkpt><trkpt lat="41.690547820560404" lon="13.070333620236307"><ele>220.0</ele><time>2026-04-12T17:41:32.997Z</time></trkpt><trkpt lat="41.69067001218273" lon="13.070215114823007"><ele>220.0</ele><time>2026-04-12T17:41:33.997Z</time></trkpt><trkpt lat="41.690787978991324" lon="13.070101577813634"><ele>220.0</ele><time>2026-04-12T17:41:34.997Z</time></trkpt><trkpt lat="41.69089448393361" lon="13.070003708053308"><ele>220.0</ele><time>2026-04-12T17:41:35.997Z</time></trkpt><trkpt lat="41.69099909335912" lon="13.069906329035021"><ele>220.0</ele><time>2026-04-12T17:41:36.997Z</time></trkpt><trkpt lat="41.691097384360496" lon="13.069810830807304"><ele>220.2</ele><time>2026-04-12T17:41:38Z</time></trkpt><trkpt lat="41.691191211837896" lon="13.069723690626766"><ele>220.4</ele><time>2026-04-12T17:41:39Z</time></trkpt><trkpt lat="41.69128334540481" lon="13.069667235446033"><ele>220.60000000000002</ele><time>2026-04-12T17:41:40Z</time></trkpt><trkpt lat="41.691339966815775" lon="13.069596050735534"><ele>220.8</ele><time>2026-04-12T17:41:41Z</time></trkpt><trkpt lat="41.69142070965757" lon="13.06957560909578"><ele>221.0</ele><time>2026-04-12T17:41:44Z</time></trkpt><trkpt lat="41.69151087541144" lon="13.069696963530992"><ele>221.0</ele><time>2026-04-12T17:41:46Z</time></trkpt><trkpt lat="41.69160740462808" lon="13.06980274841475"><ele>221.0</ele><time>2026-04-12T17:41:47Z</time></trkpt><trkpt lat="41.69169952538755" lon="13.069940691002795"><ele>221.0</ele><time>2026-04-12T17:41:48Z</time></trkpt><trkpt lat="41.69181549299872" lon="13.070092843165382"><ele>221.0</ele><time>2026-04-12T17:41:49Z</time></trkpt><trkpt lat="41.69193291046891" lon="13.070253693545906"><ele>220.33333333333334</ele><time>2026-04-12T17:41:50Z</time></trkpt><trkpt lat="41.69205662760997" lon="13.070433094383107"><ele>219.66666666666669</ele><time>2026-04-12T17:41:51Z</time></trkpt><trkpt lat="41.69218812625227" lon="13.070621751233514"><ele>219.0</ele><time>2026-04-12T17:41:52Z</time></trkpt><trkpt lat="41.69233825803164" lon="13.070826628771178"><ele>219.0</ele><time>2026-04-12T17:41:53Z</time></trkpt><trkpt lat="41.69247974721571" lon="13.071034976805233"><ele>219.0</ele><time>2026-04-12T17:41:54Z</time></trkpt><trkpt lat="41.69259732254963" lon="13.07122604689715"><ele>219.0</ele><time>2026-04-12T17:41:55Z</time></trkpt><trkpt lat="41.69271165877889" lon="13.071408674167698"><ele>221.33333333333331</ele><time>2026-04-12T17:41:56Z</time></trkpt><trkpt lat="41.69282766892279" lon="13.071581248207483"><ele>223.66666666666666</ele><time>2026-04-12T17:41:57Z</time></trkpt><trkpt lat="41.69293554983316" lon="13.071733075715866"><ele>226.0</ele><time>2026-04-12T17:41:58Z</time></trkpt><trkpt lat="41.69304753486497" lon="13.07184509766037"><ele>226.0</ele><time>2026-04-12T17:41:59Z</time></trkpt><trkpt lat="41.69317832637015" lon="13.071911771723489"><ele>226.0</ele><time>2026-04-12T17:42:00Z</time></trkpt><trkpt lat="41.69332992517525" lon="13.071910084936816"><ele>226.0</ele><time>2026-04-12T17:42:01Z</time></trkpt><trkpt lat="41.69349602662162" lon="13.07186677625335"><ele>226.33333333333331</ele><time>2026-04-12T17:42:02Z</time></trkpt><trkpt lat="41.69366370666678" lon="13.071884215531853"><ele>226.66666666666669</ele><time>2026-04-12T17:42:03Z</time></trkpt><trkpt lat="41.69381503685394" lon="13.071995740191884"><ele>227.0</ele><time>2026-04-12T17:42:04Z</time></trkpt><trkpt lat="41.69399018874136" lon="13.07215593549545"><ele>227.0</ele><time>2026-04-12T17:42:05Z</time></trkpt><trkpt lat="41.69417358660151" lon="13.07234478281493"><ele>227.0</ele><time>2026-04-12T17:42:06Z</time></trkpt><trkpt lat="41.69436710908045" lon="13.072551216787122"><ele>230.0</ele><time>2026-04-12T17:42:07Z</time></trkpt><trkpt lat="41.69458659943167" lon="13.07276296526087"><ele>233.0</ele><time>2026-04-12T17:42:08Z</time></trkpt><trkpt lat="41.6948102733332" lon="13.07298322120029"><ele>233.0</ele><time>2026-04-12T17:42:08.999Z</time></trkpt><trkpt lat="41.69502801887839" lon="13.073209780343737"><ele>233.0</ele><time>2026-04-12T17:42:09.999Z</time></trkpt><trkpt lat="41.69522083545618" lon="13.073416024619366"><ele>236.0</ele><time>2026-04-12T17:42:10.999Z</time></trkpt><trkpt lat="41.695404231643735" lon="13.073602131161952"><ele>239.0</ele><time>2026-04-12T17:42:11.999Z</time></trkpt><trkpt lat="41.695575512528336" lon="13.073775348184553"><ele>242.0</ele><time>2026-04-12T17:42:12.999Z</time></trkpt><trkpt lat="41.695735016839585" lon="13.073940322671726"><ele>242.0</ele><time>2026-04-12T17:42:13.999Z</time></trkpt><trkpt lat="41.69589023463659" lon="13.074102816697499"><ele>242.0</ele><time>2026-04-12T17:42:14.999Z</time></trkpt><trkpt lat="41.69604524425106" lon="13.074266228568176"><ele>242.0</ele><time>2026-04-12T17:42:15.999Z</time></trkpt><trkpt lat="41.69619630903083" lon="13.074417108394965"><ele>240.0</ele><time>2026-04-12T17:42:16.999Z</time></trkpt><trkpt lat="41.696345752147856" lon="13.074558756465557"><ele>238.0</ele><time>2026-04-12T17:42:17.999Z</time></trkpt><trkpt lat="41.69648626101207" lon="13.074702260116242"><ele>236.0</ele><time>2026-04-12T17:42:18.999Z</time></trkpt><trkpt lat="41.69661390663945" lon="13.074835423560083"><ele>236.25</ele><time>2026-04-12T17:42:19.999Z</time></trkpt><trkpt lat="41.69672897922954" lon="13.074955465557517"><ele>236.5</ele><time>2026-04-12T17:42:20.999Z</time></trkpt><trkpt lat="41.69683464427688" lon="13.075056547991705"><ele>236.75</ele><time>2026-04-12T17:42:21.999Z</time></trkpt><trkpt lat="41.6969308072793" lon="13.075152948745433"><ele>237.0</ele><time>2026-04-12T17:42:22.999Z</time></trkpt><trkpt lat="41.697013380149286" lon="13.075234791510413"><ele>237.0</ele><time>2026-04-12T17:42:23.999Z</time></trkpt><trkpt lat="41.697063413975485" lon="13.075296576704691"><ele>237.0</ele><time>2026-04-12T17:42:24.999Z</time></trkpt><trkpt lat="41.697208712023134" lon="13.07519968556788"><ele>237.0</ele><time>2026-04-12T17:42:26.999Z</time></trkpt><trkpt lat="41.69727378862067" lon="13.075146271981328"><ele>237.0</ele><time>2026-04-12T17:42:27.999Z</time></trkpt><trkpt lat="41.69733561493761" lon="13.075091129310096"><ele>237.0</ele><time>2026-04-12T17:42:28.999Z</time></trkpt><trkpt lat="41.697384592924315" lon="13.075030158383115"><ele>237.0</ele><time>2026-04-12T17:42:29.999Z</time></trkpt><trkpt lat="41.697441760757975" lon="13.074979137482904"><ele>237.0</ele><time>2026-04-12T17:42:30.999Z</time></trkpt><trkpt lat="41.697511710597965" lon="13.074943161128475"><ele>237.0</ele><time>2026-04-12T17:42:31.999Z</time></trkpt><trkpt lat="41.69758225794276" lon="13.074887125481723"><ele>237.0</ele><time>2026-04-12T17:42:32.999Z</time></trkpt><trkpt lat="41.69765192838652" lon="13.07480765017434"><ele>237.0</ele><time>2026-04-12T17:42:33.999Z</time></trkpt><trkpt lat="41.69774664742383" lon="13.074745588086017"><ele>237.0</ele><time>2026-04-12T17:42:34.999Z</time></trkpt><trkpt lat="41.69785622215075" lon="13.074689912067509"><ele>234.39999999999998</ele><time>2026-04-12T17:42:35.999Z</time></trkpt><trkpt lat="41.69794441711576" lon="13.074621418235525"><ele>231.79999999999998</ele><time>2026-04-12T17:42:36.999Z</time></trkpt><trkpt lat="41.698042365676066" lon="13.074551995454861"><ele>229.2</ele><time>2026-04-12T17:42:37.999Z</time></trkpt><trkpt lat="41.69813763964497" lon="13.074494384837166"><ele>226.6</ele><time>2026-04-12T17:42:38.999Z</time></trkpt><trkpt lat="41.69821759213565" lon="13.074423317095464"><ele>224.0</ele><time>2026-04-12T17:42:39.999Z</time></trkpt><trkpt lat="41.69828172412202" lon="13.074323340462602"><ele>224.0</ele><time>2026-04-12T17:42:40.999Z</time></trkpt><trkpt lat="41.69832032612747" lon="13.074238425549897"><ele>224.0</ele><time>2026-04-12T17:42:41.999Z</time></trkpt><trkpt lat="41.69838686162944" lon="13.074143533224236"><ele>224.0</ele><time>2026-04-12T17:42:43.999Z</time></trkpt><trkpt lat="41.698567036318835" lon="13.07425761741924"><ele>224.0</ele><time>2026-04-12T17:42:45.998Z</time></trkpt><trkpt lat="41.69868611836128" lon="13.074309597267519"><ele>223.39999999999998</ele><time>2026-04-12T17:42:46.998Z</time></trkpt><trkpt lat="41.69878010103805" lon="13.074385216458536"><ele>222.79999999999998</ele><time>2026-04-12T17:42:47.998Z</time></trkpt><trkpt lat="41.69888017192794" lon="13.07442678614842"><ele>222.20000000000002</ele><time>2026-04-12T17:42:48.998Z</time></trkpt><trkpt lat="41.698988568451064" lon="13.074447826275064"><ele>221.60000000000002</ele><time>2026-04-12T17:42:49.998Z</time></trkpt><trkpt lat="41.69907810770427" lon="13.074455880137041"><ele>221.0</ele><time>2026-04-12T17:42:50.998Z</time></trkpt><trkpt lat="41.69918478218821" lon="13.074454189823944"><ele>221.0</ele><time>2026-04-12T17:42:51.998Z</time></trkpt><trkpt lat="41.69927971645137" lon="13.074440318741825"><ele>221.00000000000003</ele><time>2026-04-12T17:42:52.998Z</time></trkpt><trkpt lat="41.69936522305137" lon="13.074425265130778"><ele>221.00000000000003</ele><time>2026-04-12T17:42:53.998Z</time></trkpt><trkpt lat="41.6994603358091" lon="13.074388000856192"><ele>221.0</ele><time>2026-04-12T17:42:54.998Z</time></trkpt><trkpt lat="41.699567336192715" lon="13.074323751167116"><ele>221.0</ele><time>2026-04-12T17:42:55.998Z</time></trkpt><trkpt lat="41.699661866568306" lon="13.074242326619236"><ele>220.75</ele><time>2026-04-12T17:42:56.998Z</time></trkpt><trkpt lat="41.699761642920635" lon="13.074135188302092"><ele>220.5</ele><time>2026-04-12T17:42:57.998Z</time></trkpt><trkpt lat="41.69987872280324" lon="13.074051612655843"><ele>220.25</ele><time>2026-04-12T17:42:58.998Z</time></trkpt><trkpt lat="41.69997835384334" lon="13.073967170470786"><ele>220.0</ele><time>2026-04-12T17:42:59.998Z</time></trkpt><trkpt lat="41.700064366227934" lon="13.073874130294538"><ele>220.0</ele><time>2026-04-12T17:43:00.998Z</time></trkpt><trkpt lat="41.700164222584235" lon="13.073806466364099"><ele>220.0</ele><time>2026-04-12T17:43:01.998Z</time></trkpt><trkpt lat="41.70028696359647" lon="13.073745234950577"><ele>220.0</ele><time>2026-04-12T17:43:02.998Z</time></trkpt><trkpt lat="41.70043100985984" lon="13.073647223453218"><ele>220.0</ele><time>2026-04-12T17:43:03.998Z</time></trkpt><trkpt lat="41.700556503665105" lon="13.073534847704286"><ele>221.0</ele><time>2026-04-12T17:43:04.998Z</time></trkpt><trkpt lat="41.70067723591237" lon="13.073470057408839"><ele>222.0</ele><time>2026-04-12T17:43:05.998Z</time></trkpt><trkpt lat="41.700766234260385" lon="13.073389774016862"><ele>223.0</ele><time>2026-04-12T17:43:06.998Z</time></trkpt><trkpt lat="41.70085256328826" lon="13.073321459597816"><ele>224.0</ele><time>2026-04-12T17:43:07.998Z</time></trkpt><trkpt lat="41.70092841817882" lon="13.073271931419274"><ele>225.0</ele><time>2026-04-12T17:43:08.998Z</time></trkpt><trkpt lat="41.70099225366068" lon="13.073215757985045"><ele>225.33333333333334</ele><time>2026-04-12T17:43:09.998Z</time></trkpt><trkpt lat="41.70107679066711" lon="13.07315054408027"><ele>225.66666666666669</ele><time>2026-04-12T17:43:11.998Z</time></trkpt><trkpt lat="41.70115019942316" lon="13.07311706059349"><ele>226.0</ele><time>2026-04-12T17:43:13.998Z</time></trkpt><trkpt lat="41.70120290117264" lon="13.073223452101814"><ele>226.33333333333334</ele><time>2026-04-12T17:43:15.998Z</time></trkpt><trkpt lat="41.701210295624676" lon="13.073326485670842"><ele>226.66666666666669</ele><time>2026-04-12T17:43:16.998Z</time></trkpt><trkpt lat="41.70121851420146" lon="13.073439930210313"><ele>227.0</ele><time>2026-04-12T17:43:17.998Z</time></trkpt><trkpt lat="41.70118402407013" lon="13.073516601319472"><ele>227.25</ele><time>2026-04-12T17:43:18.998Z</time></trkpt><trkpt lat="41.70114055314796" lon="13.073680235493722"><ele>227.5</ele><time>2026-04-12T17:43:20.998Z</time></trkpt><trkpt lat="41.701079378490526" lon="13.073864133726557"><ele>227.75</ele><time>2026-04-12T17:43:22.997Z</time></trkpt><trkpt lat="41.701035141207576" lon="13.073992369420914"><ele>228.0</ele><time>2026-04-12T17:43:24.997Z</time></trkpt><trkpt lat="41.70099090469595" lon="13.074150765018665"><ele>227.33333333333334</ele><time>2026-04-12T17:43:26.997Z</time></trkpt><trkpt lat="41.70096531509189" lon="13.074242392707339"><ele>226.66666666666669</ele><time>2026-04-12T17:43:27.997Z</time></trkpt><trkpt lat="41.70094257268065" lon="13.074323825538801"><ele>226.0</ele><time>2026-04-12T17:43:28.997Z</time></trkpt><trkpt lat="41.70091950830641" lon="13.074406411379737"><ele>225.33333333333334</ele><time>2026-04-12T17:43:29.997Z</time></trkpt><trkpt lat="41.700887663537095" lon="13.074561117062638"><ele>224.66666666666669</ele><time>2026-04-12T17:43:31.997Z</time></trkpt><trkpt lat="41.70086457546546" lon="13.074648811084112"><ele>224.0</ele><time>2026-04-12T17:43:32.997Z</time></trkpt><trkpt lat="41.700826603147064" lon="13.074796972869782"><ele>224.00000000000003</ele><time>2026-04-12T17:43:34.997Z</time></trkpt><trkpt lat="41.70078866197773" lon="13.074909735435545"><ele>224.0</ele><time>2026-04-12T17:43:36.997Z</time></trkpt><trkpt lat="41.70075405742296" lon="13.074989154631085"><ele>224.0</ele><time>2026-04-12T17:43:38.997Z</time></trkpt><trkpt lat="41.70072625174519" lon="13.075087158055673"><ele>224.0</ele><time>2026-04-12T17:43:40.997Z</time></trkpt><trkpt lat="41.70070978767387" lon="13.075175815900998"><ele>224.00000000000003</ele><time>2026-04-12T17:43:42.997Z</time></trkpt><trkpt lat="41.700685366609676" lon="13.075278371059081"><ele>224.0</ele><time>2026-04-12T17:43:45Z</time></trkpt><trkpt lat="41.700658500670556" lon="13.075378571557904"><ele>223.66666666666669</ele><time>2026-04-12T17:43:47Z</time></trkpt><trkpt lat="41.70062908777802" lon="13.075479488122635"><ele>223.33333333333334</ele><time>2026-04-12T17:43:49Z</time></trkpt><trkpt lat="41.70060629851146" lon="13.075575402432293"><ele>223.0</ele><time>2026-04-12T17:43:51Z</time></trkpt><trkpt lat="41.70057217663756" lon="13.075701366407639"><ele>222.66666666666669</ele><time>2026-04-12T17:43:53Z</time></trkpt><trkpt lat="41.70055231395087" lon="13.07578397193246"><ele>222.33333333333334</ele><time>2026-04-12T17:43:54Z</time></trkpt><trkpt lat="41.70050631308528" lon="13.07591652121793"><ele>222.0</ele><time>2026-04-12T17:43:56Z</time></trkpt><trkpt lat="41.70048234332352" lon="13.076009576115903"><ele>221.5</ele><time>2026-04-12T17:43:57Z</time></trkpt><trkpt lat="41.700459497205834" lon="13.076098257440046"><ele>221.0</ele><time>2026-04-12T17:43:58Z</time></trkpt><trkpt lat="41.70043422245656" lon="13.07619607800126"><ele>220.5</ele><time>2026-04-12T17:43:59Z</time></trkpt><trkpt lat="41.70040454857616" lon="13.076310924085254"><ele>220.0</ele><time>2026-04-12T17:44:00Z</time></trkpt><trkpt lat="41.70037967359336" lon="13.076407197349996"><ele>219.5</ele><time>2026-04-12T17:44:01Z</time></trkpt><trkpt lat="41.70035878920286" lon="13.076488025888835"><ele>219.0</ele><time>2026-04-12T17:44:02Z</time></trkpt><trkpt lat="41.700333820656994" lon="13.07663510903315"><ele>218.39999999999998</ele><time>2026-04-12T17:44:04Z</time></trkpt><trkpt lat="41.70028796417936" lon="13.076746115696379"><ele>217.79999999999998</ele><time>2026-04-12T17:44:06Z</time></trkpt><trkpt lat="41.70026303413182" lon="13.076875987367684"><ele>217.20000000000002</ele><time>2026-04-12T17:44:08Z</time></trkpt><trkpt lat="41.70022308763342" lon="13.077017755204855"><ele>216.60000000000002</ele><time>2026-04-12T17:44:10Z</time></trkpt><trkpt lat="41.70018958985085" lon="13.077154341001576"><ele>216.0</ele><time>2026-04-12T17:44:12Z</time></trkpt><trkpt lat="41.70017739109729" lon="13.07726139755963"><ele>216.0</ele><time>2026-04-12T17:44:13.999Z</time></trkpt><trkpt lat="41.700157645156175" lon="13.07738745923411"><ele>216.0</ele><time>2026-04-12T17:44:16.999Z</time></trkpt><trkpt lat="41.700146130182326" lon="13.07748271650901"><ele>216.0</ele><time>2026-04-12T17:44:17.999Z</time></trkpt><trkpt lat="41.700130596434136" lon="13.077588674574633"><ele>216.0</ele><time>2026-04-12T17:44:18.999Z</time></trkpt><trkpt lat="41.70013100467851" lon="13.077693351476192"><ele>216.0</ele><time>2026-04-12T17:44:19.999Z</time></trkpt><trkpt lat="41.70012204647311" lon="13.077826948656604"><ele>216.0</ele><time>2026-04-12T17:44:20.999Z</time></trkpt><trkpt lat="41.70012450355584" lon="13.077959050883198"><ele>217.0</ele><time>2026-04-12T17:44:21.999Z</time></trkpt><trkpt lat="41.700132075284515" lon="13.078115876510829"><ele>218.00000000000003</ele><time>2026-04-12T17:44:23.999Z</time></trkpt><trkpt lat="41.70009922609594" lon="13.07819380598762"><ele>219.00000000000003</ele><time>2026-04-12T17:44:24.999Z</time></trkpt><trkpt lat="41.700070584659656" lon="13.078286023613432"><ele>220.0</ele><time>2026-04-12T17:44:25.999Z</time></trkpt><trkpt lat="41.70002988583051" lon="13.078392742969507"><ele>221.0</ele><time>2026-04-12T17:44:26.999Z</time></trkpt><trkpt lat="41.69998880588565" lon="13.078542115066952"><ele>221.00000000000003</ele><time>2026-04-12T17:44:27.999Z</time></trkpt><trkpt lat="41.69992931870058" lon="13.078645087422752"><ele>221.0</ele><time>2026-04-12T17:44:28.999Z</time></trkpt><trkpt lat="41.69988842259546" lon="13.078740882268333"><ele>221.0</ele><time>2026-04-12T17:44:29.999Z</time></trkpt><trkpt lat="41.699856526841415" lon="13.078813918962307"><ele>221.0</ele><time>2026-04-12T17:44:30.999Z</time></trkpt><trkpt lat="41.699811148336806" lon="13.07892409468078"><ele>221.00000000000003</ele><time>2026-04-12T17:44:32.999Z</time></trkpt><trkpt lat="41.69978229055893" lon="13.07900861908796"><ele>221.0</ele><time>2026-04-12T17:44:34.999Z</time></trkpt><trkpt lat="41.69975675349365" lon="13.079090462430104"><ele>221.20000000000002</ele><time>2026-04-12T17:44:37.999Z</time></trkpt><trkpt lat="41.69972972832626" lon="13.07921124898934"><ele>221.40000000000003</ele><time>2026-04-12T17:44:39.999Z</time></trkpt><trkpt lat="41.69973555169091" lon="13.079340496515172"><ele>221.6</ele><time>2026-04-12T17:44:41.999Z</time></trkpt><trkpt lat="41.699827376787304" lon="13.079427261804542"><ele>221.8</ele><time>2026-04-12T17:44:45.999Z</time></trkpt><trkpt lat="41.699899477515764" lon="13.079478610430987"><ele>222.0</ele><time>2026-04-12T17:44:46.999Z</time></trkpt><trkpt lat="41.69995879199516" lon="13.079579672267815"><ele>222.0</ele><time>2026-04-12T17:44:47.999Z</time></trkpt><trkpt lat="41.70000619773328" lon="13.07965120970927"><ele>222.0</ele><time>2026-04-12T17:44:48.999Z</time></trkpt><trkpt lat="41.700039861299885" lon="13.079734754732902"><ele>222.0</ele><time>2026-04-12T17:44:49.998Z</time></trkpt><trkpt lat="41.700063576599" lon="13.079823725903772"><ele>222.0</ele><time>2026-04-12T17:44:50.998Z</time></trkpt><trkpt lat="41.70007200381219" lon="13.079962867486127"><ele>222.0</ele><time>2026-04-12T17:44:52.998Z</time></trkpt><trkpt lat="41.69994018172008" lon="13.079904283910725"><ele>222.0</ele><time>2026-04-12T17:44:58.998Z</time></trkpt><trkpt lat="41.69983962393453" lon="13.079858159286863"><ele>222.0</ele><time>2026-04-12T17:44:59.998Z</time></trkpt><trkpt lat="41.699746021876045" lon="13.079775291316745"><ele>222.0</ele><time>2026-04-12T17:45:00.998Z</time></trkpt><trkpt lat="41.69966473537074" lon="13.07972128754279"><ele>222.0</ele><time>2026-04-12T17:45:01.998Z</time></trkpt><trkpt lat="41.699593766340165" lon="13.079690407157306"><ele>222.0</ele><time>2026-04-12T17:45:02.998Z</time></trkpt><trkpt lat="41.69948087160942" lon="13.079646672764568"><ele>223.5</ele><time>2026-04-12T17:45:04.998Z</time></trkpt><trkpt lat="41.69936423938922" lon="13.079737155017316"><ele>225.0</ele><time>2026-04-12T17:45:06.998Z</time></trkpt><trkpt lat="41.69930162272248" lon="13.079806156089878"><ele>226.5</ele><time>2026-04-12T17:45:07.998Z</time></trkpt><trkpt lat="41.6991851602896" lon="13.07962875572459"><ele>228.0</ele><time>2026-04-12T17:45:08.998Z</time></trkpt><trkpt lat="41.69904645524988" lon="13.079696542128547"><ele>228.0</ele><time>2026-04-12T17:45:09.998Z</time></trkpt><trkpt lat="41.698969239856424" lon="13.079777456183878"><ele>228.0</ele><time>2026-04-12T17:45:10.998Z</time></trkpt><trkpt lat="41.6989046626566" lon="13.07986642025216"><ele>228.0</ele><time>2026-04-12T17:45:11.998Z</time></trkpt><trkpt lat="41.6988367517505" lon="13.079940351854248"><ele>228.0</ele><time>2026-04-12T17:45:13.998Z</time></trkpt><trkpt lat="41.698760609465836" lon="13.080002425214595"><ele>228.0</ele><time>2026-04-12T17:45:15.998Z</time></trkpt><trkpt lat="41.698695614476094" lon="13.080055514501302"><ele>228.0</ele><time>2026-04-12T17:45:17.998Z</time></trkpt><trkpt lat="41.698704600847485" lon="13.079969576159357"><ele>228.0</ele><time>2026-04-12T17:45:19.998Z</time></trkpt><trkpt lat="41.6986817460166" lon="13.079857942759546"><ele>228.0</ele><time>2026-04-12T17:45:23.998Z</time></trkpt><trkpt lat="41.69861150443513" lon="13.079766490466504"><ele>228.0</ele><time>2026-04-12T17:45:26.997Z</time></trkpt><trkpt lat="41.69853827579511" lon="13.079662736648297"><ele>228.0</ele><time>2026-04-12T17:45:29.997Z</time></trkpt><trkpt lat="41.698454815422814" lon="13.079538475406565"><ele>228.0</ele><time>2026-04-12T17:45:31.997Z</time></trkpt><trkpt lat="41.69839492750263" lon="13.07947739084309"><ele>228.5</ele><time>2026-04-12T17:45:32.997Z</time></trkpt><trkpt lat="41.69837768270172" lon="13.079377967221312"><ele>229.0</ele><time>2026-04-12T17:45:34.997Z</time></trkpt><trkpt lat="41.69846109890628" lon="13.079242789217792"><ele>229.5</ele><time>2026-04-12T17:45:36.997Z</time></trkpt><trkpt lat="41.698509283501686" lon="13.079180795152757"><ele>230.0</ele><time>2026-04-12T17:45:37.997Z</time></trkpt><trkpt lat="41.69852173479504" lon="13.07907946162241"><ele>230.5</ele><time>2026-04-12T17:45:39.997Z</time></trkpt><trkpt lat="41.698465763952456" lon="13.078979475503246"><ele>231.0</ele><time>2026-04-12T17:45:42.997Z</time></trkpt><trkpt lat="41.6984558675778" lon="13.079075724782045"><ele>231.4</ele><time>2026-04-12T17:45:45.997Z</time></trkpt><trkpt lat="41.698523177018686" lon="13.079133884506826"><ele>231.8</ele><time>2026-04-12T17:45:47.997Z</time></trkpt><trkpt lat="41.69849460241622" lon="13.079273093627018"><ele>232.20000000000002</ele><time>2026-04-12T17:45:50Z</time></trkpt><trkpt lat="41.69849299093984" lon="13.07937499297503"><ele>232.60000000000002</ele><time>2026-04-12T17:45:51Z</time></trkpt><trkpt lat="41.69850796523102" lon="13.079483290633267"><ele>233.0</ele><time>2026-04-12T17:45:52Z</time></trkpt><trkpt lat="41.69852920003506" lon="13.079629252650857"><ele>233.0</ele><time>2026-04-12T17:45:54Z</time></trkpt><trkpt lat="41.69856729454055" lon="13.079703284940638"><ele>233.0</ele><time>2026-04-12T17:45:57Z</time></trkpt></trkseg></trk></gpx>